Provisional Data: Bowman Creek near Noxen, PA


Please select a monitoring station.
Please select start date.
Please select start date.

Toggle Unit: C/F Toggle Unit: C/F
Sample Time Temperature (C) Temperature (F) Specific Conductivity (mS/cm) pH   Turbidity (NTU+) DO (mg/L)
5/17/2022 12:00:00 AM 13.9 57.02 0.041 6.79 2.15 9.72
5/17/2022 12:15:00 AM 13.8 56.84 0.041 6.7 2 9.74
5/17/2022 12:30:00 AM 13.7 56.66 0.041 6.75 2.08 9.76
5/17/2022 12:45:00 AM 13.61 56.498 0.041 6.78 2.08 9.78
5/17/2022 1:00:00 AM 13.52 56.336 0.041 6.77 2.08 9.8
5/17/2022 1:15:00 AM 13.42 56.156 0.041 6.7 1.99 9.82
5/17/2022 1:30:00 AM 13.33 55.994 0.041 6.76 2.05 9.85
5/17/2022 1:45:00 AM 13.24 55.832 0.041 6.72 1.95 9.88
5/17/2022 2:00:00 AM 13.16 55.688 0.041 6.73 2.08 9.9
5/17/2022 2:15:00 AM 13.07 55.526 0.041 6.73 1.95 9.91
5/17/2022 2:30:00 AM 12.99 55.382 0.041 6.77 2.24 9.93
5/17/2022 2:45:00 AM 12.9 55.22 0.041 6.74 1.98 9.94
5/17/2022 3:00:00 AM 12.82 55.076 0.041 6.72 1.97 9.96
5/17/2022 3:15:00 AM 12.73 54.914 0.041 6.74 1.94 9.99
5/17/2022 3:30:00 AM 12.65 54.77 0.041 6.73 2.03 10.01
5/17/2022 3:45:00 AM 12.58 54.644 0.041 6.74 1.96 10.02
5/17/2022 4:00:00 AM 12.5 54.5 0.041 6.72 1.86 10.05
5/17/2022 4:15:00 AM 12.42 54.356 0.041 6.73 2.01 10.07
5/17/2022 4:30:00 AM 12.35 54.23 0.041 6.72 1.88 10.08
5/17/2022 4:45:00 AM 12.28 54.104 0.041 6.72 1.94 10.09
5/17/2022 5:00:00 AM 12.22 53.996 0.041 6.76 1.96 10.11
5/17/2022 5:15:00 AM 12.15 53.87 0.041 6.71 1.91 10.12
5/17/2022 5:30:00 AM 12.09 53.762 0.041 6.74 1.94 10.15
5/17/2022 5:45:00 AM 12.03 53.654 0.041 6.73 1.99 10.17
5/17/2022 6:00:00 AM 11.97 53.546 0.041 6.75 1.96 10.2
5/17/2022 6:15:00 AM 11.91 53.438 0.041 6.76 1.79 10.23
5/17/2022 6:30:00 AM 11.86 53.348 0.041 6.77 1.76 10.29
5/17/2022 6:45:00 AM 11.81 53.258 0.041 6.78 1.86 10.34
5/17/2022 7:00:00 AM 11.77 53.186 0.041 6.73 1.78 10.39
5/17/2022 7:15:00 AM 11.74 53.132 0.041 6.81 1.71 10.44
5/17/2022 7:30:00 AM 11.72 53.096 0.041 6.8 1.87 10.48
5/17/2022 7:45:00 AM 11.71 53.078 0.041 6.78 1.7 10.52
5/17/2022 8:00:00 AM 11.74 53.132 0.04 6.83 1.76 10.57
5/17/2022 8:15:00 AM 11.77 53.186 0.04 6.85 1.73 10.61
5/17/2022 8:30:00 AM 11.82 53.276 0.04 6.87 1.77 10.65
5/17/2022 8:45:00 AM 11.83 53.294 0.04 6.85 1.7 10.66
5/17/2022 9:00:00 AM 11.92 53.456 0.04 6.9 1.66 10.69
5/17/2022 9:15:00 AM 11.96 53.528 0.04 6.88 1.74 10.72
5/17/2022 9:30:00 AM 12.02 53.636 0.04 6.94 1.73 10.75
5/17/2022 9:45:00 AM 12.11 53.798 0.04 6.92 1.71 10.77
5/17/2022 10:00:00 AM 12.23 54.014 0.04 6.95 1.61 10.78
5/17/2022 10:15:00 AM 12.35 54.23 0.04 6.96 1.66 10.78
5/17/2022 10:30:00 AM 12.59 54.662 0.04 6.96 1.6 10.78
5/17/2022 10:45:00 AM 12.76 54.968 0.04 6.97 1.66 10.74
5/17/2022 11:00:00 AM 12.9 55.22 0.04 7 1.58 10.68
5/17/2022 11:15:00 AM 12.94 55.292 0.04 6.97 1.62 10.63
5/17/2022 11:30:00 AM 12.99 55.382 0.04 6.96 1.59 10.62
5/17/2022 11:45:00 AM 13.24 55.832 0.04 6.99 1.66 10.61
5/17/2022 12:00:00 PM 13.49 56.282 0.04 6.99 1.54 10.57
5/17/2022 12:15:00 PM 13.82 56.876 0.04 7.03 1.63 10.51
5/17/2022 12:30:00 PM 13.88 56.984 0.04 6.99 1.63 10.47
5/17/2022 12:45:00 PM 13.91 57.038 0.04 6.99 1.52 10.44
5/17/2022 1:00:00 PM 13.88 56.984 0.04 7.02 1.57 10.4
5/17/2022 1:15:00 PM 14.17 57.506 0.04 6.99 1.62 10.41
5/17/2022 1:30:00 PM 14.26 57.668 0.04 7.02 1.53 10.37
5/17/2022 1:45:00 PM 14.34 57.812 0.04 7.03 1.56 10.36
5/17/2022 2:00:00 PM 14.55 58.19 0.04 7.05 1.55 10.36
5/17/2022 2:15:00 PM 14.6 58.28 0.04 6.97 1.59 10.33
5/17/2022 2:30:00 PM 14.72 58.496 0.04 7.03 1.5 10.3
5/17/2022 2:45:00 PM 14.92 58.856 0.04 7.04 1.62 10.28
5/17/2022 3:00:00 PM 15.02 59.036 0.04 7.02 1.51 10.26
5/17/2022 3:15:00 PM 15.12 59.216 0.04 7.04 1.5 10.21
5/17/2022 3:30:00 PM 15.24 59.432 0.04 7.03 1.48 10.18
5/17/2022 3:45:00 PM 15.32 59.576 0.04 7.05 1.56 10.12
5/17/2022 4:00:00 PM 15.41 59.738 0.04 7.06 1.53 10.11
5/17/2022 4:15:00 PM 15.43 59.774 0.04 6.97 1.51 10.09
5/17/2022 4:30:00 PM 15.46 59.828 0.04 7.02 1.54 10.05
5/17/2022 4:45:00 PM 15.46 59.828 0.04 7.01 1.43 10.01
5/17/2022 5:00:00 PM 15.43 59.774 0.04 6.98 1.49 9.95
5/17/2022 5:15:00 PM 15.39 59.702 0.04 6.97 1.46 9.91
5/17/2022 5:30:00 PM 15.35 59.63 0.04 6.97 1.45 9.87
5/17/2022 5:45:00 PM 15.28 59.504 0.041 6.94 1.48 9.86
5/17/2022 6:00:00 PM 15.19 59.342 0.041 6.96 1.46 9.84
5/17/2022 6:15:00 PM 15.1 59.18 0.041 6.91 1.47 9.83
5/17/2022 6:30:00 PM 15.02 59.036 0.041 6.91 1.52 9.85
5/17/2022 6:45:00 PM 14.92 58.856 0.041 6.93 1.46 9.83
5/17/2022 7:00:00 PM 14.82 58.676 0.041 6.86 1.5 9.8
5/17/2022 7:15:00 PM 14.73 58.514 0.041 6.91 1.48 9.78
5/17/2022 7:30:00 PM 14.63 58.334 0.041 6.9 1.5 9.77
5/17/2022 7:45:00 PM 14.53 58.154 0.041 6.85 1.48 9.76
5/17/2022 8:00:00 PM 14.45 58.01 0.041 6.85 1.46 9.74
5/17/2022 8:15:00 PM 14.36 57.848 0.041 6.86 1.6 9.73
5/17/2022 8:30:00 PM 14.26 57.668 0.042 6.76 1.49 9.72
5/17/2022 8:45:00 PM 14.16 57.488 0.042 6.84 1.46 9.71
5/17/2022 9:00:00 PM 14.06 57.308 0.042 6.75 1.52 9.71
5/17/2022 9:15:00 PM 13.94 57.092 0.042 6.82 1.48 9.74
5/17/2022 9:30:00 PM 13.84 56.912 0.042 6.78 1.61 9.75
5/17/2022 9:45:00 PM 13.73 56.714 0.042 6.78 1.55 9.77
5/17/2022 10:00:00 PM 13.61 56.498 0.042 6.77 1.62 9.79
5/17/2022 10:15:00 PM 13.51 56.318 0.042 6.79 1.5 9.82
5/17/2022 10:30:00 PM 13.41 56.138 0.042 6.77 1.55 9.85
5/17/2022 10:45:00 PM 13.3 55.94 0.042 6.77 1.6 9.87
5/17/2022 11:00:00 PM 13.2 55.76 0.042 6.78 1.63 9.9
5/17/2022 11:15:00 PM 13.09 55.562 0.042 6.77 1.64 9.92
5/17/2022 11:30:00 PM 13 55.4 0.042 6.75 1.55 9.94
5/17/2022 11:45:00 PM 12.89 55.202 0.042 6.76 1.64 9.96
5/18/2022 12:00:00 AM 12.8 55.04 0.042 6.76 1.79 9.99
5/18/2022 12:15:00 AM 12.71 54.878 0.042 6.79 1.57 10.01
5/18/2022 12:30:00 AM 12.62 54.716 0.042 6.75 1.58 10.04
5/18/2022 12:45:00 AM 12.52 54.536 0.042 6.75 1.53 10.06
5/18/2022 1:00:00 AM 12.43 54.374 0.042 6.75 1.6 10.08
5/18/2022 1:15:00 AM 12.33 54.194 0.042 6.76 1.6 10.1
5/18/2022 1:30:00 AM 12.23 54.014 0.042 6.75 1.57 10.12
5/18/2022 1:45:00 AM 12.15 53.87 0.042 6.73 1.58 10.14
5/18/2022 2:00:00 AM 12.06 53.708 0.042 6.77 1.62 10.18
5/18/2022 2:15:00 AM 11.97 53.546 0.042 6.78 1.51 10.2
5/18/2022 2:30:00 AM 11.89 53.402 0.042 6.74 1.6 10.22
5/18/2022 2:45:00 AM 11.8 53.24 0.042 6.75 1.56 10.24
5/18/2022 3:00:00 AM 11.72 53.096 0.042 6.73 1.48 10.26
5/18/2022 3:15:00 AM 11.63 52.934 0.042 6.74 1.52 10.28
5/18/2022 3:30:00 AM 11.55 52.79 0.042 6.77 1.51 10.3
5/18/2022 3:45:00 AM 11.48 52.664 0.042 6.72 1.54 10.32
5/18/2022 4:00:00 AM 11.4 52.52 0.042 6.76 1.65 10.35
5/18/2022 4:15:00 AM 11.33 52.394 0.042 6.77 1.52 10.37
5/18/2022 4:30:00 AM 11.26 52.268 0.042 6.74 1.52 10.38
5/18/2022 4:45:00 AM 11.18 52.124 0.042 6.76 1.61 10.41
5/18/2022 5:00:00 AM 11.11 51.998 0.042 6.77 1.5 10.42
5/18/2022 5:15:00 AM 11.05 51.89 0.042 6.71 1.49 10.43
5/18/2022 5:30:00 AM 10.98 51.764 0.042 6.75 1.5 10.45
5/18/2022 5:45:00 AM 10.91 51.638 0.042 6.75 1.6 10.47
5/18/2022 6:00:00 AM 10.84 51.512 0.042 6.75 1.49 10.52
5/18/2022 6:15:00 AM 10.78 51.404 0.042 6.74 1.53 10.56
5/18/2022 6:30:00 AM 10.73 51.314 0.042 6.75 1.53 10.63
5/18/2022 6:45:00 AM 10.69 51.242 0.042 6.8 1.47 10.68
5/18/2022 7:00:00 AM 10.65 51.17 0.042 6.79 1.48 10.73
5/18/2022 7:15:00 AM 10.62 51.116 0.042 6.79 1.55 10.79
5/18/2022 7:30:00 AM 10.6 51.08 0.042 6.81 1.54 10.84
5/18/2022 7:45:00 AM 10.6 51.08 0.042 6.85 1.56 10.88
5/18/2022 8:00:00 AM 10.62 51.116 0.042 6.82 1.5 10.93
5/18/2022 8:15:00 AM 10.67 51.206 0.042 6.88 1.52 10.97
5/18/2022 8:30:00 AM 10.74 51.332 0.042 6.9 1.49 11.01
5/18/2022 8:45:00 AM 10.81 51.458 0.042 6.89 1.43 11.06
5/18/2022 9:00:00 AM 10.86 51.548 0.042 6.93 1.49 11.09
5/18/2022 9:15:00 AM 10.95 51.71 0.042 6.86 1.55 11.12
5/18/2022 9:30:00 AM 11.01 51.818 0.042 6.96 1.42 11.13
5/18/2022 9:45:00 AM 11.17 52.106 0.042 6.95 1.39 11.16
5/18/2022 10:00:00 AM 11.27 52.286 0.042 6.97 1.43 11.15
5/18/2022 10:15:00 AM 11.45 52.61 0.042 6.98 1.4 11.14
5/18/2022 10:30:00 AM 11.62 52.916 0.042 6.98 1.42 11.11
5/18/2022 10:45:00 AM 11.84 53.312 0.042 7 1.33 11.09
5/18/2022 11:00:00 AM 12.07 53.726 0.042 7.01 1.41 11.05
5/18/2022 11:15:00 AM 12.29 54.122 0.042 7.01 1.35 11
5/18/2022 11:30:00 AM 12.5 54.5 0.042 7.02 1.38 10.97
5/18/2022 11:45:00 AM 12.65 54.77 0.042 7.01 1.36 10.93
5/18/2022 12:00:00 PM 12.92 55.256 0.042 7.01 1.43 10.88
5/18/2022 12:15:00 PM 13.2 55.76 0.042 7.02 1.3 10.83
5/18/2022 12:30:00 PM 13.48 56.264 0.041 7.03 1.35 10.76
5/18/2022 12:45:00 PM 13.73 56.714 0.042 7.05 1.35 10.72
5/18/2022 1:00:00 PM 13.93 57.074 0.042 7.06 1.45 10.68
5/18/2022 1:15:00 PM 14.14 57.452 0.042 7.06 1.32 10.62
5/18/2022 1:30:00 PM 14.24 57.632 0.042 7.05 1.34 10.59
5/18/2022 1:45:00 PM 14.23 57.614 0.042 7.05 1.4 10.56
5/18/2022 2:00:00 PM 14.28 57.704 0.042 7.07 1.31 10.55
5/18/2022 2:15:00 PM 14.36 57.848 0.042 7.09 1.46 10.56
5/18/2022 2:30:00 PM 14.45 58.01 0.042 7.07 1.32 10.53
5/18/2022 2:45:00 PM 14.48 58.064 0.042 7.07 1.42 10.52
5/18/2022 3:00:00 PM 14.59 58.262 0.042 7.11 1.31 10.51
5/18/2022 3:15:00 PM 14.69 58.442 0.042 7.08 1.33 10.46
5/18/2022 3:30:00 PM 14.63 58.334 0.042 7.07 1.33 10.44
5/18/2022 3:45:00 PM 14.65 58.37 0.042 7.09 1.36 10.41
5/18/2022 4:00:00 PM 14.64 58.352 0.042 7.08 1.36 10.41
5/18/2022 4:15:00 PM 14.62 58.316 0.042 7.08 1.37 10.39
5/18/2022 4:30:00 PM 14.57 58.226 0.042 7.07 1.27 10.38
5/18/2022 4:45:00 PM 14.56 58.208 0.042 7.06 1.28 10.35
5/18/2022 5:00:00 PM 14.52 58.136 0.042 7.05 1.25 10.3
5/18/2022 5:15:00 PM 14.47 58.046 0.042 7.02 1.33 10.26
5/18/2022 5:30:00 PM 14.37 57.866 0.042 6.98 1.34 10.17
5/18/2022 5:45:00 PM 14.3 57.74 0.042 6.97 1.3 10.16
5/18/2022 6:00:00 PM 14.22 57.596 0.042 6.96 1.31 10.08
5/18/2022 6:15:00 PM 14.17 57.506 0.042 6.9 1.37 10.07
5/18/2022 6:30:00 PM 14.15 57.47 0.043 6.95 1.31 10.08
5/18/2022 6:45:00 PM 14.13 57.434 0.043 6.88 1.32 10.04
5/18/2022 7:00:00 PM 14.09 57.362 0.043 6.91 1.27 10.02
5/18/2022 7:15:00 PM 14.04 57.272 0.043 6.91 1.32 9.99
5/18/2022 7:30:00 PM 13.99 57.182 0.043 6.87 1.28 9.96
5/18/2022 7:45:00 PM 13.94 57.092 0.043 6.84 1.3 9.9
5/18/2022 8:00:00 PM 13.9 57.02 0.043 6.84 1.28 9.87
5/18/2022 8:15:00 PM 13.84 56.912 0.043 6.82 1.31 9.84
5/18/2022 8:30:00 PM 13.79 56.822 0.044 6.82 1.29 9.8
5/18/2022 8:45:00 PM 13.73 56.714 0.044 6.8 1.32 9.79
5/18/2022 9:00:00 PM 13.67 56.606 0.044 6.8 1.39 9.78
5/18/2022 9:15:00 PM 13.62 56.516 0.044 6.81 1.31 9.78
5/18/2022 9:30:00 PM 13.57 56.426 0.044 6.76 1.39 9.77
5/18/2022 9:45:00 PM 13.51 56.318 0.044 6.81 1.46 9.79
5/18/2022 10:00:00 PM 13.46 56.228 0.044 6.81 1.36 9.8
5/18/2022 10:15:00 PM 13.4 56.12 0.044 6.8 1.39 9.81
5/18/2022 10:30:00 PM 13.34 56.012 0.044 6.82 1.44 9.83
5/18/2022 10:45:00 PM 13.28 55.904 0.044 6.81 1.43 9.84
5/18/2022 11:00:00 PM 13.22 55.796 0.044 6.73 1.38 9.86
5/18/2022 11:15:00 PM 13.16 55.688 0.044 6.77 1.46 9.87
5/18/2022 11:30:00 PM 13.11 55.598 0.044 6.79 1.42 9.88
5/18/2022 11:45:00 PM 13.05 55.49 0.044 6.77 1.46 9.89
5/19/2022 12:00:00 AM 13 55.4 0.044 6.8 1.38 9.91
5/19/2022 12:15:00 AM 12.95 55.31 0.044 6.79 1.41 9.91
5/19/2022 12:30:00 AM 12.9 55.22 0.044 6.8 1.49 9.91
5/19/2022 12:45:00 AM 12.84 55.112 0.044 6.72 1.43 9.93
5/19/2022 1:00:00 AM 12.79 55.022 0.044 6.79 1.37 9.94
5/19/2022 1:15:00 AM 12.74 54.932 0.044 6.79 1.38 9.95
5/19/2022 1:30:00 AM 12.69 54.842 0.044 6.73 1.41 9.96
5/19/2022 1:45:00 AM 12.64 54.752 0.044 6.8 1.48 9.98
5/19/2022 2:00:00 AM 12.58 54.644 0.044 6.74 1.43 9.99
5/19/2022 2:15:00 AM 12.53 54.554 0.044 6.75 1.4 10
5/19/2022 2:30:00 AM 12.49 54.482 0.044 6.77 1.49 10.01
5/19/2022 2:45:00 AM 12.44 54.392 0.044 6.74 1.54 10.01
5/19/2022 3:00:00 AM 12.4 54.32 0.044 6.76 1.55 10.03
5/19/2022 3:15:00 AM 12.35 54.23 0.044 6.76 1.43 10.03
5/19/2022 3:30:00 AM 12.31 54.158 0.044 6.76 1.58 10.04
5/19/2022 3:45:00 AM 12.28 54.104 0.044 6.77 1.49 10.04
5/19/2022 4:00:00 AM 12.24 54.032 0.044 6.77 1.53 10.05
5/19/2022 4:15:00 AM 12.21 53.978 0.044 6.78 1.48 10.05
5/19/2022 4:30:00 AM 12.18 53.924 0.044 6.76 1.47 10.07
5/19/2022 4:45:00 AM 12.15 53.87 0.044 6.76 1.45 10.08
5/19/2022 5:00:00 AM 12.12 53.816 0.044 6.77 1.49 10.09
5/19/2022 5:15:00 AM 12.1 53.78 0.044 6.75 1.52 10.09
5/19/2022 5:30:00 AM 12.07 53.726 0.045 6.79 1.47 10.1
5/19/2022 5:45:00 AM 12.04 53.672 0.045 6.75 1.51 10.11
5/19/2022 6:00:00 AM 12.02 53.636 0.045 6.77 1.51 10.12
5/19/2022 6:15:00 AM 12 53.6 0.045 6.77 1.5 10.13
5/19/2022 6:30:00 AM 11.98 53.564 0.045 6.81 1.58 10.15
5/19/2022 6:45:00 AM 11.96 53.528 0.045 6.75 1.58 10.19
5/19/2022 7:00:00 AM 11.95 53.51 0.045 6.79 1.59 10.24
5/19/2022 7:15:00 AM 11.95 53.51 0.045 6.81 1.6 10.29
5/19/2022 7:30:00 AM 11.95 53.51 0.045 6.83 1.53 10.37
5/19/2022 7:45:00 AM 11.95 53.51 0.045 6.84 1.5 10.37
5/19/2022 8:00:00 AM 11.94 53.492 0.045 6.85 1.44 10.37
5/19/2022 8:15:00 AM 11.93 53.474 0.045 6.83 1.52 10.38
5/19/2022 8:30:00 AM 11.93 53.474 0.044 6.84 1.46 10.41
5/19/2022 8:45:00 AM 11.94 53.492 0.044 6.88 1.47 10.45
5/19/2022 9:00:00 AM 11.95 53.51 0.044 6.89 1.43 10.47
5/19/2022 9:15:00 AM 11.96 53.528 0.044 6.86 1.43 10.52
5/19/2022 9:30:00 AM 11.97 53.546 0.044 6.89 1.41 10.55
5/19/2022 9:45:00 AM 11.97 53.546 0.044 6.89 1.39 10.53
5/19/2022 10:00:00 AM 11.98 53.564 0.044 6.92 1.39 10.54
5/19/2022 10:15:00 AM 11.98 53.564 0.044 6.89 1.42 10.56
5/19/2022 10:30:00 AM 11.99 53.582 0.044 6.93 1.41 10.59
5/19/2022 10:45:00 AM 12.01 53.618 0.044 6.93 1.35 10.61
5/19/2022 11:00:00 AM 12.03 53.654 0.044 6.91 1.4 10.63
5/19/2022 11:15:00 AM 12.05 53.69 0.044 6.97 1.41 10.65
5/19/2022 11:30:00 AM 12.09 53.762 0.044 6.91 1.36 10.67
5/19/2022 11:45:00 AM 12.12 53.816 0.044 6.98 1.41 10.69
5/19/2022 12:00:00 PM 12.17 53.906 0.044 6.98 1.34 10.69
5/19/2022 12:15:00 PM 12.2 53.96 0.044 6.96 1.41 10.68
5/19/2022 12:30:00 PM 12.26 54.068 0.044 7.02 1.43 10.71
5/19/2022 12:45:00 PM 12.34 54.212 0.044 7.02 1.36 10.74
5/19/2022 1:00:00 PM 12.47 54.446 0.044 7.03 1.28 10.78
5/19/2022 1:15:00 PM 12.57 54.626 0.044 7.02 1.34 10.78
5/19/2022 1:30:00 PM 12.66 54.788 0.044 7.06 1.3 10.77
5/19/2022 1:45:00 PM 12.76 54.968 0.044 7.07 1.36 10.74
5/19/2022 2:00:00 PM 12.87 55.166 0.043 7.05 1.33 10.73
5/19/2022 2:15:00 PM 13.02 55.436 0.043 7.06 1.32 10.72
5/19/2022 2:30:00 PM 13.22 55.796 0.043 7.1 1.35 10.7
5/19/2022 2:45:00 PM 13.47 56.246 0.043 7.11 1.37 10.65
5/19/2022 3:00:00 PM 13.7 56.66 0.043 7.04 1.36 10.6
5/19/2022 3:15:00 PM 14.06 57.308 0.043 7.08 1.34 10.55
5/19/2022 3:30:00 PM 14.27 57.686 0.043 7.08 1.44 10.47
5/19/2022 3:45:00 PM 14.42 57.956 0.043 7.07 1.27 10.4
5/19/2022 4:00:00 PM 14.58 58.244 0.043 7.08 1.33 10.34
5/19/2022 4:15:00 PM 14.73 58.514 0.043 7.08 1.3 10.26
5/19/2022 4:30:00 PM 14.83 58.694 0.043 7.01 1.27 10.21
5/19/2022 4:45:00 PM 14.9 58.82 0.043 7.04 1.28 10.16
5/19/2022 5:00:00 PM 14.89 58.802 0.043 7.01 1.27 10.04
5/19/2022 5:15:00 PM 14.89 58.802 0.043 6.98 1.28 9.97
5/19/2022 5:30:00 PM 14.79 58.622 0.043 6.96 1.25 9.96
5/19/2022 5:45:00 PM 14.71 58.478 0.044 6.96 1.34 9.93
5/19/2022 6:00:00 PM 14.69 58.442 0.044 6.97 1.28 9.91
5/19/2022 6:15:00 PM 14.73 58.514 0.044 6.94 1.3 9.93
5/19/2022 6:30:00 PM 14.68 58.424 0.044 6.97 1.25 9.91
5/19/2022 6:45:00 PM 14.63 58.334 0.044 6.9 1.28 9.88
5/19/2022 7:00:00 PM 14.6 58.28 0.044 6.91 1.32 9.85
5/19/2022 7:15:00 PM 14.55 58.19 0.044 6.93 1.26 9.82
5/19/2022 7:30:00 PM 14.52 58.136 0.044 6.88 1.26 9.78
5/19/2022 7:45:00 PM 14.49 58.082 0.044 6.9 1.28 9.75
5/19/2022 8:00:00 PM 14.45 58.01 0.044 6.87 1.28 9.71
5/19/2022 8:15:00 PM 14.39 57.902 0.044 6.86 1.31 9.69
5/19/2022 8:30:00 PM 14.3 57.74 0.044 6.87 1.43 9.68
5/19/2022 8:45:00 PM 14.2 57.56 0.044 6.83 1.26 9.66
5/19/2022 9:00:00 PM 14.1 57.38 0.045 6.81 1.31 9.67
5/19/2022 9:15:00 PM 13.99 57.182 0.045 6.81 1.29 9.69
5/19/2022 9:30:00 PM 13.88 56.984 0.045 6.79 1.33 9.71
5/19/2022 9:45:00 PM 13.78 56.804 0.045 6.79 1.31 9.72
5/19/2022 10:00:00 PM 13.67 56.606 0.045 6.79 1.38 9.75
5/19/2022 10:15:00 PM 13.58 56.444 0.045 6.82 1.29 9.76
5/19/2022 10:30:00 PM 13.49 56.282 0.045 6.8 1.36 9.78
5/19/2022 10:45:00 PM 13.4 56.12 0.045 6.81 1.38 9.81
5/19/2022 11:00:00 PM 13.32 55.976 0.045 6.8 1.31 9.83
5/19/2022 11:15:00 PM 13.24 55.832 0.045 6.8 1.36 9.85
5/19/2022 11:30:00 PM 13.16 55.688 0.045 6.78 1.35 9.87
5/19/2022 11:45:00 PM 13.08 55.544 0.045 6.78 1.37 9.88
5/20/2022 12:00:00 AM 13.01 55.418 0.045 6.78 1.33 9.89
5/20/2022 12:15:00 AM 12.95 55.31 0.045 6.77 1.42 9.91
5/20/2022 12:30:00 AM 12.89 55.202 0.045 6.79 1.33 9.92
5/20/2022 12:45:00 AM 12.83 55.094 0.045 6.78 1.33 9.94
5/20/2022 1:00:00 AM 12.76 54.968 0.045 6.79 1.36 9.96
5/20/2022 1:15:00 AM 12.71 54.878 0.045 6.75 1.37 9.98
5/20/2022 1:30:00 AM 12.65 54.77 0.044 6.8 1.3 9.99
5/20/2022 1:45:00 AM 12.6 54.68 0.044 6.76 1.34 10.01
5/20/2022 2:00:00 AM 12.54 54.572 0.044 6.78 1.35 10.02
5/20/2022 2:15:00 AM 12.47 54.446 0.044 6.73 1.32 10.03
5/20/2022 2:30:00 AM 12.4 54.32 0.044 6.75 1.36 10.06
5/20/2022 2:45:00 AM 12.34 54.212 0.044 6.79 1.51 10.05
5/20/2022 3:00:00 AM 12.28 54.104 0.044 6.72 1.44 10.07
5/20/2022 3:15:00 AM 12.22 53.996 0.044 6.75 1.33 10.08
5/20/2022 3:30:00 AM 12.16 53.888 0.044 6.76 1.36 10.1
5/20/2022 3:45:00 AM 12.09 53.762 0.045 6.77 1.4 10.12
5/20/2022 4:00:00 AM 12.03 53.654 0.045 6.75 1.43 10.14
5/20/2022 4:15:00 AM 11.97 53.546 0.045 6.73 1.31 10.16
5/20/2022 4:30:00 AM 11.91 53.438 0.045 6.76 1.4 10.17
5/20/2022 4:45:00 AM 11.86 53.348 0.045 6.78 1.42 10.18
5/20/2022 5:00:00 AM 11.8 53.24 0.045 6.73 1.39 10.2
5/20/2022 5:15:00 AM 11.75 53.15 0.045 6.75 1.47 10.2
5/20/2022 5:30:00 AM 11.7 53.06 0.045 6.73 1.34 10.22
5/20/2022 5:45:00 AM 11.66 52.988 0.045 6.74 1.33 10.24
5/20/2022 6:00:00 AM 11.61 52.898 0.045 6.75 1.4 10.27
5/20/2022 6:15:00 AM 11.57 52.826 0.045 6.76 1.37 10.32
5/20/2022 6:30:00 AM 11.55 52.79 0.044 6.78 1.34 10.41
5/20/2022 6:45:00 AM 11.53 52.754 0.044 6.79 1.35 10.5
5/20/2022 7:00:00 AM 11.52 52.736 0.044 6.84 1.35 10.57
5/20/2022 7:15:00 AM 11.53 52.754 0.044 6.84 1.3 10.65
5/20/2022 7:30:00 AM 11.54 52.772 0.044 6.89 1.31 10.73
5/20/2022 7:45:00 AM 11.56 52.808 0.044 6.86 1.33 10.76
5/20/2022 8:00:00 AM 11.57 52.826 0.044 6.86 1.3 10.72
5/20/2022 8:15:00 AM 11.6 52.88 0.044 6.87 1.32 10.72
5/20/2022 8:30:00 AM 11.63 52.934 0.044 6.92 1.32 10.75
5/20/2022 8:45:00 AM 11.67 53.006 0.044 6.9 1.25 10.8
5/20/2022 9:00:00 AM 11.81 53.258 0.044 6.95 1.26 10.89
5/20/2022 9:15:00 AM 11.85 53.33 0.044 6.95 1.29 10.91
5/20/2022 9:30:00 AM 11.91 53.438 0.044 6.96 1.24 10.86
5/20/2022 9:45:00 AM 11.99 53.582 0.044 6.98 1.23 10.88
5/20/2022 10:00:00 AM 12.06 53.708 0.044 6.98 1.22 10.92
5/20/2022 10:15:00 AM 12.17 53.906 0.044 7.02 1.24 10.94
5/20/2022 10:30:00 AM 12.29 54.122 0.044 7.01 1.26 10.93
5/20/2022 10:45:00 AM 12.39 54.302 0.044 7.05 1.28 10.89
5/20/2022 11:00:00 AM 12.44 54.392 0.043 6.97 1.22 10.86
5/20/2022 11:15:00 AM 12.47 54.446 0.043 7.01 1.23 10.83
5/20/2022 11:30:00 AM 12.49 54.482 0.043 7 1.21 10.75
5/20/2022 11:45:00 AM 12.6 54.68 0.043 7.03 1.23 10.79
5/20/2022 12:00:00 PM 12.76 54.968 0.043 7.02 1.24 10.81
5/20/2022 12:15:00 PM 12.95 55.31 0.043 7.08 1.25 10.82
5/20/2022 12:30:00 PM 13.18 55.724 0.043 7.08 1.25 10.8
5/20/2022 12:45:00 PM 13.49 56.282 0.043 7.06 1.18 10.78
5/20/2022 1:00:00 PM 13.71 56.678 0.043 7.11 1.16 10.75
5/20/2022 1:15:00 PM 14 57.2 0.043 7.08 1.22 10.72
5/20/2022 1:30:00 PM 14.26 57.668 0.043 7.1 1.2 10.64
5/20/2022 1:45:00 PM 14.44 57.992 0.043 7.09 1.15 10.6
5/20/2022 2:00:00 PM 14.49 58.082 0.043 7.1 1.26 10.52
5/20/2022 2:15:00 PM 14.52 58.136 0.043 7.07 1.17 10.45
5/20/2022 2:30:00 PM 14.55 58.19 0.043 7.06 1.25 10.35
5/20/2022 2:45:00 PM 14.67 58.406 0.043 7.08 1.23 10.4
5/20/2022 3:00:00 PM 14.83 58.694 0.043 7.1 1.21 10.39
5/20/2022 3:15:00 PM 14.84 58.712 0.043 7.08 1.18 10.35
5/20/2022 3:30:00 PM 14.91 58.838 0.043 7.09 1.18 10.32
5/20/2022 3:45:00 PM 14.93 58.874 0.043 7.07 1.18 10.29
5/20/2022 4:00:00 PM 14.93 58.874 0.043 7.08 1.17 10.28
5/20/2022 4:15:00 PM 14.95 58.91 0.043 7.11 1.24 10.28
5/20/2022 4:30:00 PM 14.94 58.892 0.044 7.07 1.18 10.18
5/20/2022 4:45:00 PM 14.91 58.838 0.044 6.99 1.22 10.06
5/20/2022 5:00:00 PM 14.88 58.784 0.044 7.02 1.15 9.99
5/20/2022 5:15:00 PM 14.85 58.73 0.044 6.92 1.32 9.87
5/20/2022 5:30:00 PM 14.83 58.694 0.044 6.92 1.35 9.78
5/20/2022 5:45:00 PM 14.79 58.622 0.044 6.89 1.33 9.76
5/20/2022 6:00:00 PM 14.77 58.586 0.044 6.92 1.51 9.77
5/20/2022 6:15:00 PM 14.77 58.586 0.045 6.88 1.68 9.84
5/20/2022 6:30:00 PM 14.78 58.604 0.045 6.94 1.68 9.86
5/20/2022 6:45:00 PM 14.78 58.604 0.046 6.92 1.64 9.84
5/20/2022 7:00:00 PM 14.76 58.568 0.046 6.92 1.65 9.85
5/20/2022 7:15:00 PM 14.73 58.514 0.046 6.94 1.67 9.87
5/20/2022 7:30:00 PM 14.69 58.442 0.047 6.96 1.77 9.85
5/20/2022 7:45:00 PM 14.66 58.388 0.048 6.96 1.88 9.82
5/20/2022 8:00:00 PM 14.62 58.316 0.049 6.88 2.53 9.77
5/20/2022 8:15:00 PM 14.58 58.244 0.05 6.92 3.92 9.72
5/20/2022 8:30:00 PM 14.54 58.172 0.051 6.88 5.06 9.67
5/20/2022 8:45:00 PM 14.51 58.118 0.051 6.86 5.53 9.65
5/20/2022 9:00:00 PM 14.47 58.046 0.05 6.87 5.13 9.63
5/20/2022 9:15:00 PM 14.43 57.974 0.05 6.86 4.6 9.63
5/20/2022 9:30:00 PM 14.38 57.884 0.049 6.76 3.62 9.63
5/20/2022 9:45:00 PM 14.34 57.812 0.049 6.81 3.06 9.64
5/20/2022 10:00:00 PM 14.29 57.722 0.049 6.79 2.77 9.65
5/20/2022 10:15:00 PM 14.24 57.632 0.048 6.83 2.62 9.66
5/20/2022 10:30:00 PM 14.19 57.542 0.048 6.76 2.6 9.67
5/20/2022 10:45:00 PM 14.15 57.47 0.048 6.81 2.32 9.68
5/20/2022 11:00:00 PM 14.11 57.398 0.048 6.77 2.29 9.69
5/20/2022 11:15:00 PM 14.06 57.308 0.048 6.77 2.17 9.7
5/20/2022 11:30:00 PM 14.01 57.218 0.048 6.77 2.57 9.71
5/20/2022 11:45:00 PM 13.97 57.146 0.048 6.8 2.3 9.72
5/21/2022 12:00:00 AM 13.93 57.074 0.048 6.77 2.43 9.75
5/21/2022 12:15:00 AM 13.88 56.984 0.047 6.8 2.39 9.76
5/21/2022 12:30:00 AM 13.83 56.894 0.047 6.75 2.23 9.77
5/21/2022 12:45:00 AM 13.79 56.822 0.047 6.78 2.1 9.77
5/21/2022 1:00:00 AM 13.76 56.768 0.047 6.77 1.99 9.78
5/21/2022 1:15:00 AM 13.72 56.696 0.047 6.77 1.99 9.79
5/21/2022 1:30:00 AM 13.68 56.624 0.047 6.76 1.8 9.8
5/21/2022 1:45:00 AM 13.64 56.552 0.047 6.77 1.76 9.81
5/21/2022 2:00:00 AM 13.6 56.48 0.047 6.75 1.76 9.82
5/21/2022 2:15:00 AM 13.56 56.408 0.047 6.77 1.73 9.82
5/21/2022 2:30:00 AM 13.52 56.336 0.047 6.75 1.67 9.83
5/21/2022 2:45:00 AM 13.48 56.264 0.046 6.74 8.16 9.84
5/21/2022 3:00:00 AM 13.45 56.21 0.046 6.74 1.64 9.85
5/21/2022 3:15:00 AM 13.41 56.138 0.046 6.76 1.64 9.87
5/21/2022 3:30:00 AM 13.37 56.066 0.046 6.71 1.63 9.88
5/21/2022 3:45:00 AM 13.34 56.012 0.046 6.76 1.58 9.89
5/21/2022 4:00:00 AM 13.3 55.94 0.046 6.73 1.62 9.9
5/21/2022 4:15:00 AM 13.26 55.868 0.046 6.76 1.59 9.91
5/21/2022 4:30:00 AM 13.22 55.796 0.046 6.73 1.56 9.91
5/21/2022 4:45:00 AM 13.19 55.742 0.046 6.76 1.54 9.92
5/21/2022 5:00:00 AM 13.16 55.688 0.046 6.72 1.56 9.93
5/21/2022 5:15:00 AM 13.12 55.616 0.046 6.73 1.51 9.94
5/21/2022 5:30:00 AM 13.09 55.562 0.046 6.73 1.53 9.95
5/21/2022 5:45:00 AM 13.06 55.508 0.046 6.77 1.54 9.96
5/21/2022 6:00:00 AM 13.03 55.454 0.046 6.73 1.69 9.99
5/21/2022 6:15:00 AM 13 55.4 0.046 6.72 1.57 10.02
5/21/2022 6:30:00 AM 12.97 55.346 0.046 6.74 1.59 10.07
5/21/2022 6:45:00 AM 12.95 55.31 0.045 6.8 1.47 10.13
5/21/2022 7:00:00 AM 12.93 55.274 0.045 6.79 1.47 10.19
5/21/2022 7:15:00 AM 12.93 55.274 0.045 6.77 1.5 10.27
5/21/2022 7:30:00 AM 12.93 55.274 0.045 6.8 1.51 10.34
5/21/2022 7:45:00 AM 12.94 55.292 0.045 6.8 1.41 10.4
5/21/2022 8:00:00 AM 12.96 55.328 0.045 6.83 1.48 10.45
5/21/2022 8:15:00 AM 13.02 55.436 0.045 6.85 1.4 10.51
5/21/2022 8:30:00 AM 13.08 55.544 0.045 6.9 1.45 10.55
5/21/2022 8:45:00 AM 13.15 55.67 0.045 6.89 1.51 10.58
5/21/2022 9:00:00 AM 13.24 55.832 0.045 6.96 1.39 10.61
5/21/2022 9:15:00 AM 13.33 55.994 0.044 6.94 1.4 10.64
5/21/2022 9:30:00 AM 13.46 56.228 0.044 6.97 1.37 10.64
5/21/2022 9:45:00 AM 13.6 56.48 0.044 6.98 1.46 10.64
5/21/2022 10:00:00 AM 13.79 56.822 0.044 7 1.39 10.65
5/21/2022 10:15:00 AM 13.99 57.182 0.044 7.03 1.39 10.63
5/21/2022 10:30:00 AM 14.2 57.56 0.044 7.07 1.28 10.6
5/21/2022 10:45:00 AM 14.46 58.028 0.044 7.06 1.29 10.58
5/21/2022 11:00:00 AM 14.72 58.496 0.044 7.09 1.27 10.54
5/21/2022 11:15:00 AM 15.01 59.018 0.044 7.08 1.35 10.5
5/21/2022 11:30:00 AM 15.32 59.576 0.044 7.11 1.28 10.46
5/21/2022 11:45:00 AM 15.63 60.134 0.044 7.1 1.25 10.41
5/21/2022 12:00:00 PM 15.95 60.71 0.044 7.12 1.29 10.36
5/21/2022 12:15:00 PM 16.25 61.25 0.044 7.12 1.25 10.31
5/21/2022 12:30:00 PM 16.56 61.808 0.044 7.16 1.27 10.26
5/21/2022 12:45:00 PM 16.87 62.366 0.044 7.13 1.21 10.2
5/21/2022 1:00:00 PM 17.17 62.906 0.044 7.19 1.22 10.15
5/21/2022 1:15:00 PM 17.44 63.392 0.044 7.15 1.18 10.09
5/21/2022 1:30:00 PM 17.68 63.824 0.043 7.2 1.24 10.06
5/21/2022 1:45:00 PM 17.94 64.292 0.044 7.14 1.17 10
5/21/2022 2:00:00 PM 18.17 64.706 0.043 7.21 1.17 9.94
5/21/2022 2:15:00 PM 18.36 65.048 0.043 7.14 1.15 9.89
5/21/2022 2:30:00 PM 18.53 65.354 0.043 7.19 1.19 9.84
5/21/2022 2:45:00 PM 18.68 65.624 0.043 7.2 1.12 9.79
5/21/2022 3:00:00 PM 18.76 65.768 0.043 7.16 1.18 9.74
5/21/2022 3:15:00 PM 18.86 65.948 0.043 7.17 1.16 9.71
5/21/2022 3:30:00 PM 18.88 65.984 0.043 7.16 1.18 9.67
5/21/2022 3:45:00 PM 18.95 66.11 0.043 7.17 1.15 9.65
5/21/2022 4:00:00 PM 18.93 66.074 0.043 7.13 1.21 9.61
5/21/2022 4:15:00 PM 18.88 65.984 0.043 7.15 1.12 9.56
5/21/2022 4:30:00 PM 18.8 65.84 0.044 7.08 1.17 9.5
5/21/2022 4:45:00 PM 18.8 65.84 0.044 7.12 1.18 9.51
5/21/2022 5:00:00 PM 18.79 65.82201 0.044 7.06 1.14 9.48
5/21/2022 5:15:00 PM 18.74 65.732 0.044 7.06 1.17 9.45
5/21/2022 5:30:00 PM 18.66 65.588 0.044 7.04 1.15 9.38
5/21/2022 5:45:00 PM 18.63 65.534 0.044 7.04 1.11 9.36
5/21/2022 6:00:00 PM 18.64 65.552 0.044 7 1.19 9.32
5/21/2022 6:15:00 PM 18.6 65.48 0.044 7.01 1.09 9.28
5/21/2022 6:30:00 PM 18.57 65.426 0.044 7 1.11 9.24
5/21/2022 6:45:00 PM 18.53 65.354 0.044 6.98 1.1 9.19
5/21/2022 7:00:00 PM 18.48 65.264 0.044 6.97 1.16 9.16
5/21/2022 7:15:00 PM 18.42 65.156 0.044 6.94 1.09 9.12
5/21/2022 7:30:00 PM 18.37 65.066 0.045 6.86 1.18 9.07
5/21/2022 7:45:00 PM 18.31 64.958 0.044 6.91 1.12 9.03
5/21/2022 8:00:00 PM 18.24 64.832 0.045 6.85 1.14 8.98
5/21/2022 8:15:00 PM 18.16 64.688 0.045 6.84 1.13 8.94
5/21/2022 8:30:00 PM 18.08 64.544 0.045 6.81 1.18 8.91
5/21/2022 8:45:00 PM 17.99 64.382 0.045 6.82 1.07 8.89
5/21/2022 9:00:00 PM 17.9 64.22 0.045 6.79 1.14 8.88
5/21/2022 9:15:00 PM 17.8 64.04 0.045 6.79 1.19 8.89
5/21/2022 9:30:00 PM 17.7 63.86 0.045 6.76 1.2 8.9
5/21/2022 9:45:00 PM 17.6 63.68 0.045 6.79 1.15 8.92
5/21/2022 10:00:00 PM 17.5 63.5 0.045 6.76 1.22 8.93
5/21/2022 10:15:00 PM 17.4 63.32 0.045 6.76 1.2 8.95
5/21/2022 10:30:00 PM 17.31 63.158 0.046 6.76 1.19 8.97
5/21/2022 10:45:00 PM 17.22 62.996 0.046 6.74 1.18 8.99
5/21/2022 11:00:00 PM 17.12 62.816 0.046 6.75 1.2 9.02
5/21/2022 11:15:00 PM 17.03 62.654 0.046 6.73 1.47 9.04
5/21/2022 11:30:00 PM 16.94 62.492 0.046 6.76 1.19 9.06
5/21/2022 11:45:00 PM 16.85 62.33 0.046 6.71 1.25 9.07
5/22/2022 12:00:00 AM 16.77 62.186 0.046 6.75 1.14 9.08
5/22/2022 12:15:00 AM 16.69 62.042 0.046 6.7 1.32 9.1
5/22/2022 12:30:00 AM 16.62 61.916 0.046 6.72 1.31 9.12
5/22/2022 12:45:00 AM 16.55 61.79 0.046 6.73 1.19 9.13
5/22/2022 1:00:00 AM 16.48 61.664 0.046 6.72 1.31 9.15
5/22/2022 1:15:00 AM 16.41 61.538 0.046 6.75 1.27 9.16
5/22/2022 1:30:00 AM 16.34 61.412 0.046 6.7 1.27 9.17
5/22/2022 1:45:00 AM 16.28 61.304 0.046 6.71 1.37 9.18
5/22/2022 2:00:00 AM 16.22 61.196 0.046 6.75 1.37 9.19
5/22/2022 2:15:00 AM 16.17 61.106 0.046 6.67 1.3 9.21
5/22/2022 2:30:00 AM 16.12 61.016 0.046 6.75 1.3 9.21
5/22/2022 2:45:00 AM 16.06 60.908 0.046 6.7 1.27 9.23
5/22/2022 3:00:00 AM 16.01 60.818 0.046 6.75 1.25 9.23
5/22/2022 3:15:00 AM 15.96 60.728 0.046 6.76 1.27 9.24
5/22/2022 3:30:00 AM 15.91 60.638 0.046 6.7 1.3 9.26
5/22/2022 3:45:00 AM 15.85 60.53 0.046 6.75 1.32 9.27
5/22/2022 4:00:00 AM 15.79 60.422 0.046 6.73 1.27 9.28
5/22/2022 4:15:00 AM 15.73 60.314 0.046 6.77 1.27 9.3
5/22/2022 4:30:00 AM 15.66 60.188 0.046 6.76 1.26 9.31
5/22/2022 4:45:00 AM 15.6 60.08 0.046 6.73 1.3 9.32
5/22/2022 5:00:00 AM 15.54 59.972 0.046 6.77 1.29 9.33
5/22/2022 5:15:00 AM 15.48 59.864 0.046 6.73 1.31 9.34
5/22/2022 5:30:00 AM 15.42 59.756 0.046 6.76 1.34 9.36
5/22/2022 5:45:00 AM 15.36 59.648 0.046 6.76 1.34 9.37
5/22/2022 6:00:00 AM 15.3 59.54 0.046 6.77 1.28 9.41
5/22/2022 6:15:00 AM 15.25 59.45 0.046 6.72 1.28 9.47
5/22/2022 6:30:00 AM 15.21 59.378 0.046 6.77 1.21 9.55
5/22/2022 6:45:00 AM 15.17 59.306 0.046 6.77 1.26 9.61
5/22/2022 7:00:00 AM 15.14 59.252 0.046 6.8 1.21 9.68
5/22/2022 7:15:00 AM 15.11 59.198 0.046 6.79 1.28 9.76
5/22/2022 7:30:00 AM 15.09 59.162 0.046 6.8 1.23 9.83
5/22/2022 7:45:00 AM 15.09 59.162 0.046 6.83 1.26 9.93
5/22/2022 8:00:00 AM 15.15 59.27 0.046 6.9 1.29 10.05
5/22/2022 8:15:00 AM 15.17 59.306 0.046 6.92 1.17 10.1
5/22/2022 8:30:00 AM 15.22 59.396 0.046 6.88 1.17 10.14
5/22/2022 8:45:00 AM 15.27 59.486 0.045 6.98 1.26 10.18
5/22/2022 9:00:00 AM 15.32 59.576 0.045 6.96 1.18 10.22
5/22/2022 9:15:00 AM 15.43 59.774 0.045 7 1.18 10.21
5/22/2022 9:30:00 AM 15.46 59.828 0.045 7.02 1.29 10.2
5/22/2022 9:45:00 AM 15.59 60.062 0.045 6.99 1.17 10.25
5/22/2022 10:00:00 AM 15.76 60.368 0.045 7.08 1.15 10.28
5/22/2022 10:15:00 AM 15.96 60.728 0.045 7.08 1.2 10.29
5/22/2022 10:30:00 AM 15.99 60.782 0.045 7.06 1.21 10.24
5/22/2022 10:45:00 AM 16.02 60.836 0.045 7.1 1.15 10.2
5/22/2022 11:00:00 AM 16.08 60.944 0.045 7.07 1.15 10.19
5/22/2022 11:15:00 AM 16.16 61.088 0.045 7.12 1.15 10.2
5/22/2022 11:30:00 AM 16.24 61.232 0.045 7.15 1.13 10.19
5/22/2022 11:45:00 AM 16.62 61.916 0.045 7.12 1.14 10.21
5/22/2022 12:00:00 PM 17.03 62.654 0.045 7.18 1.13 10.17
5/22/2022 12:15:00 PM 17.38 63.284 0.045 7.17 1.1 10.12
5/22/2022 12:30:00 PM 17.68 63.824 0.045 7.17 1.09 10.08
5/22/2022 12:45:00 PM 17.93 64.274 0.045 7.19 1.03 10.02
5/22/2022 1:00:00 PM 18.16 64.688 0.045 7.19 1.11 9.99
5/22/2022 1:15:00 PM 18.41 65.138 0.045 7.21 1.06 9.94
5/22/2022 1:30:00 PM 18.66 65.588 0.045 7.17 1.15 9.88
5/22/2022 1:45:00 PM 18.92 66.056 0.045 7.21 1.09 9.83
5/22/2022 2:00:00 PM 19.16 66.488 0.045 7.18 1.05 9.77
5/22/2022 2:15:00 PM 19.38 66.884 0.045 7.22 1.08 9.71
5/22/2022 2:30:00 PM 19.57 67.226 0.045 7.19 0.99 9.67
5/22/2022 2:45:00 PM 19.73 67.514 0.045 7.21 1.16 9.61
5/22/2022 3:00:00 PM 19.83 67.694 0.045 7.2 1.03 9.58
5/22/2022 3:15:00 PM 19.74 67.532 0.045 7.18 1.07 9.47
5/22/2022 3:30:00 PM 19.9 67.82 0.045 7.22 1.03 9.53
5/22/2022 3:45:00 PM 19.92 67.856 0.045 7.17 1.06 9.48
5/22/2022 4:00:00 PM 19.84 67.712 0.046 7.17 1.1 9.42
5/22/2022 4:15:00 PM 19.79 67.622 0.046 7.15 1.05 9.4
5/22/2022 4:30:00 PM 19.8 67.64 0.045 7.19 1 9.41
5/22/2022 4:45:00 PM 19.75 67.55 0.045 7.17 1.02 9.43
5/22/2022 5:00:00 PM 19.68 67.424 0.046 7.19 0.98 9.42
5/22/2022 5:15:00 PM 19.57 67.226 0.046 7.13 1.01 9.35
5/22/2022 5:30:00 PM 19.46 67.028 0.046 7.09 0.99 9.3
5/22/2022 5:45:00 PM 19.35 66.83 0.046 7.1 1.02 9.25
5/22/2022 6:00:00 PM 19.3 66.74 0.046 7.03 1.06 9.19
5/22/2022 6:15:00 PM 19.25 66.65 0.046 6.99 1.02 9.09
5/22/2022 6:30:00 PM 19.21 66.578 0.046 6.96 1.06 9
5/22/2022 6:45:00 PM 19.14 66.452 0.046 6.94 1.16 8.89
5/22/2022 7:00:00 PM 19.02 66.236 0.046 6.91 1.18 8.84
5/22/2022 7:15:00 PM 18.9 66.02 0.047 6.87 1.21 8.79
5/22/2022 7:30:00 PM 18.82 65.876 0.047 6.87 1.18 8.78
5/22/2022 7:45:00 PM 18.74 65.732 0.046 6.84 1.12 8.77
5/22/2022 8:00:00 PM 18.67 65.606 0.047 6.84 1.18 8.75
5/22/2022 8:15:00 PM 18.6 65.48 0.047 6.85 1.16 8.72
5/22/2022 8:30:00 PM 18.52 65.336 0.047 6.81 1.23 8.72
5/22/2022 8:45:00 PM 18.43 65.174 0.047 6.82 1.27 8.73
5/22/2022 9:00:00 PM 18.32 64.976 0.047 6.83 1.33 8.73
5/22/2022 9:15:00 PM 18.22 64.796 0.047 6.82 1.33 8.74
5/22/2022 9:30:00 PM 18.11 64.598 0.048 6.78 1.45 8.74
5/22/2022 9:45:00 PM 18.01 64.418 0.048 6.84 1.59 8.76
5/22/2022 10:00:00 PM 17.89 64.202 0.049 6.81 2.55 8.8
5/22/2022 10:15:00 PM 17.78 64.004 0.049 6.8 3.6 8.83
5/22/2022 10:30:00 PM 17.65 63.77 0.05 6.83 4.16 8.86
5/22/2022 10:45:00 PM 17.52 63.536 0.049 6.82 5.01 8.89
5/22/2022 11:00:00 PM 17.39 63.302 0.049 6.78 5.09 8.92
5/22/2022 11:15:00 PM 17.26 63.068 0.049 6.81 4.63 8.95
5/22/2022 11:30:00 PM 17.1 62.78 0.049 6.83 3.84 9
5/22/2022 11:45:00 PM 16.94 62.492 0.048 6.8 3.38 9.04
5/23/2022 12:00:00 AM 16.78 62.204 0.048 6.84 2.83 9.06
5/23/2022 12:15:00 AM 16.62 61.916 0.048 6.77 2.51 9.09
5/23/2022 12:30:00 AM 16.47 61.646 0.048 6.83 2.26 9.13
5/23/2022 12:45:00 AM 16.33 61.394 0.048 6.81 2.18 9.17
5/23/2022 1:00:00 AM 16.19 61.142 0.048 6.8 2.13 9.2
5/23/2022 1:15:00 AM 16.07 60.926 0.048 6.82 1.97 9.22
5/23/2022 1:30:00 AM 15.95 60.71 0.048 6.8 1.99 9.26
5/23/2022 1:45:00 AM 15.85 60.53 0.048 6.8 1.86 9.3
5/23/2022 2:00:00 AM 15.74 60.332 0.048 6.82 1.88 9.33
5/23/2022 2:15:00 AM 15.63 60.134 0.049 6.84 1.82 9.35
5/23/2022 2:30:00 AM 15.53 59.954 0.049 6.83 1.83 9.38
5/23/2022 2:45:00 AM 15.42 59.756 0.049 6.84 1.77 9.4
5/23/2022 3:00:00 AM 15.31 59.558 0.049 6.84 1.78 9.42
5/23/2022 3:15:00 AM 15.21 59.378 0.049 6.83 1.61 9.46
5/23/2022 3:30:00 AM 15.12 59.216 0.049 6.81 1.75 9.49
5/23/2022 3:45:00 AM 15.03 59.054 0.049 6.82 1.64 9.51
5/23/2022 4:00:00 AM 14.94 58.892 0.049 6.83 1.65 9.53
5/23/2022 4:15:00 AM 14.84 58.712 0.05 6.86 1.58 9.55
5/23/2022 4:30:00 AM 14.76 58.568 0.05 6.82 1.59 9.57
5/23/2022 4:45:00 AM 14.67 58.406 0.05 6.86 1.59 9.58
5/23/2022 5:00:00 AM 14.6 58.28 0.05 6.83 1.68 9.6
5/23/2022 5:15:00 AM 14.54 58.172 0.05 6.88 1.58 9.62
5/23/2022 5:30:00 AM 14.47 58.046 0.05 6.87 1.56 9.64
5/23/2022 5:45:00 AM 14.4 57.92 0.05 6.84 1.54 9.67
5/23/2022 6:00:00 AM 14.32 57.776 0.05 6.84 1.69 9.69
5/23/2022 6:15:00 AM 14.26 57.668 0.05 6.86 1.59 9.75
5/23/2022 6:30:00 AM 14.21 57.578 0.05 6.88 1.57 9.82
5/23/2022 6:45:00 AM 14.15 57.47 0.05 6.88 1.63 9.88
5/23/2022 7:00:00 AM 14.09 57.362 0.05 6.93 1.47 9.97
5/23/2022 7:15:00 AM 14.06 57.308 0.05 6.9 1.44 10.08
5/23/2022 7:30:00 AM 14.05 57.29 0.05 6.99 1.4 10.21
5/23/2022 7:45:00 AM 14.05 57.29 0.049 6.97 1.38 10.3
5/23/2022 8:00:00 AM 14.03 57.254 0.049 7.04 1.45 10.32
5/23/2022 8:15:00 AM 14.09 57.362 0.049 7.06 1.44 10.41
5/23/2022 8:30:00 AM 14.07 57.326 0.049 7.03 1.41 10.45
5/23/2022 8:45:00 AM 14.04 57.272 0.049 7.05 1.4 10.47
5/23/2022 9:00:00 AM 14.08 57.344 0.049 7.09 1.41 10.5
5/23/2022 9:15:00 AM 14.13 57.434 0.049 7.07 1.37 10.52
5/23/2022 9:30:00 AM 14.15 57.47 0.049 7.09 1.47 10.52
5/23/2022 9:45:00 AM 14.24 57.632 0.048 7.11 1.3 10.55
5/23/2022 10:00:00 AM 14.36 57.848 0.048 7.1 1.33 10.57
5/23/2022 10:15:00 AM 14.48 58.064 0.048 7.15 1.35 10.57
5/23/2022 10:30:00 AM 14.56 58.208 0.048 7.1 1.31 10.57
5/23/2022 10:45:00 AM 14.63 58.334 0.048 7.14 1.39 10.57
5/23/2022 11:00:00 AM 14.68 58.424 0.048 7.18 1.36 10.56
5/23/2022 11:15:00 AM 14.8 58.64 0.048 7.14 1.33 10.57
5/23/2022 11:30:00 AM 14.95 58.91 0.047 7.16 1.3 10.55
5/23/2022 11:45:00 AM 15.25 59.45 0.047 7.2 1.29 10.55
5/23/2022 12:00:00 PM 15.52 59.936 0.047 7.2 1.24 10.49
5/23/2022 12:15:00 PM 15.84 60.512 0.047 7.23 1.27 10.46
5/23/2022 12:30:00 PM 16.18 61.124 0.047 7.19 1.24 10.41
5/23/2022 12:45:00 PM 16.41 61.538 0.047 7.21 1.25 10.37
5/23/2022 1:00:00 PM 16.44 61.592 0.047 7.23 1.2 10.32
5/23/2022 1:15:00 PM 16.49 61.682 0.047 7.23 1.3 10.3
5/23/2022 1:30:00 PM 16.59 61.862 0.047 7.28 1.23 10.3
5/23/2022 1:45:00 PM 16.51 61.718 0.047 7.24 1.17 10.29
5/23/2022 2:00:00 PM 16.65 61.97 0.046 7.27 1.23 10.28
5/23/2022 2:15:00 PM 16.61 61.898 0.046 7.27 1.18 10.26
5/23/2022 2:30:00 PM 16.57 61.826 0.046 7.28 1.25 10.27
5/23/2022 2:45:00 PM 16.48 61.664 0.046 7.25 1.14 10.24
5/23/2022 3:00:00 PM 16.42 61.556 0.046 7.22 1.22 10.26
5/23/2022 3:15:00 PM 16.37 61.466 0.046 7.27 1.22 10.26
5/23/2022 3:30:00 PM 16.33 61.394 0.046 7.22 1.2 10.25
5/23/2022 3:45:00 PM 16.3 61.34 0.046 7.26 1.2 10.23
5/23/2022 4:00:00 PM 16.27 61.286 0.046 7.18 1.21 10.2
5/23/2022 4:15:00 PM 16.23 61.214 0.046 7.2 1.35 10.17
5/23/2022 4:30:00 PM 16.21 61.178 0.046 7.23 1.29 10.16
5/23/2022 4:45:00 PM 16.18 61.124 0.046 7.21 1.13 10.14
5/23/2022 5:00:00 PM 16.14 61.052 0.046 7.11 1.26 10.11
5/23/2022 5:15:00 PM 16.09 60.962 0.046 7.16 1.14 10.1
5/23/2022 5:30:00 PM 16.03 60.854 0.046 7.13 1.21 10.09
5/23/2022 5:45:00 PM 15.97 60.746 0.046 7.15 1.2 10.06
5/23/2022 6:00:00 PM 15.91 60.638 0.046 7.1 1.25 10.02
5/23/2022 6:15:00 PM 15.84 60.512 0.047 7.1 1.22 9.98
5/23/2022 6:30:00 PM 15.76 60.368 0.047 6.99 1.17 9.92
5/23/2022 6:45:00 PM 15.68 60.224 0.047 7.02 1.23 9.86
5/23/2022 7:00:00 PM 15.6 60.08 0.047 7.01 1.14 9.8
5/23/2022 7:15:00 PM 15.53 59.954 0.047 6.96 1.2 9.75
5/23/2022 7:30:00 PM 15.47 59.846 0.047 6.91 1.23 9.71
5/23/2022 7:45:00 PM 15.4 59.72 0.047 6.92 1.23 9.65
5/23/2022 8:00:00 PM 15.34 59.612 0.047 6.92 1.24 9.6
5/23/2022 8:15:00 PM 15.28 59.504 0.048 6.87 1.19 9.56
5/23/2022 8:30:00 PM 15.21 59.378 0.048 6.86 1.17 9.54
5/23/2022 8:45:00 PM 15.14 59.252 0.048 6.87 1.17 9.52
5/23/2022 9:00:00 PM 15.08 59.144 0.048 6.84 1.27 9.52
5/23/2022 9:15:00 PM 15.01 59.018 0.048 6.86 1.28 9.51
5/23/2022 9:30:00 PM 14.95 58.91 0.048 6.86 1.29 9.51
5/23/2022 9:45:00 PM 14.89 58.802 0.048 6.8 1.3 9.52
5/23/2022 10:00:00 PM 14.83 58.694 0.048 6.86 1.33 9.54
5/23/2022 10:15:00 PM 14.76 58.568 0.048 6.82 1.27 9.54
5/23/2022 10:30:00 PM 14.7 58.46 0.048 6.84 1.32 9.55
5/23/2022 10:45:00 PM 14.64 58.352 0.048 6.84 1.3 9.57
5/23/2022 11:00:00 PM 14.58 58.244 0.048 6.84 1.33 9.6
5/23/2022 11:15:00 PM 14.52 58.136 0.048 6.77 1.27 9.61
5/23/2022 11:30:00 PM 14.46 58.028 0.048 6.84 1.3 9.62
5/23/2022 11:45:00 PM 14.39 57.902 0.048 6.76 1.25 9.63
5/24/2022 12:00:00 AM 14.33 57.794 0.048 6.79 1.27 9.65
5/24/2022 12:15:00 AM 14.27 57.686 0.048 6.82 1.19 9.66
5/24/2022 12:30:00 AM 14.2 57.56 0.048 6.78 1.23 9.68
5/24/2022 12:45:00 AM 14.14 57.452 0.048 6.78 1.25 9.68
5/24/2022 1:00:00 AM 14.09 57.362 0.048 6.79 1.21 9.69
5/24/2022 1:15:00 AM 14.03 57.254 0.048 6.81 1.27 9.71
5/24/2022 1:30:00 AM 14.06 57.308 0.048 6.78 1.22 9.7
5/24/2022 1:45:00 AM 14 57.2 0.048 6.78 1.23 9.71
5/24/2022 2:00:00 AM 13.94 57.092 0.048 6.78 1.27 9.72
5/24/2022 2:15:00 AM 13.89 57.002 0.048 6.8 1.27 9.74
5/24/2022 2:30:00 AM 13.84 56.912 0.048 6.82 1.31 9.75
5/24/2022 2:45:00 AM 13.79 56.822 0.048 6.75 1.25 9.76
5/24/2022 3:00:00 AM 13.73 56.714 0.048 6.79 1.33 9.78
5/24/2022 3:15:00 AM 13.68 56.624 0.048 6.81 1.23 9.79
5/24/2022 3:30:00 AM 13.62 56.516 0.048 6.77 1.29 9.79
5/24/2022 3:45:00 AM 13.57 56.426 0.048 6.8 1.25 9.81
5/24/2022 4:00:00 AM 13.52 56.336 0.048 6.77 1.27 9.81
5/24/2022 4:15:00 AM 13.46 56.228 0.048 6.8 1.28 9.83
5/24/2022 4:30:00 AM 13.41 56.138 0.048 6.77 1.32 9.85
5/24/2022 4:45:00 AM 13.36 56.048 0.048 6.81 1.28 9.87
5/24/2022 5:00:00 AM 13.31 55.958 0.048 6.76 1.29 9.87
5/24/2022 5:15:00 AM 13.26 55.868 0.048 6.81 1.31 9.89
5/24/2022 5:30:00 AM 13.21 55.778 0.048 6.79 1.3 9.89
5/24/2022 5:45:00 AM 13.16 55.688 0.048 6.8 1.28 9.91
5/24/2022 6:00:00 AM 13.1 55.58 0.048 6.79 1.24 9.95
5/24/2022 6:15:00 AM 13.07 55.526 0.048 6.78 1.52 9.99
5/24/2022 6:30:00 AM 13.04 55.472 0.048 6.83 1.28 10.04
5/24/2022 6:45:00 AM 13.01 55.418 0.048 6.77 1.25 10.09
5/24/2022 7:00:00 AM 12.99 55.382 0.047 6.81 1.25 10.16
5/24/2022 7:15:00 AM 12.98 55.364 0.047 6.84 1.2 10.23
5/24/2022 7:30:00 AM 12.97 55.346 0.047 6.89 1.25 10.3
5/24/2022 7:45:00 AM 12.98 55.364 0.047 6.89 1.21 10.39
5/24/2022 8:00:00 AM 12.99 55.382 0.047 6.87 1.21 10.49
5/24/2022 8:15:00 AM 13.02 55.436 0.047 6.94 1.22 10.55
5/24/2022 8:30:00 AM 13.05 55.49 0.047 6.92 1.16 10.61
5/24/2022 8:45:00 AM 13.1 55.58 0.047 7 1.22 10.68
5/24/2022 9:00:00 AM 13.13 55.634 0.047 7.01 1.17 10.7
5/24/2022 9:15:00 AM 13.17 55.706 0.047 7.01 1.21 10.73
5/24/2022 9:30:00 AM 13.21 55.778 0.047 7.04 1.2 10.74
5/24/2022 9:45:00 AM 13.24 55.832 0.047 7.02 1.18 10.74
5/24/2022 10:00:00 AM 13.27 55.886 0.047 7.04 1.21 10.74
5/24/2022 10:15:00 AM 13.3 55.94 0.047 7.05 1.12 10.73
5/24/2022 10:30:00 AM 13.33 55.994 0.047 7.03 1.2 10.73
5/24/2022 10:45:00 AM 13.39 56.102 0.046 7.08 1.19 10.75
5/24/2022 11:00:00 AM 13.44 56.192 0.046 7.05 1.16 10.77
5/24/2022 11:15:00 AM 13.52 56.336 0.046 7.08 1.15 10.79
5/24/2022 11:30:00 AM 13.6 56.48 0.046 7.1 1.14 10.78
5/24/2022 11:45:00 AM 13.68 56.624 0.046 7.11 1.25 10.79
5/24/2022 12:00:00 PM 13.74 56.732 0.046 7.13 1.14 10.77
5/24/2022 12:15:00 PM 13.81 56.858 0.046 7.12 1.18 10.77
5/24/2022 12:30:00 PM 13.86 56.948 0.046 7.13 1.12 10.75
5/24/2022 12:45:00 PM 13.89 57.002 0.046 7.11 1.21 10.71
5/24/2022 1:00:00 PM 13.93 57.074 0.046 7.11 1.12 10.69
5/24/2022 1:15:00 PM 13.95 57.11 0.046 7.1 1.18 10.65
5/24/2022 1:30:00 PM 13.97 57.146 0.046 7.09 1.15 10.62
5/24/2022 1:45:00 PM 13.99 57.182 0.046 7.08 1.15 10.58
5/24/2022 2:00:00 PM 13.97 57.146 0.046 7.05 1.14 10.51
5/24/2022 2:15:00 PM 13.96 57.128 0.047 7.04 1.17 10.44
5/24/2022 2:30:00 PM 13.94 57.092 0.047 7.04 1.11 10.37
5/24/2022 2:45:00 PM 13.94 57.092 0.047 6.99 1.2 10.4
5/24/2022 3:00:00 PM 13.94 57.092 0.047 7.04 1.09 10.42
5/24/2022 3:15:00 PM 13.95 57.11 0.047 7.01 1.15 10.43
5/24/2022 3:30:00 PM 13.97 57.146 0.047 7.02 1.12 10.46
5/24/2022 3:45:00 PM 13.97 57.146 0.047 7.05 1.15 10.44
5/24/2022 4:00:00 PM 13.96 57.128 0.047 7 1.1 10.41
5/24/2022 4:15:00 PM 13.97 57.146 0.047 7.02 1.13 10.44
5/24/2022 4:30:00 PM 14.03 57.254 0.047 7.07 1.12 10.52
5/24/2022 4:45:00 PM 14.1 57.38 0.047 7.07 1.19 10.55
5/24/2022 5:00:00 PM 14.11 57.398 0.047 7.06 1.13 10.52
5/24/2022 5:15:00 PM 14.16 57.488 0.048 7.08 1.12 10.5
5/24/2022 5:30:00 PM 14.22 57.596 0.047 7.08 1.15 10.52
5/24/2022 5:45:00 PM 14.21 57.578 0.048 7.08 1.16 10.48
5/24/2022 6:00:00 PM 14.2 57.56 0.048 7.07 1.11 10.44
5/24/2022 6:15:00 PM 14.21 57.578 0.048 7.08 1.14 10.42
5/24/2022 6:30:00 PM 14.24 57.632 0.048 7.07 1.11 10.38
5/24/2022 6:45:00 PM 14.22 57.596 0.048 7.05 1.18 10.31
5/24/2022 7:00:00 PM 14.18 57.524 0.048 6.99 1.1 10.22
5/24/2022 7:15:00 PM 14.15 57.47 0.048 6.95 1.14 10.13
5/24/2022 7:30:00 PM 14.11 57.398 0.048 6.94 1.21 10.07
5/24/2022 7:45:00 PM 14.07 57.326 0.048 6.92 1.14 10.01
5/24/2022 8:00:00 PM 14.02 57.236 0.049 6.88 1.15 9.96
5/24/2022 8:15:00 PM 13.98 57.164 0.049 6.88 1.14 9.92
5/24/2022 8:30:00 PM 13.94 57.092 0.049 6.85 1.21 9.88
5/24/2022 8:45:00 PM 13.9 57.02 0.049 6.85 1.23 9.84
5/24/2022 9:00:00 PM 13.85 56.93 0.049 6.83 1.24 9.83
5/24/2022 9:15:00 PM 13.81 56.858 0.049 6.87 1.28 9.82
5/24/2022 9:30:00 PM 13.77 56.786 0.049 6.83 1.25 9.81
5/24/2022 9:45:00 PM 13.74 56.732 0.049 6.83 1.27 9.81
5/24/2022 10:00:00 PM 13.7 56.66 0.049 6.78 1.23 9.82
5/24/2022 10:15:00 PM 13.66 56.588 0.049 6.81 1.22 9.82
5/24/2022 10:30:00 PM 13.62 56.516 0.049 6.8 1.15 9.82
5/24/2022 10:45:00 PM 13.59 56.462 0.049 6.79 1.26 9.83
5/24/2022 11:00:00 PM 13.56 56.408 0.049 6.82 1.21 9.84
5/24/2022 11:15:00 PM 13.53 56.354 0.049 6.79 1.2 9.84
5/24/2022 11:30:00 PM 13.5 56.3 0.049 6.82 1.26 9.85
5/24/2022 11:45:00 PM 13.47 56.246 0.049 6.76 1.26 9.86
5/25/2022 12:00:00 AM 13.44 56.192 0.049 6.82 1.24 9.86
5/25/2022 12:15:00 AM 13.4 56.12 0.049 6.77 1.23 9.88
5/25/2022 12:30:00 AM 13.36 56.048 0.049 6.82 1.28 9.88
5/25/2022 12:45:00 AM 13.3 55.94 0.049 6.78 1.17 9.9
5/25/2022 1:00:00 AM 13.25 55.85 0.05 6.79 1.29 9.91
5/25/2022 1:15:00 AM 13.19 55.742 0.049 6.83 1.24 9.92
5/25/2022 1:30:00 AM 13.13 55.634 0.049 6.78 1.2 9.93
5/25/2022 1:45:00 AM 13.08 55.544 0.05 6.77 1.15 9.95
5/25/2022 2:00:00 AM 13.03 55.454 0.049 6.82 1.19 9.96
5/25/2022 2:15:00 AM 12.97 55.346 0.049 6.78 1.25 9.97
5/25/2022 2:30:00 AM 12.91 55.238 0.049 6.78 1.19 9.98
5/25/2022 2:45:00 AM 12.84 55.112 0.049 6.79 1.23 10
5/25/2022 3:00:00 AM 12.78 55.004 0.049 6.82 1.23 10.02
5/25/2022 3:15:00 AM 12.73 54.914 0.049 6.76 1.26 10.03
5/25/2022 3:30:00 AM 12.68 54.824 0.049 6.78 1.16 10.04
5/25/2022 3:45:00 AM 12.63 54.734 0.049 6.81 1.26 10.05
5/25/2022 4:00:00 AM 12.58 54.644 0.049 6.78 1.17 10.08
5/25/2022 4:15:00 AM 12.53 54.554 0.049 6.77 1.21 10.08
5/25/2022 4:30:00 AM 12.48 54.464 0.049 6.82 1.24 10.09
5/25/2022 4:45:00 AM 12.42 54.356 0.049 6.76 1.24 10.1
5/25/2022 5:00:00 AM 12.37 54.266 0.049 6.79 1.19 10.12
5/25/2022 5:15:00 AM 12.31 54.158 0.049 6.77 1.26 10.13
5/25/2022 5:30:00 AM 12.27 54.086 0.049 6.81 1.26 10.14
5/25/2022 5:45:00 AM 12.23 54.014 0.049 6.76 1.25 10.16
5/25/2022 6:00:00 AM 12.19 53.942 0.049 6.79 1.27 10.2
5/25/2022 6:15:00 AM 12.17 53.906 0.049 6.79 1.2 10.26
5/25/2022 6:30:00 AM 12.16 53.888 0.049 6.84 1.25 10.32
5/25/2022 6:45:00 AM 12.15 53.87 0.049 6.82 1.19 10.4
5/25/2022 7:00:00 AM 12.15 53.87 0.049 6.84 1.26 10.48
5/25/2022 7:15:00 AM 12.15 53.87 0.049 6.88 1.2 10.55
5/25/2022 7:30:00 AM 12.17 53.906 0.049 6.87 1.19 10.64
5/25/2022 7:45:00 AM 12.2 53.96 0.049 6.93 1.19 10.73
5/25/2022 8:00:00 AM 12.26 54.068 0.049 6.95 1.19 10.81
5/25/2022 8:15:00 AM 12.31 54.158 0.049 6.97 1.18 10.86
5/25/2022 8:30:00 AM 12.38 54.284 0.049 6.98 1.18 10.91
5/25/2022 8:45:00 AM 12.45 54.41 0.048 7.04 1.21 10.95
5/25/2022 9:00:00 AM 12.54 54.572 0.048 7.01 1.2 10.97
5/25/2022 9:15:00 AM 12.67 54.806 0.048 7.06 1.19 10.97
5/25/2022 9:30:00 AM 12.77 54.986 0.048 7.07 1.13 10.95
5/25/2022 9:45:00 AM 12.91 55.238 0.048 7.03 1.15 10.92
5/25/2022 10:00:00 AM 13.11 55.598 0.048 7.05 1.14 10.91
5/25/2022 10:15:00 AM 13.28 55.904 0.048 7.07 1.16 10.9
5/25/2022 10:30:00 AM 13.44 56.192 0.048 7.1 1.11 10.87
5/25/2022 10:45:00 AM 13.62 56.516 0.048 7.07 1.1 10.85
5/25/2022 11:00:00 AM 13.84 56.912 0.048 7.11 1.13 10.84
5/25/2022 11:15:00 AM 14.1 57.38 0.048 7.09 1.12 10.8
5/25/2022 11:30:00 AM 14.3 57.74 0.048 7.1 1.07 10.76
5/25/2022 11:45:00 AM 14.42 57.956 0.048 7.15 1.17 10.73
5/25/2022 12:00:00 PM 14.65 58.37 0.048 7.1 1.09 10.72
5/25/2022 12:15:00 PM 14.93 58.874 0.048 7.16 1.12 10.66
5/25/2022 12:30:00 PM 15.29 59.522 0.047 7.16 1.03 10.59
5/25/2022 12:45:00 PM 15.68 60.224 0.047 7.14 1.15 10.53
5/25/2022 1:00:00 PM 16.02 60.836 0.047 7.17 1.03 10.44
5/25/2022 1:15:00 PM 16.34 61.412 0.047 7.14 1.07 10.37
5/25/2022 1:30:00 PM 16.62 61.916 0.047 7.17 1.03 10.3
5/25/2022 1:45:00 PM 16.88 62.384 0.048 7.14 1.09 10.24
5/25/2022 2:00:00 PM 17.1 62.78 0.048 7.14 1.04 10.2
5/25/2022 2:15:00 PM 17.28 63.104 0.047 7.18 1.08 10.14
5/25/2022 2:30:00 PM 17.43 63.374 0.047 7.14 1.04 10.08
5/25/2022 2:45:00 PM 17.52 63.536 0.047 7.15 1.07 10.07
5/25/2022 3:00:00 PM 17.57 63.626 0.047 7.16 1.02 10.05
5/25/2022 3:15:00 PM 17.66 63.788 0.047 7.17 1.1 10.04
5/25/2022 3:30:00 PM 17.69 63.842 0.047 7.18 1.07 9.98
5/25/2022 3:45:00 PM 17.56 63.608 0.047 7.12 1.01 9.96
5/25/2022 4:00:00 PM 17.59 63.662 0.047 7.16 1.02 9.96
5/25/2022 4:15:00 PM 17.54 63.572 0.047 7.15 1.05 9.92
5/25/2022 4:30:00 PM 17.41 63.338 0.048 7.11 1.03 9.87
5/25/2022 4:45:00 PM 17.3 63.14 0.048 7.1 1.08 9.83
5/25/2022 5:00:00 PM 17.23 63.014 0.048 7.11 1.05 9.8
5/25/2022 5:15:00 PM 17.17 62.906 0.048 7.06 1.02 9.76
5/25/2022 5:30:00 PM 17.06 62.708 0.048 7.06 1.16 9.71
5/25/2022 5:45:00 PM 16.95 62.51 0.048 7.02 1.08 9.68
5/25/2022 6:00:00 PM 16.84 62.312 0.048 6.98 1.07 9.66
5/25/2022 6:15:00 PM 16.72 62.096 0.048 6.98 1.07 9.64
5/25/2022 6:30:00 PM 16.6 61.88 0.048 6.99 1.09 9.63
5/25/2022 6:45:00 PM 16.5 61.7 0.048 6.96 1 9.62
5/25/2022 7:00:00 PM 16.4 61.52 0.048 6.96 1.09 9.6
5/25/2022 7:15:00 PM 16.31 61.358 0.048 6.96 1 9.57
5/25/2022 7:30:00 PM 16.24 61.232 0.048 6.95 1.15 9.53
5/25/2022 7:45:00 PM 16.17 61.106 0.048 6.9 1.11 9.5
5/25/2022 8:00:00 PM 16.09 60.962 0.049 6.9 1.06 9.46
5/25/2022 8:15:00 PM 16.02 60.836 0.049 6.9 1.13 9.42
5/25/2022 8:30:00 PM 15.95 60.71 0.049 6.85 1.12 9.38
5/25/2022 8:45:00 PM 15.87 60.566 0.049 6.88 1.06 9.36
5/25/2022 9:00:00 PM 15.79 60.422 0.049 6.82 1.15 9.34
5/25/2022 9:15:00 PM 15.73 60.314 0.049 6.85 1.15 9.33
5/25/2022 9:30:00 PM 15.66 60.188 0.049 6.79 1.12 9.33
5/25/2022 9:45:00 PM 15.59 60.062 0.049 6.81 1.12 9.33
5/25/2022 10:00:00 PM 15.53 59.954 0.049 6.83 1.08 9.34
5/25/2022 10:15:00 PM 15.47 59.846 0.05 6.8 1.21 9.35
5/25/2022 10:30:00 PM 15.4 59.72 0.05 6.83 1.29 9.36
5/25/2022 10:45:00 PM 15.34 59.612 0.05 6.79 1.14 9.38
5/25/2022 11:00:00 PM 15.27 59.486 0.05 6.81 1.14 9.4
5/25/2022 11:15:00 PM 15.2 59.36 0.05 6.82 1.15 9.41
5/25/2022 11:30:00 PM 15.13 59.234 0.05 6.82 1.13 9.43
5/25/2022 11:45:00 PM 15.06 59.108 0.05 6.8 1.13 9.44
5/26/2022 12:00:00 AM 14.99 58.982 0.05 6.79 1.16 9.45
5/26/2022 12:15:00 AM 14.92 58.856 0.05 6.81 1.16 9.46
5/26/2022 12:30:00 AM 14.84 58.712 0.05 6.81 1.14 9.48
5/26/2022 12:45:00 AM 14.77 58.586 0.05 6.8 1.14 9.49
5/26/2022 1:00:00 AM 14.69 58.442 0.05 6.82 1.2 9.51
5/26/2022 1:15:00 AM 14.63 58.334 0.05 6.83 1.17 9.54
5/26/2022 1:30:00 AM 14.57 58.226 0.05 6.78 1.18 9.56
5/26/2022 1:45:00 AM 14.5 58.1 0.05 6.8 1.26 9.57
5/26/2022 2:00:00 AM 14.44 57.992 0.05 6.82 1.19 9.58
5/26/2022 2:15:00 AM 14.37 57.866 0.05 6.82 1.12 9.59
5/26/2022 2:30:00 AM 14.31 57.758 0.05 6.81 1.26 9.61
5/26/2022 2:45:00 AM 14.24 57.632 0.05 6.79 1.16 9.62
5/26/2022 3:00:00 AM 14.17 57.506 0.05 6.81 1.21 9.63
5/26/2022 3:15:00 AM 14.11 57.398 0.05 6.83 1.26 9.65
5/26/2022 3:30:00 AM 14.07 57.326 0.05 6.77 1.26 9.66
5/26/2022 3:45:00 AM 14.02 57.236 0.05 6.78 1.15 9.67
5/26/2022 4:00:00 AM 13.97 57.146 0.05 6.79 1.24 9.69
5/26/2022 4:15:00 AM 13.93 57.074 0.05 6.81 1.14 9.7
5/26/2022 4:30:00 AM 13.87 56.966 0.05 6.82 1.16 9.71
5/26/2022 4:45:00 AM 13.81 56.858 0.05 6.77 1.34 9.72
5/26/2022 5:00:00 AM 13.74 56.732 0.05 6.79 1.15 9.73
5/26/2022 5:15:00 AM 13.69 56.642 0.05 6.83 1.31 9.75
5/26/2022 5:30:00 AM 13.65 56.57 0.05 6.79 1.22 9.76
5/26/2022 5:45:00 AM 13.6 56.48 0.05 6.79 1.29 9.77
5/26/2022 6:00:00 AM 13.56 56.408 0.05 6.8 1.17 9.81
5/26/2022 6:15:00 AM 13.54 56.372 0.05 6.84 1.13 9.87
5/26/2022 6:30:00 AM 13.52 56.336 0.05 6.81 1.18 9.92
5/26/2022 6:45:00 AM 13.5 56.3 0.05 6.83 1.15 10
5/26/2022 7:00:00 AM 13.48 56.264 0.05 6.85 1.16 10.13
5/26/2022 7:15:00 AM 13.46 56.228 0.05 6.88 1.13 10.23
5/26/2022 7:30:00 AM 13.43 56.174 0.049 6.94 1.1 10.31
5/26/2022 7:45:00 AM 13.43 56.174 0.049 6.93 1.18 10.4
5/26/2022 8:00:00 AM 13.42 56.156 0.049 6.96 1.11 10.47
5/26/2022 8:15:00 AM 13.43 56.174 0.049 6.98 1.1 10.53
5/26/2022 8:30:00 AM 13.45 56.21 0.049 7.02 1.14 10.54
5/26/2022 8:45:00 AM 13.46 56.228 0.049 6.98 1.11 10.54
5/26/2022 9:00:00 AM 13.48 56.264 0.049 7 1.13 10.57
5/26/2022 9:15:00 AM 13.53 56.354 0.049 7.04 1.08 10.65
5/26/2022 9:30:00 AM 13.61 56.498 0.049 7.06 1.13 10.7
5/26/2022 9:45:00 AM 13.76 56.768 0.049 7.07 1.1 10.73
5/26/2022 10:00:00 AM 13.91 57.038 0.049 7.08 1.1 10.74
5/26/2022 10:15:00 AM 14 57.2 0.049 7.12 1.12 10.73
5/26/2022 10:30:00 AM 14.14 57.452 0.049 7.12 1.13 10.71
5/26/2022 10:45:00 AM 14.29 57.722 0.048 7.14 1.13 10.71
5/26/2022 11:00:00 AM 14.4 57.92 0.048 7.13 1.13 10.69
5/26/2022 11:15:00 AM 14.5 58.1 0.048 7.18 1.23 10.69
5/26/2022 11:30:00 AM 14.62 58.316 0.048 7.14 1.06 10.66
5/26/2022 11:45:00 AM 14.72 58.496 0.048 7.16 1.12 10.61
5/26/2022 12:00:00 PM 14.83 58.694 0.048 7.16 1.14 10.59
5/26/2022 12:15:00 PM 14.96 58.928 0.048 7.17 1.13 10.56
5/26/2022 12:30:00 PM 15.11 59.198 0.048 7.17 1.09 10.55
5/26/2022 12:45:00 PM 15.29 59.522 0.048 7.21 1.09 10.52
5/26/2022 1:00:00 PM 15.52 59.936 0.048 7.22 1.06 10.49
5/26/2022 1:15:00 PM 15.98 60.764 0.048 7.23 1.04 10.46
5/26/2022 1:30:00 PM 16.31 61.358 0.048 7.24 0.97 10.37
5/26/2022 1:45:00 PM 16.53 61.754 0.048 7.23 1.02 10.3
5/26/2022 2:00:00 PM 16.58 61.844 0.048 7.2 1.02 10.22
5/26/2022 2:15:00 PM 16.63 61.934 0.048 7.21 1.03 10.21
5/26/2022 2:30:00 PM 16.63 61.934 0.048 7.2 1.03 10.2
5/26/2022 2:45:00 PM 16.65 61.97 0.048 7.2 1.04 10.19
5/26/2022 3:00:00 PM 16.63 61.934 0.048 7.22 1 10.15
5/26/2022 3:15:00 PM 16.61 61.898 0.048 7.15 0.99 10.14
5/26/2022 3:30:00 PM 16.59 61.862 0.048 7.2 1.05 10.1
5/26/2022 3:45:00 PM 16.51 61.718 0.048 7.15 1.02 10.04
5/26/2022 4:00:00 PM 16.41 61.538 0.048 7.14 1.04 10.02
5/26/2022 4:15:00 PM 16.29 61.322 0.048 7.1 1.07 9.99
5/26/2022 4:30:00 PM 16.17 61.106 0.048 7.09 1.01 9.89
5/26/2022 4:45:00 PM 16.06 60.908 0.048 7 1.09 9.81
5/26/2022 5:00:00 PM 15.98 60.764 0.048 7.03 1.01 9.78
5/26/2022 5:15:00 PM 15.92 60.656 0.048 7.03 1.06 9.79
5/26/2022 5:30:00 PM 15.87 60.566 0.048 6.99 1.08 9.79
5/26/2022 5:45:00 PM 15.8 60.44 0.049 6.97 1.09 9.74
5/26/2022 6:00:00 PM 15.74 60.332 0.049 6.97 1.06 9.74
5/26/2022 6:15:00 PM 15.69 60.242 0.049 6.95 1.05 9.74
5/26/2022 6:30:00 PM 15.63 60.134 0.049 6.96 0.97 9.73
5/26/2022 6:45:00 PM 15.57 60.026 0.049 6.92 1.01 9.69
5/26/2022 7:00:00 PM 15.52 59.936 0.049 6.95 1.03 9.64
5/26/2022 7:15:00 PM 15.47 59.846 0.049 6.89 1.01 9.61
5/26/2022 7:30:00 PM 15.42 59.756 0.049 6.92 1 9.56
5/26/2022 7:45:00 PM 15.37 59.666 0.049 6.86 1.08 9.52
5/26/2022 8:00:00 PM 15.32 59.576 0.05 6.89 1.08 9.48
5/26/2022 8:15:00 PM 15.27 59.486 0.05 6.83 1.07 9.46
5/26/2022 8:30:00 PM 15.22 59.396 0.05 6.88 1.05 9.44
5/26/2022 8:45:00 PM 15.18 59.324 0.05 6.86 1.14 9.42
5/26/2022 9:00:00 PM 15.13 59.234 0.05 6.84 1.1 9.41
5/26/2022 9:15:00 PM 15.09 59.162 0.05 6.85 1.08 9.4
5/26/2022 9:30:00 PM 15.05 59.09 0.05 6.83 1.08 9.4
5/26/2022 9:45:00 PM 15.01 59.018 0.05 6.8 1.09 9.41
5/26/2022 10:00:00 PM 14.97 58.946 0.05 6.81 1.09 9.41
5/26/2022 10:15:00 PM 14.93 58.874 0.05 6.81 1.09 9.41
5/26/2022 10:30:00 PM 14.9 58.82 0.05 6.82 1.3 9.43
5/26/2022 10:45:00 PM 14.87 58.766 0.05 6.81 1.1 9.43
5/26/2022 11:00:00 PM 14.84 58.712 0.05 6.79 1.14 9.43
5/26/2022 11:15:00 PM 14.8 58.64 0.05 6.83 1.1 9.43
5/26/2022 11:30:00 PM 14.77 58.586 0.05 6.8 1.13 9.44
5/26/2022 11:45:00 PM 14.75 58.55 0.05 6.84 1.08 9.44
5/27/2022 12:00:00 AM 14.72 58.496 0.05 6.79 1.14 9.45
5/27/2022 12:15:00 AM 14.69 58.442 0.051 6.82 1.26 9.46
5/27/2022 12:30:00 AM 14.66 58.388 0.051 6.82 1.17 9.46
5/27/2022 12:45:00 AM 14.64 58.352 0.051 6.75 1.1 9.46
5/27/2022 1:00:00 AM 14.62 58.316 0.051 6.78 1.2 9.46
5/27/2022 1:15:00 AM 14.6 58.28 0.05 6.8 1.12 9.48
5/27/2022 1:30:00 AM 14.58 58.244 0.05 6.81 1.12 9.48
5/27/2022 1:45:00 AM 14.55 58.19 0.05 6.76 1.13 9.48
5/27/2022 2:00:00 AM 14.53 58.154 0.05 6.77 1.13 9.48
5/27/2022 2:15:00 AM 14.51 58.118 0.05 6.77 1.17 9.49
5/27/2022 2:30:00 AM 14.49 58.082 0.05 6.78 1.2 9.49
5/27/2022 2:45:00 AM 14.47 58.046 0.05 6.77 1.11 9.49
5/27/2022 3:00:00 AM 14.45 58.01 0.05 6.8 1.18 9.5
5/27/2022 3:15:00 AM 14.43 57.974 0.05 6.75 1.16 9.5
5/27/2022 3:30:00 AM 14.41 57.938 0.05 6.77 1.12 9.5
5/27/2022 3:45:00 AM 14.39 57.902 0.05 6.77 1.16 9.51
5/27/2022 4:00:00 AM 14.38 57.884 0.05 6.76 1.13 9.51
5/27/2022 4:15:00 AM 14.37 57.866 0.05 6.76 1.17 9.51
5/27/2022 4:30:00 AM 14.36 57.848 0.05 6.77 1.11 9.52
5/27/2022 4:45:00 AM 14.34 57.812 0.05 6.78 1.16 9.52
5/27/2022 5:00:00 AM 14.33 57.794 0.05 6.77 1.2 9.52
5/27/2022 5:15:00 AM 14.31 57.758 0.05 6.78 1.24 9.53
5/27/2022 5:30:00 AM 14.29 57.722 0.05 6.76 1.2 9.53
5/27/2022 5:45:00 AM 14.27 57.686 0.05 6.78 1.2 9.53
5/27/2022 6:00:00 AM 14.25 57.65 0.05 6.77 1.22 9.55
5/27/2022 6:15:00 AM 14.23 57.614 0.05 6.8 1.22 9.56
5/27/2022 6:30:00 AM 14.21 57.578 0.05 6.75 1.11 9.58
5/27/2022 6:45:00 AM 14.2 57.56 0.05 6.77 1.18 9.6
5/27/2022 7:00:00 AM 14.19 57.542 0.05 6.77 1.17 9.62
5/27/2022 7:15:00 AM 14.18 57.524 0.05 6.77 1.2 9.64
5/27/2022 7:30:00 AM 14.17 57.506 0.05 6.79 1.16 9.66
5/27/2022 7:45:00 AM 14.16 57.488 0.05 6.79 1.17 9.69
5/27/2022 8:00:00 AM 14.16 57.488 0.05 6.79 1.29 9.74
5/27/2022 8:15:00 AM 14.16 57.488 0.05 6.8 1.11 9.79
5/27/2022 8:30:00 AM 14.18 57.524 0.05 6.86 1.13 9.85
5/27/2022 8:45:00 AM 14.18 57.524 0.05 6.84 1.13 9.87
5/27/2022 9:00:00 AM 14.19 57.542 0.05 6.89 1.11 9.92
5/27/2022 9:15:00 AM 14.19 57.542 0.049 6.88 1.15 9.93
5/27/2022 9:30:00 AM 14.18 57.524 0.049 6.87 1.06 9.9
5/27/2022 9:45:00 AM 14.17 57.506 0.049 6.83 1.12 9.86
5/27/2022 10:00:00 AM 14.17 57.506 0.049 6.83 1.1 9.85
5/27/2022 10:15:00 AM 14.17 57.506 0.049 6.84 1.15 9.87
5/27/2022 10:30:00 AM 14.18 57.524 0.049 6.87 1.12 9.91
5/27/2022 10:45:00 AM 14.19 57.542 0.049 6.87 1.09 9.96
5/27/2022 11:00:00 AM 14.23 57.614 0.049 6.87 1.1 10.06
5/27/2022 11:15:00 AM 14.26 57.668 0.049 6.9 1.18 10.11
5/27/2022 11:30:00 AM 14.29 57.722 0.049 6.9 1.09 10.11
5/27/2022 11:45:00 AM 14.31 57.758 0.049 6.96 1.14 10.11
5/27/2022 12:00:00 PM 14.36 57.848 0.049 6.93 1.14 10.18
5/27/2022 12:15:00 PM 14.39 57.902 0.049 6.98 1.29 10.19
5/27/2022 12:30:00 PM 14.41 57.938 0.049 6.97 1.05 10.16
5/27/2022 12:45:00 PM 14.47 58.046 0.049 6.98 1.12 10.19
5/27/2022 1:00:00 PM 14.58 58.244 0.049 7.03 1.07 10.27
5/27/2022 1:15:00 PM 14.64 58.352 0.049 6.99 1.11 10.21
5/27/2022 1:30:00 PM 14.66 58.388 0.049 6.99 1.1 10.13
5/27/2022 1:45:00 PM 14.69 58.442 0.049 6.98 1.12 10.08
5/27/2022 2:00:00 PM 14.7 58.46 0.049 7 1.09 10.05
5/27/2022 2:15:00 PM 14.72 58.496 0.049 6.96 1.09 10.07
5/27/2022 2:30:00 PM 14.7 58.46 0.049 6.99 1.17 10
5/27/2022 2:45:00 PM 14.71 58.478 0.049 6.98 1.12 9.97
5/27/2022 3:00:00 PM 14.76 58.568 0.048 6.91 1.69 9.88
5/27/2022 3:15:00 PM 14.81 58.658 0.048 6.92 1.37 9.86
5/27/2022 3:30:00 PM 14.83 58.694 0.048 6.93 1.34 9.96
5/27/2022 3:45:00 PM 14.88 58.784 0.048 6.97 1.24 10.03
5/27/2022 4:00:00 PM 14.96 58.928 0.048 6.99 1.24 10.1
5/27/2022 4:15:00 PM 15.05 59.09 0.048 7.01 1.27 10.14
5/27/2022 4:30:00 PM 15.12 59.216 0.048 7.03 1.36 10.15
5/27/2022 4:45:00 PM 15.18 59.324 0.048 7.08 1.42 10.13
5/27/2022 5:00:00 PM 15.22 59.396 0.048 7.04 1.35 10.11
5/27/2022 5:15:00 PM 15.27 59.486 0.048 7.04 1.38 10.09
5/27/2022 5:30:00 PM 15.3 59.54 0.048 7.06 1.28 10.07
5/27/2022 5:45:00 PM 15.32 59.576 0.049 7.06 1.41 10.05
5/27/2022 6:00:00 PM 15.33 59.594 0.049 7.05 1.46 10.01
5/27/2022 6:15:00 PM 15.36 59.648 0.049 7.06 1.86 9.98
5/27/2022 6:30:00 PM 15.37 59.666 0.049 7.05 2.58 9.94
5/27/2022 6:45:00 PM 15.36 59.648 0.05 7 3.3 9.86
5/27/2022 7:00:00 PM 15.34 59.612 0.049 6.99 4.36 9.81
5/27/2022 7:15:00 PM 15.31 59.558 0.049 6.99 4.84 9.77
5/27/2022 7:30:00 PM 15.25 59.45 0.049 6.98 4.47 9.73
5/27/2022 7:45:00 PM 15.2 59.36 0.049 6.94 3.79 9.68
5/27/2022 8:00:00 PM 15.15 59.27 0.049 6.92 2.67 9.62
5/27/2022 8:15:00 PM 15.1 59.18 0.049 6.91 2.34 9.57
5/27/2022 8:30:00 PM 15.05 59.09 0.049 6.91 2.01 9.53
5/27/2022 8:45:00 PM 15 59 0.049 6.83 1.92 9.49
5/27/2022 9:00:00 PM 14.95 58.91 0.049 6.86 1.91 9.45
5/27/2022 9:15:00 PM 14.91 58.838 0.049 6.82 1.96 9.44
5/27/2022 9:30:00 PM 14.87 58.766 0.049 6.83 1.93 9.43
5/27/2022 9:45:00 PM 14.83 58.694 0.049 6.83 1.94 9.43
5/27/2022 10:00:00 PM 14.79 58.622 0.049 6.77 1.88 9.44
5/27/2022 10:15:00 PM 14.75 58.55 0.049 6.78 2.02 9.44
5/27/2022 10:30:00 PM 14.72 58.496 0.048 6.78 1.97 9.45
5/27/2022 10:45:00 PM 14.68 58.424 0.048 6.82 1.88 9.47
5/27/2022 11:00:00 PM 14.64 58.352 0.048 6.81 1.85 9.48
5/27/2022 11:15:00 PM 14.61 58.298 0.048 6.73 1.81 9.49
5/27/2022 11:30:00 PM 14.57 58.226 0.048 6.77 2.72 9.5
5/27/2022 11:45:00 PM 14.55 58.19 0.048 6.81 1.75 9.5
5/28/2022 12:00:00 AM 14.52 58.136 0.048 6.79 1.65 9.51
5/28/2022 12:15:00 AM 14.49 58.082 0.047 6.76 1.55 9.51
5/28/2022 12:30:00 AM 14.47 58.046 0.047 6.76 1.6 9.53
5/28/2022 12:45:00 AM 14.44 57.992 0.047 6.76 1.46 9.53
5/28/2022 1:00:00 AM 14.42 57.956 0.047 6.79 1.55 9.53
5/28/2022 1:15:00 AM 14.4 57.92 0.047 6.74 1.52 9.54
5/28/2022 1:30:00 AM 14.37 57.866 0.047 6.78 1.46 9.54
5/28/2022 1:45:00 AM 14.35 57.83 0.047 6.75 1.69 9.54
5/28/2022 2:00:00 AM 14.33 57.794 0.047 6.75 1.47 9.55
5/28/2022 2:15:00 AM 14.31 57.758 0.047 6.77 1.64 9.55
5/28/2022 2:30:00 AM 14.29 57.722 0.047 6.77 1.48 9.55
5/28/2022 2:45:00 AM 14.27 57.686 0.047 6.73 1.64 9.55
5/28/2022 3:00:00 AM 14.25 57.65 0.047 6.73 1.51 9.56
5/28/2022 3:15:00 AM 14.22 57.596 0.047 6.75 1.47 9.56
5/28/2022 3:30:00 AM 14.19 57.542 0.047 6.72 1.54 9.57
5/28/2022 3:45:00 AM 14.16 57.488 0.047 6.74 1.59 9.57
5/28/2022 4:00:00 AM 14.14 57.452 0.047 6.74 1.55 9.58
5/28/2022 4:15:00 AM 14.12 57.416 0.047 6.73 1.53 9.59
5/28/2022 4:30:00 AM 14.1 57.38 0.047 6.72 1.6 9.59
5/28/2022 4:45:00 AM 14.08 57.344 0.047 6.74 1.55 9.6
5/28/2022 5:00:00 AM 14.05 57.29 0.047 6.74 1.72 9.61
5/28/2022 5:15:00 AM 14.02 57.236 0.047 6.74 1.61 9.61
5/28/2022 5:30:00 AM 13.98 57.164 0.047 6.75 1.52 9.63
5/28/2022 5:45:00 AM 13.95 57.11 0.047 6.74 1.66 9.65
5/28/2022 6:00:00 AM 13.94 57.092 0.047 6.79 1.42 9.69
5/28/2022 6:15:00 AM 13.91 57.038 0.047 6.74 1.53 9.73
5/28/2022 6:30:00 AM 13.89 57.002 0.046 6.78 1.53 9.75
5/28/2022 6:45:00 AM 13.87 56.966 0.046 6.76 1.47 9.8
5/28/2022 7:00:00 AM 13.86 56.948 0.046 6.78 1.47 9.83
5/28/2022 7:15:00 AM 13.84 56.912 0.046 6.78 1.46 9.87
5/28/2022 7:30:00 AM 13.85 56.93 0.046 6.81 1.46 9.96
5/28/2022 7:45:00 AM 13.88 56.984 0.046 6.81 1.42 10.04
5/28/2022 8:00:00 AM 13.9 57.02 0.046 6.84 1.39 10.09
5/28/2022 8:15:00 AM 13.94 57.092 0.046 6.86 1.4 10.14
5/28/2022 8:30:00 AM 13.97 57.146 0.045 6.87 1.35 10.18
5/28/2022 8:45:00 AM 13.99 57.182 0.045 6.87 1.36 10.16
5/28/2022 9:00:00 AM 14.02 57.236 0.045 6.9 1.27 10.17
5/28/2022 9:15:00 AM 14.06 57.308 0.045 6.9 1.35 10.21
5/28/2022 9:30:00 AM 14.1 57.38 0.045 6.95 1.36 10.22
5/28/2022 9:45:00 AM 14.16 57.488 0.045 6.93 1.28 10.24
5/28/2022 10:00:00 AM 14.22 57.596 0.045 6.96 1.33 10.24
5/28/2022 10:15:00 AM 14.27 57.686 0.045 6.97 1.4 10.24
5/28/2022 10:30:00 AM 14.35 57.83 0.045 7.01 1.37 10.27
5/28/2022 10:45:00 AM 14.53 58.154 0.045 7.03 1.32 10.31
5/28/2022 11:00:00 AM 14.59 58.262 0.045 7.06 1.3 10.28
5/28/2022 11:15:00 AM 14.82 58.676 0.045 7.04 1.22 10.28
5/28/2022 11:30:00 AM 14.98 58.964 0.045 7.04 1.32 10.27
5/28/2022 11:45:00 AM 15.16 59.288 0.044 7.04 1.24 10.25
5/28/2022 12:00:00 PM 15.21 59.378 0.044 7.04 1.21 10.19
5/28/2022 12:15:00 PM 15.41 59.738 0.044 7.04 1.25 10.15
5/28/2022 12:30:00 PM 15.36 59.648 0.044 6.99 1.22 9.99
5/28/2022 12:45:00 PM 15.29 59.522 0.044 7 1.24 9.96
5/28/2022 1:00:00 PM 15.47 59.846 0.044 7.02 1.26 10.06
5/28/2022 1:15:00 PM 15.42 59.756 0.044 7 1.39 10.02
5/28/2022 1:30:00 PM 15.46 59.828 0.044 7.02 1.26 10.07
5/28/2022 1:45:00 PM 15.51 59.918 0.044 7.04 1.24 10.08
5/28/2022 2:00:00 PM 15.66 60.188 0.044 7.03 1.22 10.1
5/28/2022 2:15:00 PM 15.74 60.332 0.044 7.07 1.27 10.08
5/28/2022 2:30:00 PM 15.84 60.512 0.044 7.05 1.26 10.07
5/28/2022 2:45:00 PM 15.88 60.584 0.044 7.06 1.24 10.02
5/28/2022 3:00:00 PM 15.94 60.692 0.044 7.04 1.29 10
5/28/2022 3:15:00 PM 15.92 60.656 0.044 7.06 1.17 9.98
5/28/2022 3:30:00 PM 16.03 60.854 0.045 7.06 1.23 9.96
5/28/2022 3:45:00 PM 16.02 60.836 0.045 7.05 1.32 9.91
5/28/2022 4:00:00 PM 16.01 60.818 0.046 7.04 1.38 9.85
5/28/2022 4:15:00 PM 16.16 61.088 0.046 7.07 1.48 9.87
5/28/2022 4:30:00 PM 16.07 60.926 0.047 7.01 1.53 9.75
5/28/2022 4:45:00 PM 16.16 61.088 0.047 7.06 1.46 9.81
5/28/2022 5:00:00 PM 16.25 61.25 0.047 7.03 1.47 9.77
5/28/2022 5:15:00 PM 16.2 61.16 0.048 7.02 1.38 9.73
5/28/2022 5:30:00 PM 16.25 61.25 0.048 7.03 1.46 9.7
5/28/2022 5:45:00 PM 16.3 61.34 0.048 7.01 1.39 9.68
5/28/2022 6:00:00 PM 16.31 61.358 0.049 7.02 1.74 9.64
5/28/2022 6:15:00 PM 16.25 61.25 0.049 7.05 1.56 9.61
5/28/2022 6:30:00 PM 16.21 61.178 0.049 7 1.66 9.59
5/28/2022 6:45:00 PM 16.16 61.088 0.049 6.97 1.55 9.52
5/28/2022 7:00:00 PM 16.15 61.07 0.049 6.97 1.59 9.48
5/28/2022 7:15:00 PM 16.13 61.034 0.049 6.93 1.52 9.44
5/28/2022 7:30:00 PM 16.08 60.944 0.049 6.93 1.63 9.4
5/28/2022 7:45:00 PM 16.03 60.854 0.049 6.91 1.5 9.38
5/28/2022 8:00:00 PM 15.99 60.782 0.048 6.91 1.44 9.36
5/28/2022 8:15:00 PM 15.93 60.674 0.048 6.92 1.5 9.34
5/28/2022 8:30:00 PM 15.86 60.548 0.048 6.84 1.52 9.33
5/28/2022 8:45:00 PM 15.77 60.386 0.048 6.9 1.47 9.32
5/28/2022 9:00:00 PM 15.68 60.224 0.048 6.81 1.5 9.32
5/28/2022 9:15:00 PM 15.58 60.044 0.048 6.83 1.46 9.33
5/28/2022 9:30:00 PM 15.48 59.864 0.048 6.83 1.5 9.33
5/28/2022 9:45:00 PM 15.39 59.702 0.048 6.84 1.48 9.35
5/28/2022 10:00:00 PM 15.29 59.522 0.048 6.82 1.51 9.38
5/28/2022 10:15:00 PM 15.19 59.342 0.048 6.82 1.47 9.4
5/28/2022 10:30:00 PM 15.1 59.18 0.048 6.83 1.44 9.42
5/28/2022 10:45:00 PM 15.01 59.018 0.048 6.84 1.38 9.44
5/28/2022 11:00:00 PM 14.92 58.856 0.048 6.84 1.46 9.46
5/28/2022 11:15:00 PM 14.84 58.712 0.048 6.83 1.44 9.47
5/28/2022 11:30:00 PM 14.75 58.55 0.048 6.77 1.43 9.49
5/28/2022 11:45:00 PM 14.68 58.424 0.048 6.84 1.36 9.51
5/29/2022 12:00:00 AM 14.6 58.28 0.048 6.78 1.48 9.54
5/29/2022 12:15:00 AM 14.52 58.136 0.048 6.84 1.35 9.55
5/29/2022 12:30:00 AM 14.45 58.01 0.047 6.75 1.42 9.57
5/29/2022 12:45:00 AM 14.37 57.866 0.047 6.79 1.42 9.58
5/29/2022 1:00:00 AM 14.3 57.74 0.047 6.8 1.42 9.6
5/29/2022 1:15:00 AM 14.24 57.632 0.047 6.77 1.4 9.61
5/29/2022 1:30:00 AM 14.17 57.506 0.047 6.81 1.33 9.62
5/29/2022 1:45:00 AM 14.1 57.38 0.047 6.77 1.4 9.64
5/29/2022 2:00:00 AM 14.04 57.272 0.047 6.76 1.33 9.66
5/29/2022 2:15:00 AM 13.97 57.146 0.047 6.78 1.52 9.68
5/29/2022 2:30:00 AM 13.91 57.038 0.047 6.82 1.46 9.7
5/29/2022 2:45:00 AM 13.84 56.912 0.047 6.74 1.41 9.71
5/29/2022 3:00:00 AM 13.78 56.804 0.047 6.77 1.41 9.73
5/29/2022 3:15:00 AM 13.72 56.696 0.047 6.82 1.45 9.74
5/29/2022 3:30:00 AM 13.66 56.588 0.047 6.76 1.38 9.75
5/29/2022 3:45:00 AM 13.6 56.48 0.047 6.77 1.35 9.77
5/29/2022 4:00:00 AM 13.53 56.354 0.047 6.77 1.48 9.78
5/29/2022 4:15:00 AM 13.45 56.21 0.047 6.77 1.42 9.8
5/29/2022 4:30:00 AM 13.4 56.12 0.047 6.76 1.4 9.82
5/29/2022 4:45:00 AM 13.34 56.012 0.047 6.77 1.39 9.84
5/29/2022 5:00:00 AM 13.3 55.94 0.047 6.8 1.42 9.85
5/29/2022 5:15:00 AM 13.25 55.85 0.047 6.79 1.49 9.86
5/29/2022 5:30:00 AM 13.19 55.742 0.047 6.75 1.34 9.88
5/29/2022 5:45:00 AM 13.14 55.652 0.047 6.75 1.35 9.91
5/29/2022 6:00:00 AM 13.09 55.562 0.047 6.76 1.43 9.94
5/29/2022 6:15:00 AM 13.03 55.454 0.046 6.78 1.3 9.98
5/29/2022 6:30:00 AM 12.97 55.346 0.046 6.77 1.29 10.03
5/29/2022 6:45:00 AM 12.93 55.274 0.046 6.78 1.34 10.09
5/29/2022 7:00:00 AM 12.9 55.22 0.046 6.83 1.31 10.17
5/29/2022 7:15:00 AM 12.89 55.202 0.046 6.83 1.3 10.25
5/29/2022 7:30:00 AM 12.88 55.184 0.046 6.84 1.34 10.3
5/29/2022 7:45:00 AM 12.87 55.166 0.046 6.87 1.33 10.33
5/29/2022 8:00:00 AM 12.88 55.184 0.046 6.84 1.29 10.36
5/29/2022 8:15:00 AM 12.94 55.292 0.046 6.87 1.31 10.4
5/29/2022 8:30:00 AM 13.01 55.418 0.046 6.88 1.24 10.43
5/29/2022 8:45:00 AM 13.08 55.544 0.046 6.9 1.29 10.45
5/29/2022 9:00:00 AM 13.17 55.706 0.046 6.89 1.25 10.46
5/29/2022 9:15:00 AM 13.27 55.886 0.046 6.95 1.28 10.47
5/29/2022 9:30:00 AM 13.38 56.084 0.046 6.94 1.23 10.48
5/29/2022 9:45:00 AM 13.5 56.3 0.046 6.92 1.27 10.48
5/29/2022 10:00:00 AM 13.65 56.57 0.046 6.93 1.2 10.48
5/29/2022 10:15:00 AM 13.84 56.912 0.046 6.96 1.29 10.49
5/29/2022 10:30:00 AM 13.96 57.128 0.046 6.96 1.92 10.46
5/29/2022 10:45:00 AM 14.23 57.614 0.046 6.98 1.29 10.47
5/29/2022 11:00:00 AM 14.26 57.668 0.046 6.98 1.28 10.38
5/29/2022 11:15:00 AM 14.39 57.902 0.046 7.02 1.2 10.37
5/29/2022 11:30:00 AM 14.44 57.992 0.046 6.99 1.21 10.32
5/29/2022 11:45:00 AM 14.6 58.28 0.046 6.99 1.26 10.33
5/29/2022 12:00:00 PM 14.98 58.964 0.045 7 1.15 10.33
5/29/2022 12:15:00 PM 15.32 59.576 0.045 7.03 1.24 10.31
5/29/2022 12:30:00 PM 15.64 60.152 0.045 7.06 1.13 10.27
5/29/2022 12:45:00 PM 15.86 60.548 0.045 7.07 1.15 10.21
5/29/2022 1:00:00 PM 16.16 61.088 0.045 7.01 1.17 10.15
5/29/2022 1:15:00 PM 16.35 61.43 0.045 7.07 1.18 10.12
5/29/2022 1:30:00 PM 16.73 62.114 0.045 7.07 1.19 10.08
5/29/2022 1:45:00 PM 16.97 62.546 0.045 7.04 1.42 10.02
5/29/2022 2:00:00 PM 17.18 62.924 0.045 7.08 1.09 9.95
5/29/2022 2:15:00 PM 17.42 63.356 0.045 7.07 1.09 9.88
5/29/2022 2:30:00 PM 17.43 63.374 0.045 7.08 1.06 9.78
5/29/2022 2:45:00 PM 17.67 63.806 0.045 7.03 1.12 9.77
5/29/2022 3:00:00 PM 17.75 63.95 0.045 7.05 1.05 9.72
5/29/2022 3:15:00 PM 17.93 64.274 0.045 7.02 1.05 9.66
5/29/2022 3:30:00 PM 18.2 64.76 0.045 7.05 1 9.63
5/29/2022 3:45:00 PM 18.29 64.922 0.045 7.03 1.11 9.57
5/29/2022 4:00:00 PM 18.32 64.976 0.046 7.06 1.08 9.53
5/29/2022 4:15:00 PM 18.3 64.94 0.046 7 1.11 9.5
5/29/2022 4:30:00 PM 18.24 64.832 0.046 7.02 1.16 9.45
5/29/2022 4:45:00 PM 18.16 64.688 0.046 6.99 1.1 9.42
5/29/2022 5:00:00 PM 18.08 64.544 0.046 6.99 1.08 9.38
5/29/2022 5:15:00 PM 17.99 64.382 0.046 6.97 1.05 9.34
5/29/2022 5:30:00 PM 17.89 64.202 0.046 6.92 1.06 9.32
5/29/2022 5:45:00 PM 17.8 64.04 0.046 6.93 1.06 9.32
5/29/2022 6:00:00 PM 17.68 63.824 0.046 6.93 1.04 9.3
5/29/2022 6:15:00 PM 17.55 63.59 0.046 6.92 1.11 9.28
5/29/2022 6:30:00 PM 17.42 63.356 0.046 6.91 1.1 9.27
5/29/2022 6:45:00 PM 17.31 63.158 0.046 6.9 1.15 9.27
5/29/2022 7:00:00 PM 17.22 62.996 0.046 6.86 1.11 9.27
5/29/2022 7:15:00 PM 17.15 62.87 0.046 6.87 1.22 9.25
5/29/2022 7:30:00 PM 17.07 62.726 0.046 6.9 1.12 9.21
5/29/2022 7:45:00 PM 16.99 62.582 0.046 6.84 1.08 9.2
5/29/2022 8:00:00 PM 16.93 62.474 0.046 6.85 1.17 9.18
5/29/2022 8:15:00 PM 16.86 62.348 0.047 6.82 1.16 9.15
5/29/2022 8:30:00 PM 16.8 62.24 0.047 6.85 1.16 9.12
5/29/2022 8:45:00 PM 16.74 62.132 0.047 6.79 1.21 9.11
5/29/2022 9:00:00 PM 16.66 61.988 0.047 6.8 1.18 9.1
5/29/2022 9:15:00 PM 16.58 61.844 0.047 6.83 1.11 9.1
5/29/2022 9:30:00 PM 16.48 61.664 0.048 6.76 1.24 9.12
5/29/2022 9:45:00 PM 16.38 61.484 0.048 6.79 1.12 9.14
5/29/2022 10:00:00 PM 16.27 61.286 0.048 6.78 1.2 9.15
5/29/2022 10:15:00 PM 16.16 61.088 0.048 6.82 1.14 9.17
5/29/2022 10:30:00 PM 16.05 60.89 0.049 6.8 1.25 9.19
5/29/2022 10:45:00 PM 15.95 60.71 0.049 6.81 1.18 9.22
5/29/2022 11:00:00 PM 15.84 60.512 0.049 6.82 1.19 9.25
5/29/2022 11:15:00 PM 15.74 60.332 0.049 6.82 1.2 9.27
5/29/2022 11:30:00 PM 15.64 60.152 0.049 6.76 1.19 9.29
5/29/2022 11:45:00 PM 15.55 59.99 0.049 6.82 1.37 9.3
5/30/2022 12:00:00 AM 15.46 59.828 0.049 6.82 1.19 9.32
5/30/2022 12:15:00 AM 15.37 59.666 0.049 6.74 1.58 9.34
5/30/2022 12:30:00 AM 15.27 59.486 0.049 6.8 1.27 9.37
5/30/2022 12:45:00 AM 15.19 59.342 0.049 6.78 1.27 9.39
5/30/2022 1:00:00 AM 15.1 59.18 0.049 6.82 1.19 9.41
5/30/2022 1:15:00 AM 15.02 59.036 0.049 6.75 1.29 9.42
5/30/2022 1:30:00 AM 14.95 58.91 0.049 6.8 1.27 9.44
5/30/2022 1:45:00 AM 14.87 58.766 0.049 6.81 1.22 9.45
5/30/2022 2:00:00 AM 14.79 58.622 0.049 6.77 1.13 9.47
5/30/2022 2:15:00 AM 14.72 58.496 0.049 6.78 1.18 9.48
5/30/2022 2:30:00 AM 14.65 58.37 0.049 6.79 1.27 9.5
5/30/2022 2:45:00 AM 14.58 58.244 0.049 6.75 1.29 9.53
5/30/2022 3:00:00 AM 14.52 58.136 0.049 6.78 1.19 9.54
5/30/2022 3:15:00 AM 14.45 58.01 0.049 6.8 1.31 9.55
5/30/2022 3:30:00 AM 14.39 57.902 0.049 6.76 1.26 9.57
5/30/2022 3:45:00 AM 14.32 57.776 0.049 6.8 1.22 9.58
5/30/2022 4:00:00 AM 14.25 57.65 0.049 6.75 1.31 9.6
5/30/2022 4:15:00 AM 14.19 57.542 0.049 6.75 1.32 9.61
5/30/2022 4:30:00 AM 14.12 57.416 0.049 6.8 1.24 9.62
5/30/2022 4:45:00 AM 14.07 57.326 0.049 6.73 1.24 9.63
5/30/2022 5:00:00 AM 14 57.2 0.049 6.76 1.29 9.66
5/30/2022 5:15:00 AM 13.94 57.092 0.049 6.75 1.27 9.68
5/30/2022 5:30:00 AM 13.88 56.984 0.049 6.78 1.26 9.69
5/30/2022 5:45:00 AM 13.82 56.876 0.049 6.79 1.26 9.71
5/30/2022 6:00:00 AM 13.77 56.786 0.049 6.75 1.26 9.75
5/30/2022 6:15:00 AM 13.71 56.678 0.049 6.77 1.28 9.79
5/30/2022 6:30:00 AM 13.68 56.624 0.049 6.81 1.21 9.85
5/30/2022 6:45:00 AM 13.64 56.552 0.049 6.82 1.23 9.91
5/30/2022 7:00:00 AM 13.62 56.516 0.049 6.77 1.21 9.96
5/30/2022 7:15:00 AM 13.6 56.48 0.049 6.82 1.23 10
5/30/2022 7:30:00 AM 13.58 56.444 0.049 6.84 1.18 10.05
5/30/2022 7:45:00 AM 13.59 56.462 0.049 6.82 1.27 10.09
5/30/2022 8:00:00 AM 13.61 56.498 0.049 6.83 1.18 10.14
5/30/2022 8:15:00 AM 13.66 56.588 0.049 6.85 1.19 10.18
5/30/2022 8:30:00 AM 13.73 56.714 0.049 6.89 1.16 10.21
5/30/2022 8:45:00 AM 13.82 56.876 0.049 6.91 1.21 10.24
5/30/2022 9:00:00 AM 13.92 57.056 0.048 6.87 1.22 10.27
5/30/2022 9:15:00 AM 14.04 57.272 0.048 6.89 1.18 10.28
5/30/2022 9:30:00 AM 14.17 57.506 0.048 6.9 1.1 10.28
5/30/2022 9:45:00 AM 14.3 57.74 0.048 6.92 1.06 10.29
5/30/2022 10:00:00 AM 14.36 57.848 0.048 6.92 1.19 10.3
5/30/2022 10:15:00 AM 14.55 58.19 0.048 6.96 1.16 10.33
5/30/2022 10:30:00 AM 14.67 58.406 0.048 6.97 1.19 10.32
5/30/2022 10:45:00 AM 14.93 58.874 0.048 7 1.09 10.35
5/30/2022 11:00:00 AM 15.24 59.432 0.048 7 1.11 10.33
5/30/2022 11:15:00 AM 15.36 59.648 0.048 7.03 1.21 10.29
5/30/2022 11:30:00 AM 15.62 60.116 0.048 7.04 1.23 10.26
5/30/2022 11:45:00 AM 15.97 60.746 0.048 7.04 1.12 10.2
5/30/2022 12:00:00 PM 16.17 61.106 0.048 7.05 1.09 10.16
5/30/2022 12:15:00 PM 16.57 61.826 0.048 7.06 1.25 10.12
5/30/2022 12:30:00 PM 16.99 62.582 0.048 7.06 1.51 10.05
5/30/2022 12:45:00 PM 17.31 63.158 0.048 7.06 1.13 9.98
5/30/2022 1:00:00 PM 17.67 63.806 0.048 7.06 1.16 9.92
5/30/2022 1:15:00 PM 17.97 64.346 0.048 7.06 1.03 9.85
5/30/2022 1:30:00 PM 18.29 64.922 0.048 7.07 1.07 9.78
5/30/2022 1:45:00 PM 18.56 65.408 0.048 7.07 1.02 9.72
5/30/2022 2:00:00 PM 18.78 65.804 0.048 7.06 1.06 9.65
5/30/2022 2:15:00 PM 18.98 66.164 0.048 7.06 1.07 9.6
5/30/2022 2:30:00 PM 19.18 66.524 0.048 7.06 0.98 9.54
5/30/2022 2:45:00 PM 19.36 66.848 0.048 7.06 1.02 9.46
5/30/2022 3:00:00 PM 19.51 67.118 0.048 7.04 1.05 9.41
5/30/2022 3:15:00 PM 19.64 67.352 0.048 7.04 1.46 9.35
5/30/2022 3:30:00 PM 19.74 67.532 0.048 7.04 1.02 9.29
5/30/2022 3:45:00 PM 19.8 67.64 0.048 7.02 1.06 9.25
5/30/2022 4:00:00 PM 19.82 67.676 0.048 7.02 1.09 9.2
5/30/2022 4:15:00 PM 19.81 67.658 0.048 7.01 1 9.15
5/30/2022 4:30:00 PM 19.77 67.586 0.048 7.02 1.1 9.11
5/30/2022 4:45:00 PM 19.71 67.478 0.048 6.99 1.01 9.07
5/30/2022 5:00:00 PM 19.62 67.316 0.048 6.95 1 9.04
5/30/2022 5:15:00 PM 19.53 67.154 0.048 6.97 1 9.01
5/30/2022 5:30:00 PM 19.43 66.974 0.048 6.93 1.02 8.98
5/30/2022 5:45:00 PM 19.31 66.758 0.048 6.93 1.03 8.96
5/30/2022 6:00:00 PM 19.21 66.578 0.048 6.92 1.08 8.95
5/30/2022 6:15:00 PM 19.09 66.362 0.048 6.9 1.17 8.95
5/30/2022 6:30:00 PM 18.97 66.146 0.048 6.91 1.09 8.95
5/30/2022 6:45:00 PM 18.86 65.948 0.048 6.88 1.13 8.92
5/30/2022 7:00:00 PM 18.75 65.75 0.048 6.93 1.05 8.91
5/30/2022 7:15:00 PM 18.66 65.588 0.048 6.81 0.99 8.9
5/30/2022 7:30:00 PM 18.57 65.426 0.048 6.85 1.08 8.88
5/30/2022 7:45:00 PM 18.5 65.3 0.048 6.83 1.08 8.86
5/30/2022 8:00:00 PM 18.44 65.192 0.048 6.83 1.15 8.84
5/30/2022 8:15:00 PM 18.38 65.084 0.048 6.81 1.13 8.82
5/30/2022 8:30:00 PM 18.32 64.976 0.048 6.8 1.07 8.79
5/30/2022 8:45:00 PM 18.26 64.868 0.048 6.79 1.06 8.77
5/30/2022 9:00:00 PM 18.21 64.778 0.048 6.77 1.15 8.75
5/30/2022 9:15:00 PM 18.15 64.67 0.048 6.76 1.12 8.74
5/30/2022 9:30:00 PM 18.08 64.544 0.049 6.8 1.12 8.74
5/30/2022 9:45:00 PM 18.02 64.436 0.049 6.8 1.13 8.75
5/30/2022 10:00:00 PM 17.95 64.31 0.049 6.75 1.13 8.76
5/30/2022 10:15:00 PM 17.87 64.166 0.049 6.76 1.16 8.78
5/30/2022 10:30:00 PM 17.79 64.022 0.049 6.76 1.09 8.79
5/30/2022 10:45:00 PM 17.71 63.878 0.049 6.75 1.09 8.81
5/30/2022 11:00:00 PM 17.63 63.734 0.049 6.76 1.23 8.83
5/30/2022 11:15:00 PM 17.54 63.572 0.049 6.75 1.18 8.83
5/30/2022 11:30:00 PM 17.46 63.428 0.049 6.78 1.12 8.85
5/30/2022 11:45:00 PM 17.37 63.266 0.049 6.79 1.16 8.87
5/31/2022 12:00:00 AM 17.28 63.104 0.049 6.79 1.2 8.88
5/31/2022 12:15:00 AM 17.2 62.96 0.049 6.76 1.25 8.91
5/31/2022 12:30:00 AM 17.12 62.816 0.05 6.78 1.14 8.93
5/31/2022 12:45:00 AM 17.04 62.672 0.05 6.71 1.26 8.94
5/31/2022 1:00:00 AM 16.96 62.528 0.05 6.74 1.17 8.96
5/31/2022 1:15:00 AM 16.88 62.384 0.05 6.73 1.19 8.98
5/31/2022 1:30:00 AM 16.8 62.24 0.05 6.74 1.18 8.99
5/31/2022 1:45:00 AM 16.73 62.114 0.05 6.72 1.16 9
5/31/2022 2:00:00 AM 16.65 61.97 0.05 6.77 1.09 9.02
5/31/2022 2:15:00 AM 16.58 61.844 0.05 6.73 1.14 9.04
5/31/2022 2:30:00 AM 16.5 61.7 0.05 6.76 1.22 9.06
5/31/2022 2:45:00 AM 16.44 61.592 0.05 6.74 1.28 9.08
5/31/2022 3:00:00 AM 16.36 61.448 0.05 6.75 1.18 9.1
5/31/2022 3:15:00 AM 16.29 61.322 0.05 6.73 1.24 9.1
5/31/2022 3:30:00 AM 16.23 61.214 0.05 6.72 1.16 9.12
5/31/2022 3:45:00 AM 16.16 61.088 0.05 6.72 1.22 9.13
5/31/2022 4:00:00 AM 16.09 60.962 0.05 6.75 1.19 9.15
5/31/2022 4:15:00 AM 16.03 60.854 0.05 6.75 1.23 9.16
5/31/2022 4:30:00 AM 15.97 60.746 0.05 6.72 1.19 9.17
5/31/2022 4:45:00 AM 15.9 60.62 0.05 6.74 1.15 9.19
5/31/2022 5:00:00 AM 15.84 60.512 0.05 6.73 1.27 9.21
5/31/2022 5:15:00 AM 15.77 60.386 0.05 6.72 1.17 9.22
5/31/2022 5:30:00 AM 15.71 60.278 0.05 6.75 1.19 9.24
5/31/2022 5:45:00 AM 15.64 60.152 0.05 6.72 1.23 9.26
5/31/2022 6:00:00 AM 15.59 60.062 0.05 6.72 1.23 9.3
5/31/2022 6:15:00 AM 15.54 59.972 0.05 6.74 1.19 9.34
5/31/2022 6:30:00 AM 15.5 59.9 0.05 6.75 1.18 9.4
5/31/2022 6:45:00 AM 15.46 59.828 0.05 6.76 1.17 9.45
5/31/2022 7:00:00 AM 15.43 59.774 0.05 6.8 1.15 9.51
5/31/2022 7:15:00 AM 15.4 59.72 0.05 6.77 1.22 9.55
5/31/2022 7:30:00 AM 15.38 59.684 0.05 6.8 1.16 9.59
5/31/2022 7:45:00 AM 15.37 59.666 0.05 6.82 1.18 9.64
5/31/2022 8:00:00 AM 15.38 59.684 0.05 6.83 1.14 9.68
5/31/2022 8:15:00 AM 15.41 59.738 0.05 6.82 1.12 9.72
5/31/2022 8:30:00 AM 15.48 59.864 0.05 6.84 1.17 9.76
5/31/2022 8:45:00 AM 15.56 60.008 0.05 6.85 1.09 9.79
5/31/2022 9:00:00 AM 15.67 60.206 0.05 6.87 1.19 9.82
5/31/2022 9:15:00 AM 15.81 60.458 0.05 6.91 1.12 9.83
5/31/2022 9:30:00 AM 15.96 60.728 0.05 6.91 1.15 9.85
5/31/2022 9:45:00 AM 16.12 61.016 0.05 6.92 1.16 9.86
5/31/2022 10:00:00 AM 16.29 61.322 0.05 6.95 1.05 9.86
5/31/2022 10:15:00 AM 16.49 61.682 0.05 6.99 1.13 9.86
5/31/2022 10:30:00 AM 16.71 62.078 0.05 6.96 1.1 9.83
5/31/2022 10:45:00 AM 16.92 62.456 0.05 6.98 1.11 9.83
5/31/2022 11:00:00 AM 17.19 62.942 0.049 7.02 1.1 9.81
5/31/2022 11:15:00 AM 17.47 63.446 0.049 7.01 1.03 9.78
5/31/2022 11:30:00 AM 17.78 64.004 0.049 7.01 1.13 9.75
5/31/2022 11:45:00 AM 18.08 64.544 0.049 7.03 1.11 9.7
5/31/2022 12:00:00 PM 18.18 64.724 0.049 7.01 1.13 9.63
5/31/2022 12:15:00 PM 18.42 65.156 0.049 7.02 1.09 9.58
5/31/2022 12:30:00 PM 18.76 65.768 0.049 7.07 1.15 9.57
5/31/2022 12:45:00 PM 19.02 66.236 0.049 7.03 1.1 9.52
5/31/2022 1:00:00 PM 19.38 66.884 0.049 7.04 1.02 9.47
5/31/2022 1:15:00 PM 19.7 67.46 0.049 7.04 1.12 9.43
5/31/2022 1:30:00 PM 20.02 68.036 0.049 7.05 1.26 9.36
5/31/2022 1:45:00 PM 20.23 68.414 0.049 7.05 1.09 9.31
5/31/2022 2:00:00 PM 20.34 68.612 0.049 7.06 1.05 9.24
5/31/2022 2:15:00 PM 20.63 69.134 0.049 7.05 0.98 9.21
5/31/2022 2:30:00 PM 20.79 69.422 0.049 7.04 0.96 9.15
5/31/2022 2:45:00 PM 20.83 69.494 0.049 7.04 0.96 9.11
5/31/2022 3:00:00 PM 20.89 69.602 0.049 7.04 1.13 9.08
5/31/2022 3:15:00 PM 20.9 69.62 0.049 7.03 1.01 9.05
5/31/2022 3:30:00 PM 20.96 69.728 0.049 7.02 1.01 9
5/31/2022 3:45:00 PM 20.98 69.764 0.049 7.01 1.18 8.97
5/31/2022 4:00:00 PM 20.95 69.71 0.049 7.03 0.97 8.92
5/31/2022 4:15:00 PM 20.93 69.674 0.049 6.99 0.98 8.91
5/31/2022 4:30:00 PM 20.88 69.584 0.049 6.98 1.03 8.89
5/31/2022 4:45:00 PM 20.85 69.53 0.049 6.99 1.06 8.85
5/31/2022 5:00:00 PM 20.78 69.404 0.049 7.01 1 8.83
5/31/2022 5:15:00 PM 20.62 69.116 0.049 6.94 1.08 8.78
5/31/2022 5:30:00 PM 20.47 68.846 0.049 6.95 1.08 8.73
5/31/2022 5:45:00 PM 20.38 68.684 0.049 6.92 1.06 8.72
5/31/2022 6:00:00 PM 20.3 68.54 0.049 6.95 0.98 8.7
5/31/2022 6:15:00 PM 20.2 68.36 0.049 6.92 1.09 8.7
5/31/2022 6:30:00 PM 20.11 68.198 0.049 6.87 1.13 8.72
5/31/2022 6:45:00 PM 19.98 67.964 0.049 6.91 1.1 8.72
5/31/2022 7:00:00 PM 19.81 67.658 0.05 6.88 1.36 8.73
5/31/2022 7:15:00 PM 19.68 67.424 0.05 6.88 0.99 8.71
5/31/2022 7:30:00 PM 19.57 67.226 0.05 6.85 1.07 8.7
5/31/2022 7:45:00 PM 19.44 66.992 0.05 6.83 1.09 8.68
5/31/2022 8:00:00 PM 19.4 66.92 0.048 6.87 1.43 8.67
5/31/2022 8:15:00 PM 19.43 66.974 0.046 6.82 1.43 8.64
5/31/2022 8:30:00 PM 19.44 66.992 0.043 6.78 1.48 8.62
5/31/2022 8:45:00 PM 19.42 66.956 0.041 6.73 1.52 8.6
5/31/2022 9:00:00 PM 19.39 66.902 0.041 6.74 1.5 8.59
5/31/2022 9:15:00 PM 19.37 66.866 0.04 6.69 1.47 8.57
5/31/2022 9:30:00 PM 19.33 66.794 0.04 6.72 1.44 8.58
5/31/2022 9:45:00 PM 19.26 66.668 0.04 6.71 1.47 8.58
5/31/2022 10:00:00 PM 19.18 66.524 0.04 6.69 1.4 8.6
5/31/2022 10:15:00 PM 19.09 66.362 0.04 6.69 1.44 8.62
5/31/2022 10:30:00 PM 18.99 66.182 0.04 6.69 1.45 8.64
5/31/2022 10:45:00 PM 18.89 66.002 0.04 6.72 1.4 8.66
5/31/2022 11:00:00 PM 18.78 65.804 0.04 6.67 1.32 8.66
5/31/2022 11:15:00 PM 18.69 65.642 0.04 6.69 1.3 8.68
5/31/2022 11:30:00 PM 18.59 65.462 0.04 6.65 1.36 8.7
5/31/2022 11:45:00 PM 18.49 65.282 0.04 6.65 1.32 8.73
6/1/2022 12:00:00 AM 18.4 65.12 0.04 6.69 1.44 8.74
6/1/2022 12:15:00 AM 18.32 64.976 0.041 6.65 1.32 8.76
6/1/2022 12:30:00 AM 18.23 64.814 0.041 6.67 1.46 8.78
6/1/2022 12:45:00 AM 18.14 64.652 0.041 6.7 1.39 8.79
6/1/2022 1:00:00 AM 18.05 64.49 0.041 6.67 1.38 8.81
6/1/2022 1:15:00 AM 17.96 64.328 0.041 6.7 1.39 8.81
6/1/2022 1:30:00 AM 17.86 64.148 0.041 6.65 1.4 8.84
6/1/2022 1:45:00 AM 17.77 63.986 0.041 6.65 1.35 8.86
6/1/2022 2:00:00 AM 17.67 63.806 0.042 6.67 2 8.87
6/1/2022 2:15:00 AM 17.59 63.662 0.042 6.66 1.25 8.89
6/1/2022 2:30:00 AM 17.51 63.518 0.042 6.67 1.4 8.89
6/1/2022 2:45:00 AM 17.42 63.356 0.042 6.65 1.33 8.92
6/1/2022 3:00:00 AM 17.34 63.212 0.042 6.65 1.32 8.93
6/1/2022 3:15:00 AM 17.26 63.068 0.042 6.67 1.4 8.94
6/1/2022 3:30:00 AM 17.18 62.924 0.042 6.67 1.37 8.96
6/1/2022 3:45:00 AM 17.1 62.78 0.042 6.66 1.37 8.98
6/1/2022 4:00:00 AM 17.03 62.654 0.043 6.66 1.34 8.99
6/1/2022 4:15:00 AM 16.96 62.528 0.043 6.64 1.36 9
6/1/2022 4:30:00 AM 16.88 62.384 0.043 6.66 1.42 9.01
6/1/2022 4:45:00 AM 16.82 62.276 0.043 6.65 1.42 9.02
6/1/2022 5:00:00 AM 16.75 62.15 0.043 6.66 1.42 9.03
6/1/2022 5:15:00 AM 16.69 62.042 0.043 6.7 1.69 9.03
6/1/2022 5:30:00 AM 16.62 61.916 0.043 6.67 1.42 9.05
6/1/2022 5:45:00 AM 16.57 61.826 0.043 6.66 1.33 9.06
6/1/2022 6:00:00 AM 16.51 61.718 0.044 6.68 1.42 9.1
6/1/2022 6:15:00 AM 16.46 61.628 0.044 6.67 1.33 9.14
6/1/2022 6:30:00 AM 16.44 61.592 0.044 6.69 1.38 9.17
6/1/2022 6:45:00 AM 16.41 61.538 0.044 6.75 1.26 9.21
6/1/2022 7:00:00 AM 16.37 61.466 0.044 6.71 1.27 9.27
6/1/2022 7:15:00 AM 16.34 61.412 0.044 6.72 1.29 9.31
6/1/2022 7:30:00 AM 16.36 61.448 0.044 6.74 1.2 9.39
6/1/2022 7:45:00 AM 16.35 61.43 0.044 6.75 1.23 9.43
6/1/2022 8:00:00 AM 16.4 61.52 0.044 6.79 2.16 9.51
6/1/2022 8:15:00 AM 16.42 61.556 0.045 6.8 1.22 9.51
6/1/2022 8:30:00 AM 16.51 61.718 0.045 6.8 1.28 9.58
6/1/2022 8:45:00 AM 16.53 61.754 0.045 6.84 1.2 9.57
6/1/2022 9:00:00 AM 16.56 61.808 0.045 6.83 1.19 9.6
6/1/2022 9:15:00 AM 16.64 61.952 0.045 6.88 1.17 9.61
6/1/2022 9:30:00 AM 16.71 62.078 0.045 6.86 1.41 9.6
6/1/2022 9:45:00 AM 16.86 62.348 0.045 6.87 1.14 9.65
6/1/2022 10:00:00 AM 17.03 62.654 0.045 6.9 1.18 9.69
6/1/2022 10:15:00 AM 17.11 62.798 0.045 6.94 1.14 9.69
6/1/2022 10:30:00 AM 17.37 63.266 0.045 6.97 1.17 9.67
6/1/2022 10:45:00 AM 17.65 63.77 0.045 6.99 1.12 9.66
6/1/2022 11:00:00 AM 17.79 64.022 0.045 6.93 1.22 9.61
6/1/2022 11:15:00 AM 17.98 64.364 0.045 7 1.14 9.6
6/1/2022 11:30:00 AM 18.23 64.814 0.046 6.95 1.16 9.53
6/1/2022 11:45:00 AM 18.37 65.066 0.046 7 1.13 9.5
6/1/2022 12:00:00 PM 18.54 65.372 0.046 6.97 1.1 9.44
6/1/2022 12:15:00 PM 18.62 65.516 0.046 7.02 1.15 9.38
6/1/2022 12:30:00 PM 18.71 65.67799 0.046 6.93 1.16 9.34
6/1/2022 12:45:00 PM 18.82 65.876 0.046 6.98 1.29 9.35
6/1/2022 1:00:00 PM 19.16 66.488 0.046 7.01 1.04 9.35
6/1/2022 1:15:00 PM 19.51 67.118 0.046 6.99 1.06 9.3
6/1/2022 1:30:00 PM 19.44 66.992 0.046 6.99 1.28 9.13
6/1/2022 1:45:00 PM 19.46 67.028 0.046 6.97 1.16 9.12
6/1/2022 2:00:00 PM 19.45 67.01 0.046 6.95 1.12 9.01
6/1/2022 2:15:00 PM 19.46 67.028 0.047 6.93 1.1 9.03
6/1/2022 2:30:00 PM 19.45 67.01 0.046 6.95 1.5 9.02
6/1/2022 2:45:00 PM 19.47 67.046 0.047 6.95 1.43 9.07
6/1/2022 3:00:00 PM 19.59 67.262 0.047 7 1.22 9.12
6/1/2022 3:15:00 PM 19.66 67.388 0.047 7.01 1.22 9.13
6/1/2022 3:30:00 PM 19.78 67.604 0.047 7.01 1.22 9.14
6/1/2022 3:45:00 PM 19.85 67.73 0.047 7.02 1.35 9.1
6/1/2022 4:00:00 PM 19.87 67.766 0.047 7.01 1.2 9.07
6/1/2022 4:15:00 PM 19.91 67.838 0.047 7.03 1.19 9.05
6/1/2022 4:30:00 PM 19.9 67.82 0.047 6.97 1.06 9.05
6/1/2022 4:45:00 PM 19.92 67.856 0.047 7.01 1.2 9.03
6/1/2022 5:00:00 PM 19.85 67.73 0.048 6.99 1.24 8.95
6/1/2022 5:15:00 PM 19.78 67.604 0.048 6.93 1.24 8.84
6/1/2022 5:30:00 PM 19.72 67.496 0.048 6.91 1.86 8.73
6/1/2022 5:45:00 PM 19.61 67.298 0.048 6.92 1.18 8.66
6/1/2022 6:00:00 PM 19.51 67.118 0.048 6.89 1.45 8.68
6/1/2022 6:15:00 PM 19.43 66.974 0.049 6.92 1.1 8.69
6/1/2022 6:30:00 PM 19.37 66.866 0.049 6.93 1.17 8.74
6/1/2022 6:45:00 PM 19.3 66.74 0.049 6.94 1.14 8.71
6/1/2022 7:00:00 PM 19.21 66.578 0.049 6.83 1.14 8.68
6/1/2022 7:15:00 PM 19.11 66.398 0.049 6.84 1.49 8.62
6/1/2022 7:30:00 PM 18.99 66.182 0.048 6.83 2.02 8.62
6/1/2022 7:45:00 PM 18.88 65.984 0.048 6.82 2.33 8.59
6/1/2022 8:00:00 PM 18.78 65.804 0.048 6.8 2.09 8.57
6/1/2022 8:15:00 PM 18.7 65.66 0.048 6.81 2.77 8.55
6/1/2022 8:30:00 PM 18.62 65.516 0.049 6.82 2.25 8.55
6/1/2022 8:45:00 PM 18.56 65.408 0.049 6.8 2.49 8.54
6/1/2022 9:00:00 PM 18.51 65.318 0.049 6.78 2.29 8.55
6/1/2022 9:15:00 PM 18.48 65.264 0.049 6.8 2.61 8.56
6/1/2022 9:30:00 PM 18.46 65.228 0.049 6.82 2.65 8.59
6/1/2022 9:45:00 PM 18.42 65.156 0.05 6.83 3 8.6
6/1/2022 10:00:00 PM 18.37 65.066 0.052 6.83 4.07 8.61
6/1/2022 10:15:00 PM 18.31 64.958 0.053 6.83 6.38 8.62
6/1/2022 10:30:00 PM 18.23 64.814 0.057 6.88 10.53 8.65
6/1/2022 10:45:00 PM 18.17 64.706 0.061 6.92 16.27 8.67
6/1/2022 11:00:00 PM 18.12 64.616 0.061 6.9 22.18 8.69
6/1/2022 11:15:00 PM 18.07 64.526 0.059 6.9 20.29 8.7
6/1/2022 11:30:00 PM 17.99 64.382 0.057 6.9 29.91 8.72
6/1/2022 11:45:00 PM 17.92 64.256 0.055 6.87 21.95 8.75
6/2/2022 12:00:00 AM 17.84 64.112 0.054 6.87 17.54 8.77
6/2/2022 12:15:00 AM 17.75 63.95 0.053 6.84 16.23 8.79
6/2/2022 12:30:00 AM 17.68 63.824 0.053 6.85 13.82 8.8
6/2/2022 12:45:00 AM 17.63 63.734 0.053 6.84 11.8 8.82
6/2/2022 1:00:00 AM 17.59 63.662 0.053 6.86 9.99 8.83
6/2/2022 1:15:00 AM 17.55 63.59 0.053 6.83 8.85 8.84
6/2/2022 1:30:00 AM 17.51 63.518 0.053 6.84 7.98 8.85
6/2/2022 1:45:00 AM 17.48 63.464 0.053 6.85 7.2 8.86
6/2/2022 2:00:00 AM 17.45 63.41 0.053 6.87 6.89 8.86
6/2/2022 2:15:00 AM 17.41 63.338 0.052 6.81 5.98 8.87
6/2/2022 2:30:00 AM 17.36 63.248 0.052 6.85 5.36 8.88
6/2/2022 2:45:00 AM 17.32 63.176 0.052 6.86 5.06 8.88
6/2/2022 3:00:00 AM 17.28 63.104 0.052 6.8 4.59 8.9
6/2/2022 3:15:00 AM 17.24 63.032 0.051 6.85 4.25 8.92
6/2/2022 3:30:00 AM 17.2 62.96 0.051 6.82 4.17 8.93
6/2/2022 3:45:00 AM 17.15 62.87 0.051 6.81 3.99 8.95
6/2/2022 4:00:00 AM 17.11 62.798 0.051 6.85 3.73 8.96
6/2/2022 4:15:00 AM 17.07 62.726 0.051 6.81 3.74 8.96
6/2/2022 4:30:00 AM 17.04 62.672 0.051 6.81 3.32 8.98
6/2/2022 4:45:00 AM 17.01 62.618 0.051 6.82 3.19 8.99
6/2/2022 5:00:00 AM 16.98 62.564 0.052 6.84 3.2 8.99
6/2/2022 5:15:00 AM 16.95 62.51 0.052 6.85 4.08 9
6/2/2022 5:30:00 AM 16.93 62.474 0.052 6.82 3.12 9.01
6/2/2022 5:45:00 AM 16.91 62.438 0.052 6.82 3.01 9.02
6/2/2022 6:00:00 AM 16.9 62.42 0.052 6.83 3.06 9.03
6/2/2022 6:15:00 AM 16.88 62.384 0.052 6.84 2.88 9.04
6/2/2022 6:30:00 AM 16.87 62.366 0.053 6.84 2.84 9.06
6/2/2022 6:45:00 AM 16.86 62.348 0.053 6.84 2.54 9.09
6/2/2022 7:00:00 AM 16.85 62.33 0.052 6.86 2.61 9.11
6/2/2022 7:15:00 AM 16.85 62.33 0.052 6.87 2.47 9.15
6/2/2022 7:30:00 AM 16.86 62.348 0.052 6.87 2.56 9.19
6/2/2022 7:45:00 AM 16.86 62.348 0.052 6.87 2.43 9.21
6/2/2022 8:00:00 AM 16.85 62.33 0.052 6.89 2.44 9.22
6/2/2022 8:15:00 AM 16.85 62.33 0.052 6.89 2.44 9.24
6/2/2022 8:30:00 AM 16.86 62.348 0.052 6.91 2.37 9.3
6/2/2022 8:45:00 AM 16.91 62.438 0.052 6.93 2.23 9.38
6/2/2022 9:00:00 AM 16.95 62.51 0.052 6.94 2.3 9.42
6/2/2022 9:15:00 AM 16.99 62.582 0.052 6.96 2.29 9.43
6/2/2022 9:30:00 AM 17.03 62.654 0.051 6.96 2.23 9.45
6/2/2022 9:45:00 AM 17.07 62.726 0.051 6.99 2.21 9.46
6/2/2022 10:00:00 AM 17.06 62.708 0.051 6.97 2.29 9.39
6/2/2022 10:15:00 AM 17.2 62.96 0.051 6.97 2.16 9.47
6/2/2022 10:30:00 AM 17.31 63.158 0.051 7 2.08 9.45
6/2/2022 10:45:00 AM 17.35 63.23 0.051 7.02 2.02 9.48
6/2/2022 11:00:00 AM 17.39 63.302 0.05 7 2.03 9.48
6/2/2022 11:15:00 AM 17.5 63.5 0.05 7.04 2.19 9.48
6/2/2022 11:30:00 AM 17.55 63.59 0.05 7.02 2.01 9.48
6/2/2022 11:45:00 AM 17.63 63.734 0.05 7.04 1.98 9.49
6/2/2022 12:00:00 PM 17.65 63.77 0.05 7.04 1.94 9.46
6/2/2022 12:15:00 PM 17.67 63.806 0.05 7.02 1.92 9.43
6/2/2022 12:30:00 PM 17.73 63.914 0.05 7.03 1.95 9.44
6/2/2022 12:45:00 PM 17.79 64.022 0.05 7.03 1.87 9.42
6/2/2022 1:00:00 PM 17.87 64.166 0.049 7.03 1.95 9.44
6/2/2022 1:15:00 PM 17.94 64.292 0.049 7.06 1.88 9.41
6/2/2022 1:30:00 PM 17.99 64.382 0.049 7.06 1.76 9.39
6/2/2022 1:45:00 PM 18 64.4 0.049 7.04 1.88 9.36
6/2/2022 2:00:00 PM 17.97 64.346 0.049 7 1.72 9.31
6/2/2022 2:15:00 PM 17.96 64.328 0.049 7.02 1.7 9.31
6/2/2022 2:30:00 PM 17.96 64.328 0.049 7 1.75 9.32
6/2/2022 2:45:00 PM 17.96 64.328 0.049 6.99 1.79 9.3
6/2/2022 3:00:00 PM 17.98 64.364 0.049 7 1.71 9.31
6/2/2022 3:15:00 PM 18.02 64.436 0.049 7 1.68 9.32
6/2/2022 3:30:00 PM 18.07 64.526 0.049 7.01 1.63 9.33
6/2/2022 3:45:00 PM 18.05 64.49 0.049 7.02 1.69 9.29
6/2/2022 4:00:00 PM 18.1 64.58 0.049 7.02 1.66 9.29
6/2/2022 4:15:00 PM 18.12 64.616 0.049 7.01 1.65 9.3
6/2/2022 4:30:00 PM 18.14 64.652 0.049 7.01 1.56 9.29
6/2/2022 4:45:00 PM 18.15 64.67 0.049 7 1.55 9.26
6/2/2022 5:00:00 PM 18.14 64.652 0.049 6.98 1.68 9.23
6/2/2022 5:15:00 PM 18.13 64.634 0.049 6.97 1.68 9.21
6/2/2022 5:30:00 PM 18.15 64.67 0.049 7.01 1.64 9.2
6/2/2022 5:45:00 PM 18.14 64.652 0.049 6.95 2.72 9.18
6/2/2022 6:00:00 PM 18.11 64.598 0.049 6.98 1.71 9.15
6/2/2022 6:15:00 PM 18.09 64.562 0.049 6.97 1.68 9.12
6/2/2022 6:30:00 PM 18.07 64.526 0.049 6.92 1.63 9.12
6/2/2022 6:45:00 PM 18.03 64.454 0.049 6.93 1.63 9.1
6/2/2022 7:00:00 PM 17.98 64.364 0.049 6.9 1.62 9.05
6/2/2022 7:15:00 PM 17.94 64.292 0.049 6.9 1.69 9.04
6/2/2022 7:30:00 PM 17.89 64.202 0.049 6.88 1.54 9
6/2/2022 7:45:00 PM 17.83 64.094 0.049 6.9 1.62 8.97
6/2/2022 8:00:00 PM 17.76 63.968 0.049 6.87 1.57 8.94
6/2/2022 8:15:00 PM 17.7 63.86 0.049 6.84 1.66 8.91
6/2/2022 8:30:00 PM 17.63 63.734 0.049 6.84 1.62 8.89
6/2/2022 8:45:00 PM 17.56 63.608 0.049 6.84 1.67 8.87
6/2/2022 9:00:00 PM 17.49 63.482 0.049 6.83 1.73 8.86
6/2/2022 9:15:00 PM 17.43 63.374 0.049 6.8 1.68 8.86
6/2/2022 9:30:00 PM 17.37 63.266 0.049 6.84 1.59 8.86
6/2/2022 9:45:00 PM 17.32 63.176 0.049 6.78 1.58 8.87
6/2/2022 10:00:00 PM 17.26 63.068 0.049 6.82 1.7 8.88
6/2/2022 10:15:00 PM 17.2 62.96 0.049 6.83 1.66 8.9
6/2/2022 10:30:00 PM 17.14 62.852 0.049 6.77 1.67 8.91
6/2/2022 10:45:00 PM 17.09 62.762 0.05 6.81 1.67 8.92
6/2/2022 11:00:00 PM 17.04 62.672 0.05 6.78 1.76 8.93
6/2/2022 11:15:00 PM 16.99 62.582 0.05 6.79 1.72 8.94
6/2/2022 11:30:00 PM 16.94 62.492 0.05 6.82 1.71 8.95
6/2/2022 11:45:00 PM 16.9 62.42 0.05 6.76 2.03 8.96
6/3/2022 12:00:00 AM 16.84 62.312 0.05 6.8 1.79 8.96
6/3/2022 12:15:00 AM 16.78 62.204 0.049 6.8 2.01 8.97
6/3/2022 12:30:00 AM 16.72 62.096 0.049 6.81 2.06 8.99
6/3/2022 12:45:00 AM 16.67 62.006 0.049 6.8 1.88 8.99
6/3/2022 1:00:00 AM 16.61 61.898 0.049 6.8 1.8 9
6/3/2022 1:15:00 AM 16.56 61.808 0.049 6.8 1.95 9.02
6/3/2022 1:30:00 AM 16.51 61.718 0.05 6.85 1.85 9.03
6/3/2022 1:45:00 AM 16.46 61.628 0.05 6.86 1.8 9.04
6/3/2022 2:00:00 AM 16.4 61.52 0.05 6.8 1.79 9.05
6/3/2022 2:15:00 AM 16.35 61.43 0.05 6.8 1.92 9.06
6/3/2022 2:30:00 AM 16.3 61.34 0.05 6.82 1.63 9.08
6/3/2022 2:45:00 AM 16.26 61.268 0.05 6.8 1.78 9.09
6/3/2022 3:00:00 AM 16.21 61.178 0.05 6.85 1.71 9.1
6/3/2022 3:15:00 AM 16.17 61.106 0.05 6.85 1.75 9.1
6/3/2022 3:30:00 AM 16.12 61.016 0.05 6.81 1.77 9.12
6/3/2022 3:45:00 AM 16.08 60.944 0.05 6.85 1.64 9.12
6/3/2022 4:00:00 AM 16.03 60.854 0.05 6.81 1.79 9.13
6/3/2022 4:15:00 AM 15.99 60.782 0.05 6.8 1.71 9.15
6/3/2022 4:30:00 AM 15.94 60.692 0.05 6.82 1.78 9.16
6/3/2022 4:45:00 AM 15.89 60.602 0.051 6.81 1.88 9.18
6/3/2022 5:00:00 AM 15.85 60.53 0.051 6.83 1.95 9.19
6/3/2022 5:15:00 AM 15.8 60.44 0.05 6.81 2.17 9.2
6/3/2022 5:30:00 AM 15.75 60.35 0.05 6.8 1.98 9.21
6/3/2022 5:45:00 AM 15.71 60.278 0.05 6.84 1.97 9.23
6/3/2022 6:00:00 AM 15.67 60.206 0.05 6.81 1.97 9.26
6/3/2022 6:15:00 AM 15.62 60.116 0.05 6.81 1.86 9.29
6/3/2022 6:30:00 AM 15.59 60.062 0.05 6.86 1.69 9.33
6/3/2022 6:45:00 AM 15.54 59.972 0.05 6.86 1.74 9.37
6/3/2022 7:00:00 AM 15.5 59.9 0.05 6.83 1.76 9.41
6/3/2022 7:15:00 AM 15.47 59.846 0.05 6.86 1.72 9.46
6/3/2022 7:30:00 AM 15.43 59.774 0.05 6.86 1.66 9.5
6/3/2022 7:45:00 AM 15.39 59.702 0.05 6.87 1.67 9.52
6/3/2022 8:00:00 AM 15.38 59.684 0.05 6.91 1.57 9.56
6/3/2022 8:15:00 AM 15.35 59.63 0.05 6.89 1.63 9.59
6/3/2022 8:30:00 AM 15.37 59.666 0.05 6.92 1.55 9.61
6/3/2022 8:45:00 AM 15.41 59.738 0.05 6.9 1.63 9.63
6/3/2022 9:00:00 AM 15.47 59.846 0.05 6.9 1.48 9.65
6/3/2022 9:15:00 AM 15.55 59.99 0.05 6.94 1.5 9.68
6/3/2022 9:30:00 AM 15.65 60.17 0.05 6.95 1.49 9.7
6/3/2022 9:45:00 AM 15.76 60.368 0.05 6.94 1.53 9.71
6/3/2022 10:00:00 AM 15.87 60.566 0.05 6.94 1.65 9.72
6/3/2022 10:15:00 AM 16.02 60.836 0.05 6.96 1.55 9.72
6/3/2022 10:30:00 AM 16.18 61.124 0.05 7 1.66 9.72
6/3/2022 10:45:00 AM 16.36 61.448 0.05 6.96 1.62 9.72
6/3/2022 11:00:00 AM 16.56 61.808 0.05 6.99 1.66 9.7
6/3/2022 11:15:00 AM 16.79 62.222 0.05 6.98 1.67 9.67
6/3/2022 11:30:00 AM 17.04 62.672 0.05 7.02 1.64 9.65
6/3/2022 11:45:00 AM 17.3 63.14 0.05 7.01 1.64 9.6
6/3/2022 12:00:00 PM 17.58 63.644 0.05 7.03 1.49 9.57
6/3/2022 12:15:00 PM 17.86 64.148 0.05 7.01 1.53 9.52
6/3/2022 12:30:00 PM 18.16 64.688 0.05 7.02 1.49 9.47
6/3/2022 12:45:00 PM 18.44 65.192 0.05 7 1.55 9.43
6/3/2022 1:00:00 PM 18.72 65.696 0.05 7.01 1.58 9.37
6/3/2022 1:15:00 PM 18.97 66.146 0.05 7.02 1.57 9.33
6/3/2022 1:30:00 PM 19.23 66.614 0.05 7.03 1.53 9.27
6/3/2022 1:45:00 PM 19.44 66.992 0.05 7.02 1.51 9.21
6/3/2022 2:00:00 PM 19.63 67.334 0.05 7.03 1.51 9.18
6/3/2022 2:15:00 PM 19.78 67.604 0.05 7.04 1.66 9.13
6/3/2022 2:30:00 PM 19.93 67.874 0.05 7 1.45 9.08
6/3/2022 2:45:00 PM 20.02 68.036 0.05 7.02 1.59 9.04
6/3/2022 3:00:00 PM 20.09 68.162 0.05 7.02 1.48 9.01
6/3/2022 3:15:00 PM 20.12 68.216 0.049 7.03 1.45 8.98
6/3/2022 3:30:00 PM 20.11 68.198 0.049 6.98 1.43 8.94
6/3/2022 3:45:00 PM 20.08 68.144 0.05 7 1.44 8.93
6/3/2022 4:00:00 PM 20.04 68.07201 0.049 6.99 1.46 8.9
6/3/2022 4:15:00 PM 19.94 67.892 0.049 6.99 1.49 8.87
6/3/2022 4:30:00 PM 19.83 67.694 0.049 6.97 1.62 8.87
6/3/2022 4:45:00 PM 19.7 67.46 0.049 6.98 1.49 8.85
6/3/2022 5:00:00 PM 19.58 67.244 0.049 6.93 1.43 8.83
6/3/2022 5:15:00 PM 19.43 66.974 0.05 6.97 1.49 8.82
6/3/2022 5:30:00 PM 19.28 66.704 0.049 6.92 1.44 8.8
6/3/2022 5:45:00 PM 19.16 66.488 0.049 6.93 1.44 8.81
6/3/2022 6:00:00 PM 19.03 66.254 0.049 6.92 1.41 8.81
6/3/2022 6:15:00 PM 18.9 66.02 0.049 6.91 1.38 8.81
6/3/2022 6:30:00 PM 18.75 65.75 0.05 6.89 1.62 8.8
6/3/2022 6:45:00 PM 18.6 65.48 0.05 6.91 1.43 8.82
6/3/2022 7:00:00 PM 18.46 65.228 0.05 6.9 1.41 8.83
6/3/2022 7:15:00 PM 18.36 65.048 0.05 6.89 1.34 8.83
6/3/2022 7:30:00 PM 18.28 64.904 0.05 6.89 1.48 8.82
6/3/2022 7:45:00 PM 18.18 64.724 0.05 6.87 1.44 8.81
6/3/2022 8:00:00 PM 18.09 64.562 0.05 6.84 1.4 8.81
6/3/2022 8:15:00 PM 18.01 64.418 0.05 6.88 1.41 8.8
6/3/2022 8:30:00 PM 17.93 64.274 0.05 6.85 1.41 8.8
6/3/2022 8:45:00 PM 17.84 64.112 0.05 6.85 1.52 8.79
6/3/2022 9:00:00 PM 17.75 63.95 0.05 6.84 1.39 8.79
6/3/2022 9:15:00 PM 17.66 63.788 0.05 6.84 1.76 8.8
6/3/2022 9:30:00 PM 17.57 63.626 0.05 6.84 1.56 8.81
6/3/2022 9:45:00 PM 17.46 63.428 0.05 6.78 1.77 8.81
6/3/2022 10:00:00 PM 17.35 63.23 0.05 6.81 1.54 8.84
6/3/2022 10:15:00 PM 17.23 63.014 0.05 6.84 1.64 8.87
6/3/2022 10:30:00 PM 17.1 62.78 0.05 6.82 1.57 8.9
6/3/2022 10:45:00 PM 16.98 62.564 0.05 6.82 1.65 8.93
6/3/2022 11:00:00 PM 16.85 62.33 0.05 6.82 1.47 8.95
6/3/2022 11:15:00 PM 16.71 62.078 0.05 6.79 1.47 8.97
6/3/2022 11:30:00 PM 16.59 61.862 0.05 6.81 1.6 9
6/3/2022 11:45:00 PM 16.46 61.628 0.05 6.83 1.49 9.04
6/4/2022 12:00:00 AM 16.34 61.412 0.05 6.82 1.52 9.07
6/4/2022 12:15:00 AM 16.21 61.178 0.05 6.77 1.57 9.09
6/4/2022 12:30:00 AM 16.1 60.98 0.05 6.8 1.7 9.11
6/4/2022 12:45:00 AM 15.99 60.782 0.05 6.77 1.49 9.14
6/4/2022 1:00:00 AM 15.87 60.566 0.05 6.78 1.85 9.17
6/4/2022 1:15:00 AM 15.75 60.35 0.05 6.8 1.6 9.2
6/4/2022 1:30:00 AM 15.65 60.17 0.05 6.78 1.55 9.22
6/4/2022 1:45:00 AM 15.54 59.972 0.05 6.79 1.51 9.25
6/4/2022 2:00:00 AM 15.42 59.756 0.05 6.78 1.47 9.27
6/4/2022 2:15:00 AM 15.33 59.594 0.05 6.78 1.58 9.29
6/4/2022 2:30:00 AM 15.23 59.414 0.05 6.76 1.4 9.32
6/4/2022 2:45:00 AM 15.12 59.216 0.05 6.79 1.55 9.34
6/4/2022 3:00:00 AM 15.03 59.054 0.05 6.82 1.59 9.36
6/4/2022 3:15:00 AM 14.94 58.892 0.05 6.81 1.51 9.38
6/4/2022 3:30:00 AM 14.85 58.73 0.05 6.78 1.52 9.4
6/4/2022 3:45:00 AM 14.75 58.55 0.05 6.78 1.71 9.41
6/4/2022 4:00:00 AM 14.67 58.406 0.05 6.81 1.53 9.44
6/4/2022 4:15:00 AM 14.58 58.244 0.051 6.79 1.59 9.46
6/4/2022 4:30:00 AM 14.5 58.1 0.051 6.81 1.53 9.49
6/4/2022 4:45:00 AM 14.42 57.956 0.051 6.84 1.56 9.5
6/4/2022 5:00:00 AM 14.34 57.812 0.051 6.77 1.64 9.52
6/4/2022 5:15:00 AM 14.26 57.668 0.051 6.82 1.67 9.54
6/4/2022 5:30:00 AM 14.19 57.542 0.051 6.77 1.64 9.55
6/4/2022 5:45:00 AM 14.11 57.398 0.051 6.79 1.5 9.57
6/4/2022 6:00:00 AM 14.05 57.29 0.051 6.81 1.6 9.6
6/4/2022 6:15:00 AM 14.06 57.308 0.051 6.83 1.56 9.62
6/4/2022 6:30:00 AM 14.01 57.218 0.051 6.82 1.51 9.67
6/4/2022 6:45:00 AM 13.95 57.11 0.051 6.82 1.47 9.71
6/4/2022 7:00:00 AM 13.91 57.038 0.051 6.83 1.45 9.75
6/4/2022 7:15:00 AM 13.87 56.966 0.051 6.84 1.38 9.8
6/4/2022 7:30:00 AM 13.84 56.912 0.051 6.85 1.42 9.83
6/4/2022 7:45:00 AM 13.83 56.894 0.051 6.85 1.43 9.86
6/4/2022 8:00:00 AM 13.83 56.894 0.051 6.86 1.45 9.89
6/4/2022 8:15:00 AM 13.87 56.966 0.051 6.9 1.37 9.93
6/4/2022 8:30:00 AM 13.93 57.074 0.051 6.87 1.44 9.95
6/4/2022 8:45:00 AM 14.01 57.218 0.051 6.9 1.31 9.96
6/4/2022 9:00:00 AM 14.12 57.416 0.05 6.89 1.38 9.98
6/4/2022 9:15:00 AM 14.23 57.614 0.05 6.91 1.65 9.98
6/4/2022 9:30:00 AM 14.38 57.884 0.05 6.94 1.35 10.01
6/4/2022 9:45:00 AM 14.52 58.136 0.05 6.91 1.4 10.01
6/4/2022 10:00:00 AM 14.69 58.442 0.05 6.93 1.37 10
6/4/2022 10:15:00 AM 14.88 58.784 0.05 6.93 1.56 9.99
6/4/2022 10:30:00 AM 15.08 59.144 0.05 6.94 1.44 9.98
6/4/2022 10:45:00 AM 15.32 59.576 0.05 6.98 1.34 9.96
6/4/2022 11:00:00 AM 15.57 60.026 0.05 6.93 1.34 9.92
6/4/2022 11:15:00 AM 15.85 60.53 0.05 6.98 1.34 9.91
6/4/2022 11:30:00 AM 16.13 61.034 0.05 6.94 1.35 9.85
6/4/2022 11:45:00 AM 16.43 61.574 0.05 7.01 1.46 9.83
6/4/2022 12:00:00 PM 16.74 62.132 0.05 7 1.34 9.76
6/4/2022 12:15:00 PM 17.05 62.69 0.05 7 1.32 9.72
6/4/2022 12:30:00 PM 17.36 63.248 0.05 6.96 1.33 9.66
6/4/2022 12:45:00 PM 17.68 63.824 0.05 7.02 1.38 9.59
6/4/2022 1:00:00 PM 17.99 64.382 0.05 7.01 1.33 9.55
6/4/2022 1:15:00 PM 18.28 64.904 0.05 6.98 1.38 9.49
6/4/2022 1:30:00 PM 18.54 65.372 0.05 6.98 1.28 9.43
6/4/2022 1:45:00 PM 18.78 65.804 0.05 7.03 1.3 9.36
6/4/2022 2:00:00 PM 19 66.2 0.05 7.04 1.36 9.32
6/4/2022 2:15:00 PM 19.2 66.56 0.05 7 1.3 9.26
6/4/2022 2:30:00 PM 19.4 66.92 0.05 7 1.5 9.2
6/4/2022 2:45:00 PM 19.51 67.118 0.05 7.01 1.31 9.15
6/4/2022 3:00:00 PM 19.63 67.334 0.05 6.97 1.27 9.11
6/4/2022 3:15:00 PM 19.73 67.514 0.05 6.99 1.46 9.06
6/4/2022 3:30:00 PM 19.75 67.55 0.05 6.98 1.51 9.04
6/4/2022 3:45:00 PM 19.73 67.514 0.05 7 1.68 8.99
6/4/2022 4:00:00 PM 19.69 67.442 0.05 6.95 1.33 8.98
6/4/2022 4:15:00 PM 19.6 67.28 0.05 6.95 1.44 8.94
6/4/2022 4:30:00 PM 19.49 67.082 0.05 6.94 1.48 8.93
6/4/2022 4:45:00 PM 19.36 66.848 0.05 6.97 1.32 8.91
6/4/2022 5:00:00 PM 19.23 66.614 0.05 6.9 1.34 8.89
6/4/2022 5:15:00 PM 19.11 66.398 0.05 6.91 1.17 8.89
6/4/2022 5:30:00 PM 18.94 66.092 0.05 6.96 1.24 8.87
6/4/2022 5:45:00 PM 18.79 65.82201 0.05 6.91 1.41 8.87
6/4/2022 6:00:00 PM 18.65 65.57 0.05 6.92 1.57 8.87
6/4/2022 6:15:00 PM 18.48 65.264 0.05 6.86 1.48 8.89
6/4/2022 6:30:00 PM 18.3 64.94 0.05 6.9 1.38 8.89
6/4/2022 6:45:00 PM 18.12 64.616 0.05 6.86 1.52 8.91
6/4/2022 7:00:00 PM 17.93 64.274 0.05 6.88 1.36 8.93
6/4/2022 7:15:00 PM 17.76 63.968 0.05 6.86 1.46 8.93
6/4/2022 7:30:00 PM 17.6 63.68 0.05 6.89 1.32 8.95
6/4/2022 7:45:00 PM 17.44 63.392 0.05 6.86 1.4 8.95
6/4/2022 8:00:00 PM 17.31 63.158 0.051 6.88 1.29 8.96
6/4/2022 8:15:00 PM 17.19 62.942 0.051 6.87 1.37 8.96
6/4/2022 8:30:00 PM 17.08 62.744 0.051 6.8 1.42 8.95
6/4/2022 8:45:00 PM 16.97 62.546 0.051 6.83 1.4 8.97
6/4/2022 9:00:00 PM 16.85 62.33 0.051 6.82 1.6 8.97
6/4/2022 9:15:00 PM 16.74 62.132 0.051 6.8 1.36 8.98
6/4/2022 9:30:00 PM 16.63 61.934 0.051 6.83 1.55 8.99
6/4/2022 9:45:00 PM 16.52 61.736 0.051 6.82 1.4 9
6/4/2022 10:00:00 PM 16.4 61.52 0.051 6.81 1.42 9.03
6/4/2022 10:15:00 PM 16.27 61.286 0.051 6.81 1.45 9.06
6/4/2022 10:30:00 PM 16.15 61.07 0.051 6.83 1.48 9.07
6/4/2022 10:45:00 PM 16.02 60.836 0.051 6.8 1.4 9.1
6/4/2022 11:00:00 PM 15.92 60.656 0.051 6.81 1.32 9.14
6/4/2022 11:15:00 PM 15.81 60.458 0.051 6.79 1.32 9.15
6/4/2022 11:30:00 PM 15.7 60.26 0.051 6.79 1.51 9.18
6/4/2022 11:45:00 PM 15.58 60.044 0.051 6.81 1.4 9.22
6/5/2022 12:00:00 AM 15.45 59.81 0.051 6.83 1.31 9.24
6/5/2022 12:15:00 AM 15.33 59.594 0.051 6.81 1.35 9.26
6/5/2022 12:30:00 AM 15.21 59.378 0.052 6.79 1.47 9.31
6/5/2022 12:45:00 AM 15.1 59.18 0.052 6.81 1.51 9.32
6/5/2022 1:00:00 AM 14.99 58.982 0.052 6.79 1.53 9.36
6/5/2022 1:15:00 AM 14.89 58.802 0.052 6.78 1.36 9.38
6/5/2022 1:30:00 AM 14.78 58.604 0.052 6.85 1.36 9.4
6/5/2022 1:45:00 AM 14.67 58.406 0.052 6.82 1.62 9.42
6/5/2022 2:00:00 AM 14.57 58.226 0.052 6.8 1.42 9.46
6/5/2022 2:15:00 AM 14.47 58.046 0.052 6.8 1.42 9.48
6/5/2022 2:30:00 AM 14.37 57.866 0.052 6.8 1.42 9.5
6/5/2022 2:45:00 AM 14.28 57.704 0.052 6.79 1.43 9.52
6/5/2022 3:00:00 AM 14.19 57.542 0.052 6.79 1.39 9.54
6/5/2022 3:15:00 AM 14.1 57.38 0.052 6.79 1.45 9.56
6/5/2022 3:30:00 AM 14 57.2 0.052 6.8 1.38 9.58
6/5/2022 3:45:00 AM 13.99 57.182 0.052 6.82 1.45 9.58
6/5/2022 4:00:00 AM 13.89 57.002 0.052 6.8 1.37 9.6
6/5/2022 4:15:00 AM 13.8 56.84 0.052 6.78 1.42 9.63
6/5/2022 4:30:00 AM 13.71 56.678 0.052 6.79 1.35 9.65
6/5/2022 4:45:00 AM 13.63 56.534 0.052 6.78 1.39 9.66
6/5/2022 5:00:00 AM 13.55 56.39 0.051 6.78 1.35 9.67
6/5/2022 5:15:00 AM 13.47 56.246 0.051 6.79 1.39 9.69
6/5/2022 5:30:00 AM 13.38 56.084 0.051 6.79 1.76 9.72
6/5/2022 5:45:00 AM 13.29 55.922 0.051 6.79 1.39 9.76
6/5/2022 6:00:00 AM 13.21 55.778 0.051 6.79 1.52 9.78
6/5/2022 6:15:00 AM 13.14 55.652 0.051 6.78 1.41 9.83
6/5/2022 6:30:00 AM 13.08 55.544 0.051 6.83 1.32 9.89
6/5/2022 6:45:00 AM 13.04 55.472 0.051 6.84 1.37 9.95
6/5/2022 7:00:00 AM 12.99 55.382 0.051 6.79 1.38 10
6/5/2022 7:15:00 AM 12.96 55.328 0.051 6.84 1.45 10.05
6/5/2022 7:30:00 AM 12.94 55.292 0.051 6.81 1.26 10.07
6/5/2022 7:45:00 AM 12.93 55.274 0.051 6.85 1.37 10.11
6/5/2022 8:00:00 AM 12.93 55.274 0.051 6.85 1.25 10.14
6/5/2022 8:15:00 AM 12.97 55.346 0.051 6.87 1.28 10.2
6/5/2022 8:30:00 AM 13.02 55.436 0.051 6.85 1.22 10.23
6/5/2022 8:45:00 AM 13.1 55.58 0.051 6.91 1.25 10.27
6/5/2022 9:00:00 AM 13.2 55.76 0.051 6.9 1.48 10.29
6/5/2022 9:15:00 AM 13.32 55.976 0.051 6.89 1.19 10.3
6/5/2022 9:30:00 AM 13.44 56.192 0.051 6.94 1.3 10.31
6/5/2022 9:45:00 AM 13.59 56.462 0.051 6.9 1.34 10.32
6/5/2022 10:00:00 AM 13.71 56.678 0.051 6.94 1.39 10.32
6/5/2022 10:15:00 AM 13.83 56.894 0.051 6.93 1.15 10.31
6/5/2022 10:30:00 AM 13.93 57.074 0.051 6.99 1.37 10.3
6/5/2022 10:45:00 AM 14.12 57.416 0.051 6.95 1.37 10.25
6/5/2022 11:00:00 AM 14.28 57.704 0.051 7 1.28 10.27
6/5/2022 11:15:00 AM 14.39 57.902 0.051 6.95 1.24 10.25
6/5/2022 11:30:00 AM 14.53 58.154 0.051 6.98 1.28 10.23
6/5/2022 11:45:00 AM 14.78 58.604 0.051 6.98 1.41 10.2
6/5/2022 12:00:00 PM 15.05 59.09 0.051 7.02 1.21 10.18
6/5/2022 12:15:00 PM 15.27 59.486 0.051 6.97 1.25 10.14
6/5/2022 12:30:00 PM 15.48 59.864 0.051 7 1.25 10.08
6/5/2022 12:45:00 PM 15.7 60.26 0.051 7.02 1.18 10.04
6/5/2022 1:00:00 PM 15.9 60.62 0.051 7 1.27 10.02
6/5/2022 1:15:00 PM 16.13 61.034 0.051 7.01 1.27 9.95
6/5/2022 1:30:00 PM 16.4 61.52 0.051 7.03 1.15 9.92
6/5/2022 1:45:00 PM 16.68 62.024 0.051 6.99 1.18 9.84
6/5/2022 2:00:00 PM 16.93 62.474 0.051 7.01 1.22 9.79
6/5/2022 2:15:00 PM 17.12 62.816 0.051 6.98 1.31 9.74
6/5/2022 2:30:00 PM 17.3 63.14 0.051 7 1.51 9.68
6/5/2022 2:45:00 PM 17.5 63.5 0.051 7.02 1.12 9.61
6/5/2022 3:00:00 PM 17.68 63.824 0.051 6.98 1.3 9.55
6/5/2022 3:15:00 PM 17.79 64.022 0.052 7.01 1.17 9.49
6/5/2022 3:30:00 PM 17.88 64.184 0.052 6.96 1.22 9.44
6/5/2022 3:45:00 PM 17.94 64.292 0.052 6.96 1.34 9.38
6/5/2022 4:00:00 PM 17.93 64.274 0.052 7 1.19 9.36
6/5/2022 4:15:00 PM 18.07 64.526 0.052 6.99 1.21 9.34
6/5/2022 4:30:00 PM 18.04 64.472 0.052 6.97 1.26 9.31
6/5/2022 4:45:00 PM 17.97 64.346 0.052 6.96 1.26 9.26
6/5/2022 5:00:00 PM 17.96 64.328 0.052 6.97 1.4 9.24
6/5/2022 5:15:00 PM 17.95 64.31 0.052 6.94 1.25 9.22
6/5/2022 5:30:00 PM 17.86 64.148 0.052 6.96 1.29 9.19
6/5/2022 5:45:00 PM 17.74 63.932 0.052 6.93 1.2 9.14
6/5/2022 6:00:00 PM 17.58 63.644 0.052 6.93 1.18 9.13
6/5/2022 6:15:00 PM 17.45 63.41 0.052 6.9 1.18 9.14
6/5/2022 6:30:00 PM 17.31 63.158 0.052 6.92 1.16 9.15
6/5/2022 6:45:00 PM 17.16 62.888 0.052 6.91 1.29 9.16
6/5/2022 7:00:00 PM 17 62.6 0.052 6.9 1.21 9.17
6/5/2022 7:15:00 PM 16.83 62.294 0.052 6.89 1.31 9.18
6/5/2022 7:30:00 PM 16.69 62.042 0.052 6.87 1.26 9.18
6/5/2022 7:45:00 PM 16.55 61.79 0.052 6.86 1.37 9.18
6/5/2022 8:00:00 PM 16.44 61.592 0.052 6.9 1.62 9.19
6/5/2022 8:15:00 PM 16.33 61.394 0.052 6.87 1.43 9.19
6/5/2022 8:30:00 PM 16.24 61.232 0.052 6.83 1.33 9.18
6/5/2022 8:45:00 PM 16.15 61.07 0.052 6.83 1.42 9.16
6/5/2022 9:00:00 PM 16.07 60.926 0.052 6.84 1.51 9.16
6/5/2022 9:15:00 PM 15.98 60.764 0.052 6.85 1.28 9.15
6/5/2022 9:30:00 PM 15.9 60.62 0.052 6.81 1.69 9.18
6/5/2022 9:45:00 PM 15.81 60.458 0.053 6.83 1.37 9.2
6/5/2022 10:00:00 PM 15.72 60.296 0.053 6.86 1.32 9.22
6/5/2022 10:15:00 PM 15.63 60.134 0.053 6.83 1.25 9.22
6/5/2022 10:30:00 PM 15.56 60.008 0.053 6.87 1.43 9.24
6/5/2022 10:45:00 PM 15.49 59.882 0.053 6.84 1.41 9.26
6/5/2022 11:00:00 PM 15.4 59.72 0.053 6.78 1.46 9.28
6/5/2022 11:15:00 PM 15.31 59.558 0.053 6.83 1.42 9.3
6/5/2022 11:30:00 PM 15.22 59.396 0.053 6.85 1.48 9.32
6/5/2022 11:45:00 PM 15.13 59.234 0.053 6.81 1.3 9.35
6/6/2022 12:00:00 AM 15.04 59.072 0.053 6.81 1.42 9.36
6/6/2022 12:15:00 AM 14.96 58.928 0.053 6.82 1.36 9.38
6/6/2022 12:30:00 AM 14.87 58.766 0.053 6.81 1.44 9.39
6/6/2022 12:45:00 AM 14.79 58.622 0.053 6.8 1.31 9.41
6/6/2022 1:00:00 AM 14.72 58.496 0.053 6.81 1.33 9.43
6/6/2022 1:15:00 AM 14.63 58.334 0.053 6.8 1.39 9.46
6/6/2022 1:30:00 AM 14.56 58.208 0.053 6.8 1.43 9.47
6/6/2022 1:45:00 AM 14.49 58.082 0.053 6.81 1.35 9.49
6/6/2022 2:00:00 AM 14.43 57.974 0.053 6.79 1.6 9.5
6/6/2022 2:15:00 AM 14.36 57.848 0.053 6.82 1.42 9.52
6/6/2022 2:30:00 AM 14.28 57.704 0.053 6.78 1.44 9.54
6/6/2022 2:45:00 AM 14.2 57.56 0.053 6.79 1.3 9.55
6/6/2022 3:00:00 AM 14.12 57.416 0.053 6.79 1.4 9.57
6/6/2022 3:15:00 AM 14.05 57.29 0.053 6.82 1.37 9.59
6/6/2022 3:30:00 AM 13.97 57.146 0.053 6.77 1.34 9.61
6/6/2022 3:45:00 AM 13.89 57.002 0.053 6.8 1.47 9.63
6/6/2022 4:00:00 AM 13.81 56.858 0.053 6.78 1.43 9.65
6/6/2022 4:15:00 AM 13.73 56.714 0.053 6.8 1.35 9.66
6/6/2022 4:30:00 AM 13.65 56.57 0.053 6.78 1.44 9.68
6/6/2022 4:45:00 AM 13.58 56.444 0.053 6.83 1.35 9.7
6/6/2022 5:00:00 AM 13.5 56.3 0.053 6.84 1.41 9.72
6/6/2022 5:15:00 AM 13.42 56.156 0.053 6.79 1.54 9.73
6/6/2022 5:30:00 AM 13.35 56.03 0.053 6.79 1.46 9.76
6/6/2022 5:45:00 AM 13.28 55.904 0.053 6.79 1.34 9.78
6/6/2022 6:00:00 AM 13.21 55.778 0.053 6.8 1.37 9.83
6/6/2022 6:15:00 AM 13.15 55.67 0.053 6.85 1.32 9.87
6/6/2022 6:30:00 AM 13.1 55.58 0.053 6.8 1.29 9.91
6/6/2022 6:45:00 AM 13.05 55.49 0.053 6.85 1.36 9.97
6/6/2022 7:00:00 AM 13.02 55.436 0.053 6.82 1.35 10.01
6/6/2022 7:15:00 AM 12.99 55.382 0.053 6.86 1.39 10.05
6/6/2022 7:30:00 AM 12.98 55.364 0.053 6.85 1.31 10.08
6/6/2022 7:45:00 AM 12.97 55.346 0.053 6.86 1.25 10.12
6/6/2022 8:00:00 AM 12.98 55.364 0.053 6.86 1.23 10.15
6/6/2022 8:15:00 AM 13.02 55.436 0.053 6.89 1.26 10.19
6/6/2022 8:30:00 AM 13.08 55.544 0.053 6.9 1.21 10.21
6/6/2022 8:45:00 AM 13.17 55.706 0.053 6.89 1.2 10.21
6/6/2022 9:00:00 AM 13.29 55.922 0.053 6.92 1.23 10.24
6/6/2022 9:15:00 AM 13.42 56.156 0.053 6.89 1.29 10.24
6/6/2022 9:30:00 AM 13.58 56.444 0.053 6.91 1.19 10.23
6/6/2022 9:45:00 AM 13.75 56.75 0.053 6.93 1.18 10.23
6/6/2022 10:00:00 AM 13.94 57.092 0.053 6.93 1.24 10.23
6/6/2022 10:15:00 AM 14.15 57.47 0.053 6.97 1.21 10.21
6/6/2022 10:30:00 AM 14.37 57.866 0.053 6.95 1.26 10.2
6/6/2022 10:45:00 AM 14.62 58.316 0.053 6.95 1.55 10.18
6/6/2022 11:00:00 AM 14.88 58.784 0.053 6.98 1.17 10.14
6/6/2022 11:15:00 AM 15.15 59.27 0.053 6.97 1.29 10.11
6/6/2022 11:30:00 AM 15.45 59.81 0.053 6.99 1.23 10.06
6/6/2022 11:45:00 AM 15.77 60.386 0.053 6.96 1.18 10.03
6/6/2022 12:00:00 PM 16.07 60.926 0.053 6.97 1.24 9.97
6/6/2022 12:15:00 PM 16.38 61.484 0.053 6.97 1.12 9.92
6/6/2022 12:30:00 PM 16.71 62.078 0.053 7 1.09 9.86
6/6/2022 12:45:00 PM 17.04 62.672 0.053 6.98 1.18 9.8
6/6/2022 1:00:00 PM 17.39 63.302 0.053 7 1.21 9.73
6/6/2022 1:15:00 PM 17.69 63.842 0.053 6.98 1.29 9.66
6/6/2022 1:30:00 PM 17.99 64.382 0.052 7.03 1.19 9.59
6/6/2022 1:45:00 PM 18.22 64.796 0.052 7.04 1.08 9.54
6/6/2022 2:00:00 PM 18.52 65.336 0.052 6.98 1.19 9.48
6/6/2022 2:15:00 PM 18.77 65.786 0.052 7.01 1.16 9.4
6/6/2022 2:30:00 PM 18.98 66.164 0.052 6.99 1.26 9.35
6/6/2022 2:45:00 PM 19.16 66.488 0.052 7 1.08 9.29
6/6/2022 3:00:00 PM 19.32 66.776 0.052 6.99 1.17 9.23
6/6/2022 3:15:00 PM 19.43 66.974 0.052 7.03 1.23 9.18
6/6/2022 3:30:00 PM 19.52 67.136 0.052 6.99 1.19 9.16
6/6/2022 3:45:00 PM 19.56 67.208 0.052 6.98 1.05 9.13
6/6/2022 4:00:00 PM 19.55 67.19 0.053 6.99 1.16 9.09
6/6/2022 4:15:00 PM 19.52 67.136 0.053 6.98 1.11 9.08
6/6/2022 4:30:00 PM 19.52 67.136 0.053 7.02 1.19 9.06
6/6/2022 4:45:00 PM 19.43 66.974 0.053 6.98 1.08 9.03
6/6/2022 5:00:00 PM 19.31 66.758 0.053 6.97 1.11 9
6/6/2022 5:15:00 PM 19.18 66.524 0.053 6.98 1.12 9.01
6/6/2022 5:30:00 PM 19.07 66.326 0.053 6.94 1.18 9.01
6/6/2022 5:45:00 PM 18.94 66.092 0.053 6.99 1.18 9.02
6/6/2022 6:00:00 PM 18.81 65.858 0.053 6.99 1.19 9.03
6/6/2022 6:15:00 PM 18.67 65.606 0.053 6.92 1.33 9.04
6/6/2022 6:30:00 PM 18.53 65.354 0.053 6.93 1.18 9.06
6/6/2022 6:45:00 PM 18.36 65.048 0.053 6.95 1.71 9.08
6/6/2022 7:00:00 PM 18.2 64.76 0.053 6.91 1.21 9.06
6/6/2022 7:15:00 PM 18.05 64.49 0.053 6.93 1.28 9.04
6/6/2022 7:30:00 PM 17.92 64.256 0.053 6.9 1.44 9.02
6/6/2022 7:45:00 PM 17.79 64.022 0.053 6.93 1.16 9.01
6/6/2022 8:00:00 PM 17.68 63.824 0.053 6.85 1.23 8.99
6/6/2022 8:15:00 PM 17.57 63.626 0.053 6.88 1.11 8.99
6/6/2022 8:30:00 PM 17.46 63.428 0.053 6.85 1.22 8.95
6/6/2022 8:45:00 PM 17.35 63.23 0.053 6.88 1.16 8.94
6/6/2022 9:00:00 PM 17.26 63.068 0.053 6.83 1.32 8.93
6/6/2022 9:15:00 PM 17.16 62.888 0.053 6.81 1.25 8.93
6/6/2022 9:30:00 PM 17.07 62.726 0.053 6.82 1.23 8.94
6/6/2022 9:45:00 PM 16.98 62.564 0.053 6.82 1.36 8.96
6/6/2022 10:00:00 PM 16.88 62.384 0.053 6.86 1.3 8.97
6/6/2022 10:15:00 PM 16.79 62.222 0.053 6.83 1.22 8.97
6/6/2022 10:30:00 PM 16.7 62.06 0.054 6.82 1.56 8.98
6/6/2022 10:45:00 PM 16.63 61.934 0.054 6.8 1.33 9
6/6/2022 11:00:00 PM 16.55 61.79 0.054 6.81 1.24 9.02
6/6/2022 11:15:00 PM 16.48 61.664 0.054 6.81 1.41 9.04
6/6/2022 11:30:00 PM 16.4 61.52 0.054 6.82 1.47 9.05
6/6/2022 11:45:00 PM 16.32 61.376 0.054 6.82 1.28 9.07
6/7/2022 12:00:00 AM 16.24 61.232 0.054 6.77 1.43 9.09
6/7/2022 12:15:00 AM 16.16 61.088 0.054 6.8 1.5 9.1
6/7/2022 12:30:00 AM 16.07 60.926 0.054 6.79 1.32 9.12
6/7/2022 12:45:00 AM 15.99 60.782 0.054 6.81 1.36 9.14
6/7/2022 1:00:00 AM 15.92 60.656 0.054 6.79 1.46 9.16
6/7/2022 1:15:00 AM 15.84 60.512 0.054 6.84 1.29 9.18
6/7/2022 1:30:00 AM 15.78 60.404 0.054 6.79 1.29 9.2
6/7/2022 1:45:00 AM 15.71 60.278 0.054 6.78 1.35 9.21
6/7/2022 2:00:00 AM 15.64 60.152 0.054 6.83 1.29 9.23
6/7/2022 2:15:00 AM 15.57 60.026 0.054 6.81 1.26 9.23
6/7/2022 2:30:00 AM 15.5 59.9 0.054 6.85 1.59 9.25
6/7/2022 2:45:00 AM 15.42 59.756 0.054 6.8 1.35 9.26
6/7/2022 3:00:00 AM 15.34 59.612 0.054 6.85 1.3 9.28
6/7/2022 3:15:00 AM 15.27 59.486 0.054 6.76 1.46 9.3
6/7/2022 3:30:00 AM 15.19 59.342 0.054 6.82 1.3 9.31
6/7/2022 3:45:00 AM 15.12 59.216 0.054 6.81 1.28 9.33
6/7/2022 4:00:00 AM 15.04 59.072 0.054 6.81 1.32 9.35
6/7/2022 4:15:00 AM 14.98 58.964 0.054 6.81 1.51 9.36
6/7/2022 4:30:00 AM 14.9 58.82 0.054 6.83 1.65 9.38
6/7/2022 4:45:00 AM 14.83 58.694 0.054 6.81 2.3 9.38
6/7/2022 5:00:00 AM 14.77 58.586 0.054 6.83 1.47 9.4
6/7/2022 5:15:00 AM 14.69 58.442 0.054 6.8 1.48 9.42
6/7/2022 5:30:00 AM 14.62 58.316 0.054 6.83 1.3 9.44
6/7/2022 5:45:00 AM 14.57 58.226 0.054 6.81 1.4 9.43
6/7/2022 6:00:00 AM 14.53 58.154 0.054 6.79 1.35 9.5
6/7/2022 6:15:00 AM 14.49 58.082 0.054 6.81 1.43 9.56
6/7/2022 6:30:00 AM 14.45 58.01 0.054 6.81 1.42 9.61
6/7/2022 6:45:00 AM 14.43 57.974 0.054 6.83 1.41 9.66
6/7/2022 7:00:00 AM 14.44 57.992 0.054 6.87 1.35 9.74
6/7/2022 7:15:00 AM 14.46 58.028 0.054 6.91 1.34 9.8
6/7/2022 7:30:00 AM 14.46 58.028 0.054 6.88 1.32 9.82
6/7/2022 7:45:00 AM 14.46 58.028 0.054 6.88 1.37 9.85
6/7/2022 8:00:00 AM 14.46 58.028 0.054 6.9 1.3 9.86
6/7/2022 8:15:00 AM 14.52 58.136 0.054 6.9 1.16 9.9
6/7/2022 8:30:00 AM 14.57 58.226 0.054 6.92 1.17 9.94
6/7/2022 8:45:00 AM 14.62 58.316 0.054 6.92 1.17 9.96
6/7/2022 9:00:00 AM 14.68 58.424 0.054 6.96 1.34 9.98
6/7/2022 9:15:00 AM 14.76 58.568 0.054 6.96 4.62 9.98
6/7/2022 9:30:00 AM 14.91 58.838 0.054 6.97 1.69 10
6/7/2022 9:45:00 AM 15.04 59.072 0.054 6.94 1.23 10.01
6/7/2022 10:00:00 AM 15.14 59.252 0.054 6.96 1.35 10
6/7/2022 10:15:00 AM 15.32 59.576 0.053 6.96 1.13 9.99
6/7/2022 10:30:00 AM 15.52 59.936 0.053 7.02 1.26 9.98
6/7/2022 10:45:00 AM 15.65 60.17 0.053 6.96 1.35 9.94
6/7/2022 11:00:00 AM 15.71 60.278 0.053 6.99 1.46 9.93
6/7/2022 11:15:00 AM 15.76 60.368 0.053 6.98 1.59 9.91
6/7/2022 11:30:00 AM 15.86 60.548 0.053 6.99 1.14 9.89
6/7/2022 11:45:00 AM 15.9 60.62 0.053 7 1.18 9.86
6/7/2022 12:00:00 PM 15.96 60.728 0.053 6.99 1.14 9.83
6/7/2022 12:15:00 PM 15.98 60.764 0.053 6.97 1.8 9.78
6/7/2022 12:30:00 PM 15.95 60.71 0.053 6.94 1.48 9.69
6/7/2022 12:45:00 PM 15.97 60.746 0.053 6.99 1.25 9.69
6/7/2022 1:00:00 PM 16.04 60.872 0.053 6.93 1.15 9.69
6/7/2022 1:15:00 PM 16.12 61.016 0.053 6.98 1.19 9.71
6/7/2022 1:30:00 PM 16.21 61.178 0.053 7.01 1.13 9.72
6/7/2022 1:45:00 PM 16.33 61.394 0.053 6.99 1.23 9.72
6/7/2022 2:00:00 PM 16.34 61.412 0.053 6.98 1.16 9.66
6/7/2022 2:15:00 PM 16.33 61.394 0.053 6.98 1.13 9.61
6/7/2022 2:30:00 PM 16.34 61.412 0.053 7.01 1.89 9.58
6/7/2022 2:45:00 PM 16.34 61.412 0.053 6.95 1.21 9.56
6/7/2022 3:00:00 PM 16.32 61.376 0.053 6.97 1.14 9.54
6/7/2022 3:15:00 PM 16.31 61.358 0.053 6.95 1.17 9.56
6/7/2022 3:30:00 PM 16.32 61.376 0.053 6.96 1.49 9.58
6/7/2022 3:45:00 PM 16.28 61.304 0.053 6.97 1.23 9.5
6/7/2022 4:00:00 PM 16.22 61.196 0.053 6.96 1.03 9.42
6/7/2022 4:15:00 PM 16.21 61.178 0.053 6.86 1.48 9.36
6/7/2022 4:30:00 PM 16.27 61.286 0.053 6.91 1.42 9.44
6/7/2022 4:45:00 PM 16.27 61.286 0.053 6.93 1.55 9.43
6/7/2022 5:00:00 PM 16.28 61.304 0.053 6.91 1.41 9.47
6/7/2022 5:15:00 PM 16.25 61.25 0.053 6.92 1.38 9.41
6/7/2022 5:30:00 PM 16.23 61.214 0.053 6.9 1.41 9.38
6/7/2022 5:45:00 PM 16.23 61.214 0.053 6.95 1.44 9.39
6/7/2022 6:00:00 PM 16.22 61.196 0.053 6.92 1.32 9.39
6/7/2022 6:15:00 PM 16.2 61.16 0.053 6.93 1.53 9.33
6/7/2022 6:30:00 PM 16.18 61.124 0.053 6.86 1.47 9.3
6/7/2022 6:45:00 PM 16.15 61.07 0.053 6.87 1.54 9.29
6/7/2022 7:00:00 PM 16.12 61.016 0.053 6.88 1.86 9.25
6/7/2022 7:15:00 PM 16.09 60.962 0.053 6.86 1.85 9.22
6/7/2022 7:30:00 PM 16.07 60.926 0.054 6.85 1.99 9.2
6/7/2022 7:45:00 PM 16.04 60.872 0.054 6.86 3.35 9.18
6/7/2022 8:00:00 PM 16.01 60.818 0.055 6.85 2.34 9.17
6/7/2022 8:15:00 PM 15.99 60.782 0.056 6.86 2.69 9.18
6/7/2022 8:30:00 PM 15.96 60.728 0.058 6.92 3.23 9.19
6/7/2022 8:45:00 PM 15.94 60.692 0.06 6.92 3.71 9.2
6/7/2022 9:00:00 PM 15.92 60.656 0.061 6.91 4.22 9.21
6/7/2022 9:15:00 PM 15.9 60.62 0.062 6.93 4.8 9.22
6/7/2022 9:30:00 PM 15.88 60.584 0.063 6.97 5.39 9.24
6/7/2022 9:45:00 PM 15.87 60.566 0.063 6.94 6.51 9.25
6/7/2022 10:00:00 PM 15.85 60.53 0.063 6.96 7.19 9.26
6/7/2022 10:15:00 PM 15.84 60.512 0.063 6.97 7.66 9.26
6/7/2022 10:30:00 PM 15.83 60.494 0.062 6.92 7.37 9.27
6/7/2022 10:45:00 PM 15.82 60.476 0.061 6.93 9.19 9.28
6/7/2022 11:00:00 PM 15.81 60.458 0.06 6.95 9.32 9.29
6/7/2022 11:15:00 PM 15.8 60.44 0.059 6.93 9.93 9.3
6/7/2022 11:30:00 PM 15.79 60.422 0.058 6.93 8.95 9.31
6/7/2022 11:45:00 PM 15.77 60.386 0.057 6.89 8.29 9.32
6/8/2022 12:00:00 AM 15.75 60.35 0.056 6.9 7.3 9.33
6/8/2022 12:15:00 AM 15.73 60.314 0.055 6.89 6.64 9.34
6/8/2022 12:30:00 AM 15.71 60.278 0.055 6.89 6.55 9.35
6/8/2022 12:45:00 AM 15.7 60.26 0.054 6.88 5.86 9.36
6/8/2022 1:00:00 AM 15.68 60.224 0.053 6.88 6.39 9.37
6/8/2022 1:15:00 AM 15.66 60.188 0.053 6.87 6.65 9.38
6/8/2022 1:30:00 AM 15.64 60.152 0.052 6.88 6.34 9.39
6/8/2022 1:45:00 AM 15.61 60.098 0.052 6.86 6.3 9.4
6/8/2022 2:00:00 AM 15.59 60.062 0.051 6.88 6.82 9.41
6/8/2022 2:15:00 AM 15.57 60.026 0.051 6.87 6.9 9.42
6/8/2022 2:30:00 AM 15.54 59.972 0.052 6.9 9.03 9.43
6/8/2022 2:45:00 AM 15.51 59.918 0.052 6.89 7.64 9.44
6/8/2022 3:00:00 AM 15.47 59.846 0.053 6.84 7.38 9.45
6/8/2022 3:15:00 AM 15.44 59.792 0.053 6.88 8.4 9.46
6/8/2022 3:30:00 AM 15.4 59.72 0.053 6.88 10.32 9.47
6/8/2022 3:45:00 AM 15.37 59.666 0.053 6.88 14.4 9.48
6/8/2022 4:00:00 AM 15.34 59.612 0.052 6.89 15.1 9.5
6/8/2022 4:15:00 AM 15.31 59.558 0.052 6.87 11.87 9.52
6/8/2022 4:30:00 AM 15.28 59.504 0.051 6.86 10.31 9.53
6/8/2022 4:45:00 AM 15.24 59.432 0.051 6.89 8.41 9.54
6/8/2022 5:00:00 AM 15.21 59.378 0.051 6.85 8.12 9.55
6/8/2022 5:15:00 AM 15.19 59.342 0.05 6.88 8.58 9.56
6/8/2022 5:30:00 AM 15.15 59.27 0.05 6.85 8.59 9.57
6/8/2022 5:45:00 AM 15.11 59.198 0.05 6.87 7.95 9.59
6/8/2022 6:00:00 AM 15.06 59.108 0.049 6.86 7.64 9.61
6/8/2022 6:15:00 AM 15.01 59.018 0.049 6.88 7.38 9.63
6/8/2022 6:30:00 AM 14.97 58.946 0.048 6.87 6.97 9.66
6/8/2022 6:45:00 AM 14.92 58.856 0.048 6.91 6.51 9.67
6/8/2022 7:00:00 AM 14.88 58.784 0.047 6.88 6.8 9.7
6/8/2022 7:15:00 AM 14.84 58.712 0.047 6.88 6.11 9.72
6/8/2022 7:30:00 AM 14.8 58.64 0.047 6.89 5.61 9.75
6/8/2022 7:45:00 AM 14.79 58.622 0.046 6.9 5.31 9.77
6/8/2022 8:00:00 AM 14.78 58.604 0.046 6.92 5.3 9.79
6/8/2022 8:15:00 AM 14.79 58.622 0.046 6.92 4.91 9.82
6/8/2022 8:30:00 AM 14.8 58.64 0.045 6.88 5.02 9.84
6/8/2022 8:45:00 AM 14.83 58.694 0.045 6.92 4.75 9.85
6/8/2022 9:00:00 AM 14.87 58.766 0.045 6.93 4.57 9.86
6/8/2022 9:15:00 AM 14.93 58.874 0.045 6.92 4.5 9.88
6/8/2022 9:30:00 AM 15.02 59.036 0.044 6.91 4.35 9.9
6/8/2022 9:45:00 AM 15.11 59.198 0.044 6.94 4.19 9.91
6/8/2022 10:00:00 AM 15.2 59.36 0.044 6.92 3.89 9.92
6/8/2022 10:15:00 AM 15.33 59.594 0.044 6.96 4.13 9.91
6/8/2022 10:30:00 AM 15.42 59.756 0.044 6.93 3.6 9.91
6/8/2022 10:45:00 AM 15.52 59.936 0.044 6.96 3.67 9.9
6/8/2022 11:00:00 AM 15.63 60.134 0.044 6.94 3.57 9.89
6/8/2022 11:15:00 AM 15.84 60.512 0.044 6.94 3.39 9.88
6/8/2022 11:30:00 AM 15.93 60.674 0.043 6.95 3.51 9.84
6/8/2022 11:45:00 AM 16.18 61.124 0.043 6.97 3.33 9.81
6/8/2022 12:00:00 PM 16.38 61.484 0.043 6.96 3.33 9.78
6/8/2022 12:15:00 PM 16.72 62.096 0.043 6.96 3.36 9.73
6/8/2022 12:30:00 PM 16.89 62.402 0.043 6.98 3.29 9.69
6/8/2022 12:45:00 PM 17.18 62.924 0.043 7.02 3.22 9.66
6/8/2022 1:00:00 PM 17.39 63.302 0.043 7 3.11 9.62
6/8/2022 1:15:00 PM 17.57 63.626 0.043 7.01 2.99 9.59
6/8/2022 1:30:00 PM 17.62 63.716 0.043 6.96 3.05 9.55
6/8/2022 1:45:00 PM 17.65 63.77 0.043 6.99 2.95 9.53
6/8/2022 2:00:00 PM 17.64 63.752 0.043 6.98 2.87 9.52
6/8/2022 2:15:00 PM 17.77 63.986 0.043 6.99 2.66 9.5
6/8/2022 2:30:00 PM 17.94 64.292 0.043 6.97 2.83 9.47
6/8/2022 2:45:00 PM 18.11 64.598 0.043 6.98 2.83 9.42
6/8/2022 3:00:00 PM 18.28 64.904 0.043 6.99 2.75 9.37
6/8/2022 3:15:00 PM 18.42 65.156 0.042 6.98 2.86 9.32
6/8/2022 3:30:00 PM 18.45 65.21 0.042 6.97 3.01 9.29
6/8/2022 3:45:00 PM 18.45 65.21 0.042 6.97 2.66 9.26
6/8/2022 4:00:00 PM 18.45 65.21 0.042 6.93 2.66 9.23
6/8/2022 4:15:00 PM 18.42 65.156 0.042 6.93 2.76 9.21
6/8/2022 4:30:00 PM 18.35 65.03 0.042 6.94 2.65 9.2
6/8/2022 4:45:00 PM 18.3 64.94 0.042 6.93 2.57 9.18
6/8/2022 5:00:00 PM 18.27 64.886 0.042 6.94 2.5 9.16
6/8/2022 5:15:00 PM 18.26 64.868 0.042 6.9 2.53 9.13
6/8/2022 5:30:00 PM 18.27 64.886 0.042 6.89 2.47 9.12
6/8/2022 5:45:00 PM 18.26 64.868 0.042 6.89 2.78 9.09
6/8/2022 6:00:00 PM 18.24 64.832 0.042 6.88 2.57 9.07
6/8/2022 6:15:00 PM 18.24 64.832 0.042 6.87 2.38 9.06
6/8/2022 6:30:00 PM 18.18 64.724 0.042 6.89 2.36 9.04
6/8/2022 6:45:00 PM 18.16 64.688 0.042 6.89 2.29 9.06
6/8/2022 7:00:00 PM 18.12 64.616 0.042 6.89 2.45 9.07
6/8/2022 7:15:00 PM 18.06 64.508 0.042 6.87 2.26 9.06
6/8/2022 7:30:00 PM 18 64.4 0.042 6.87 2.36 9.05
6/8/2022 7:45:00 PM 17.92 64.256 0.042 6.84 2.38 9.04
6/8/2022 8:00:00 PM 17.84 64.112 0.042 6.87 2.41 9.04
6/8/2022 8:15:00 PM 17.77 63.986 0.043 6.81 2.36 9.03
6/8/2022 8:30:00 PM 17.69 63.842 0.043 6.86 2.54 9.02
6/8/2022 8:45:00 PM 17.62 63.716 0.043 6.8 2.29 9.01
6/8/2022 9:00:00 PM 17.54 63.572 0.043 6.84 2.39 9
6/8/2022 9:15:00 PM 17.45 63.41 0.043 6.79 2.36 9
6/8/2022 9:30:00 PM 17.36 63.248 0.043 6.82 2.25 9.01
6/8/2022 9:45:00 PM 17.26 63.068 0.043 6.83 2.31 9.03
6/8/2022 10:00:00 PM 17.16 62.888 0.043 6.82 2.32 9.05
6/8/2022 10:15:00 PM 17.07 62.726 0.043 6.78 2.34 9.06
6/8/2022 10:30:00 PM 16.98 62.564 0.043 6.76 2.27 9.07
6/8/2022 10:45:00 PM 16.89 62.402 0.043 6.77 2.13 9.09
6/8/2022 11:00:00 PM 16.81 62.258 0.043 6.82 2.54 9.1
6/8/2022 11:15:00 PM 16.73 62.114 0.043 6.76 2.21 9.11
6/8/2022 11:30:00 PM 16.65 61.97 0.043 6.83 2.23 9.13
6/8/2022 11:45:00 PM 16.58 61.844 0.043 6.74 2.42 9.15
6/9/2022 12:00:00 AM 16.51 61.718 0.043 6.74 2.32 9.16
6/9/2022 12:15:00 AM 16.44 61.592 0.043 6.76 2.06 9.17
6/9/2022 12:30:00 AM 16.38 61.484 0.043 6.75 2.09 9.18
6/9/2022 12:45:00 AM 16.31 61.358 0.043 6.82 2.05 9.19
6/9/2022 1:00:00 AM 16.26 61.268 0.043 6.73 1.95 9.19
6/9/2022 1:15:00 AM 16.2 61.16 0.043 6.76 2.57 9.21
6/9/2022 1:30:00 AM 16.14 61.052 0.043 6.82 2.1 9.21
6/9/2022 1:45:00 AM 16.08 60.944 0.043 6.75 1.93 9.22
6/9/2022 2:00:00 AM 16.01 60.818 0.043 6.82 2.15 9.24
6/9/2022 2:15:00 AM 15.95 60.71 0.043 6.75 2.1 9.26
6/9/2022 2:30:00 AM 15.9 60.62 0.043 6.8 2.17 9.27
6/9/2022 2:45:00 AM 15.83 60.494 0.043 6.71 2.49 9.29
6/9/2022 3:00:00 AM 15.76 60.368 0.042 6.75 2.59 9.3
6/9/2022 3:15:00 AM 15.7 60.26 0.042 6.78 2.48 9.32
6/9/2022 3:30:00 AM 15.64 60.152 0.042 6.78 2.96 9.33
6/9/2022 3:45:00 AM 15.59 60.062 0.043 6.77 4.59 9.33
6/9/2022 4:00:00 AM 15.54 59.972 0.045 6.83 10.17 9.35
6/9/2022 4:15:00 AM 15.51 59.918 0.049 6.85 32.31 9.38
6/9/2022 4:30:00 AM 15.48 59.864 0.054 6.97 48.82 9.41
6/9/2022 4:45:00 AM 15.47 59.846 0.058 6.98 89.3 9.43
6/9/2022 5:00:00 AM 15.44 59.792 0.061 7.03 83.42 9.44
6/9/2022 5:15:00 AM 15.44 59.792 0.058 7 73.19 9.44
6/9/2022 5:30:00 AM 15.42 59.756 0.055 7 71.48 9.45
6/9/2022 5:45:00 AM 15.4 59.72 0.053 6.93 66.98 9.46
6/9/2022 6:00:00 AM 15.37 59.666 0.051 6.98 58.16 9.47
6/9/2022 6:15:00 AM 15.33 59.594 0.05 6.9 47.11 9.49
6/9/2022 6:30:00 AM 15.3 59.54 0.049 6.92 43.46 9.51
6/9/2022 6:45:00 AM 15.26 59.468 0.048 6.9 38.76 9.54
6/9/2022 7:00:00 AM 15.23 59.414 0.046 6.88 33.48 9.56
6/9/2022 7:15:00 AM 15.19 59.342 0.044 6.88 33.46 9.59
6/9/2022 7:30:00 AM 15.15 59.27 0.043 6.89 29.26 9.61
6/9/2022 7:45:00 AM 15.12 59.216 0.043 6.84 30.94 9.63
6/9/2022 8:00:00 AM 15.09 59.162 0.041 6.85 31.99 9.64
6/9/2022 8:15:00 AM 15.07 59.126 0.04 6.82 30.47 9.66
6/9/2022 8:30:00 AM 15.06 59.108 0.039 6.84 29.1 9.67
6/9/2022 8:45:00 AM 15.07 59.126 0.038 6.8 25.04 9.69
6/9/2022 9:00:00 AM 15.12 59.216 0.037 6.83 30.34 9.7
6/9/2022 9:15:00 AM 15.15 59.27 0.037 6.8 21.54 9.71
6/9/2022 9:30:00 AM 15.16 59.288 0.037 6.79 18.96 9.7
6/9/2022 9:45:00 AM 15.18 59.324 0.037 6.78 20.11 9.68
6/9/2022 10:00:00 AM 15.27 59.486 0.037 6.86 18.31 9.69
6/9/2022 10:15:00 AM 15.44 59.792 0.037 6.8 17.34 9.69
6/9/2022 10:30:00 AM 15.57 60.026 0.037 6.82 16.26 9.68
6/9/2022 10:45:00 AM 15.62 60.116 0.037 6.83 15.08 9.65
6/9/2022 11:00:00 AM 15.83 60.494 0.037 6.84 13.94 9.66
6/9/2022 11:15:00 AM 15.93 60.674 0.037 6.86 13.32 9.64
6/9/2022 11:30:00 AM 15.94 60.692 0.037 6.9 12.58 9.62
6/9/2022 11:45:00 AM 16.01 60.818 0.037 6.86 11.77 9.59
6/9/2022 12:00:00 PM 16.07 60.926 0.037 6.86 11.27 9.59
6/9/2022 12:15:00 PM 16.16 61.088 0.037 6.88 10.56 9.6
6/9/2022 12:30:00 PM 16.19 61.142 0.037 6.89 9.99 9.59
6/9/2022 12:45:00 PM 16.28 61.304 0.037 6.88 9.55 9.6
6/9/2022 1:00:00 PM 16.33 61.394 0.037 6.86 9.63 9.57
6/9/2022 1:15:00 PM 16.26 61.268 0.037 6.88 8.88 9.57
6/9/2022 1:30:00 PM 16.31 61.358 0.036 6.84 8.56 9.56
6/9/2022 1:45:00 PM 16.29 61.322 0.036 6.85 8.36 9.54
6/9/2022 2:00:00 PM 16.33 61.394 0.036 6.89 8.15 9.56
6/9/2022 2:15:00 PM 16.35 61.43 0.036 6.83 8.16 9.51
6/9/2022 2:30:00 PM 16.36 61.448 0.035 6.81 7.69 9.53
6/9/2022 2:45:00 PM 16.42 61.556 0.035 6.82 7.16 9.55
6/9/2022 3:00:00 PM 16.41 61.538 0.035 6.81 6.9 9.52
6/9/2022 3:15:00 PM 16.42 61.556 0.035 6.82 6.97 9.53
6/9/2022 3:30:00 PM 16.5 61.7 0.034 6.79 6.55 9.53
6/9/2022 3:45:00 PM 16.54 61.772 0.034 6.86 6.73 9.53
6/9/2022 4:00:00 PM 16.47 61.646 0.034 6.82 6.6 9.52
6/9/2022 4:15:00 PM 16.52 61.736 0.034 6.81 6.15 9.51
6/9/2022 4:30:00 PM 16.56 61.808 0.034 6.84 6.19 9.51
6/9/2022 4:45:00 PM 16.55 61.79 0.034 6.83 6.02 9.48
6/9/2022 5:00:00 PM 16.49 61.682 0.034 6.73 5.98 9.49
6/9/2022 5:15:00 PM 16.45 61.61 0.034 6.76 5.6 9.49
6/9/2022 5:30:00 PM 16.43 61.574 0.034 6.78 5.67 9.5
6/9/2022 5:45:00 PM 16.38 61.484 0.033 6.73 5.5 9.5
6/9/2022 6:00:00 PM 16.32 61.376 0.033 6.76 5.29 9.49
6/9/2022 6:15:00 PM 16.27 61.286 0.033 6.73 5.09 9.49
6/9/2022 6:30:00 PM 16.18 61.124 0.033 6.74 4.95 9.5
6/9/2022 6:45:00 PM 16.1 60.98 0.033 6.74 4.86 9.51
6/9/2022 7:00:00 PM 16.04 60.872 0.033 6.77 4.89 9.51
6/9/2022 7:15:00 PM 15.98 60.764 0.033 6.7 4.87 9.51
6/9/2022 7:30:00 PM 15.91 60.638 0.033 6.73 4.74 9.52
6/9/2022 7:45:00 PM 15.83 60.494 0.033 6.69 4.78 9.52
6/9/2022 8:00:00 PM 15.76 60.368 0.033 6.69 4.49 9.53
6/9/2022 8:15:00 PM 15.67 60.206 0.033 6.69 4.51 9.54
6/9/2022 8:30:00 PM 15.6 60.08 0.033 6.73 4.33 9.54
6/9/2022 8:45:00 PM 15.52 59.936 0.033 6.71 4.27 9.54
6/9/2022 9:00:00 PM 15.44 59.792 0.033 6.66 4.26 9.55
6/9/2022 9:15:00 PM 15.36 59.648 0.033 6.73 4.54 9.57
6/9/2022 9:30:00 PM 15.28 59.504 0.033 6.68 4.24 9.59
6/9/2022 9:45:00 PM 15.21 59.378 0.033 6.66 4.26 9.6
6/9/2022 10:00:00 PM 15.13 59.234 0.033 6.71 4.03 9.61
6/9/2022 10:15:00 PM 15.07 59.126 0.033 6.64 4.27 9.63
6/9/2022 10:30:00 PM 15 59 0.033 6.63 3.91 9.64
6/9/2022 10:45:00 PM 14.93 58.874 0.033 6.65 4.07 9.65
6/9/2022 11:00:00 PM 14.87 58.766 0.033 6.71 3.96 9.66
6/9/2022 11:15:00 PM 14.79 58.622 0.033 6.63 3.9 9.68
6/9/2022 11:30:00 PM 14.72 58.496 0.033 6.7 3.8 9.7
6/9/2022 11:45:00 PM 14.64 58.352 0.033 6.63 3.97 9.72
6/10/2022 12:00:00 AM 14.58 58.244 0.033 6.65 3.8 9.73
6/10/2022 12:15:00 AM 14.51 58.118 0.033 6.64 3.84 9.75
6/10/2022 12:30:00 AM 14.44 57.992 0.033 6.62 3.69 9.76
6/10/2022 12:45:00 AM 14.37 57.866 0.033 6.63 3.81 9.78
6/10/2022 1:00:00 AM 14.31 57.758 0.033 6.68 3.57 9.78
6/10/2022 1:15:00 AM 14.25 57.65 0.033 6.61 3.69 9.79
6/10/2022 1:30:00 AM 14.19 57.542 0.033 6.61 3.61 9.81
6/10/2022 1:45:00 AM 14.13 57.434 0.033 6.65 3.76 9.82
6/10/2022 2:00:00 AM 14.07 57.326 0.033 6.62 3.6 9.84
6/10/2022 2:15:00 AM 14.01 57.218 0.033 6.64 3.51 9.85
6/10/2022 2:30:00 AM 13.96 57.128 0.034 6.69 3.47 9.86
6/10/2022 2:45:00 AM 13.9 57.02 0.034 6.62 3.43 9.87
6/10/2022 3:00:00 AM 13.85 56.93 0.034 6.62 3.4 9.89
6/10/2022 3:15:00 AM 13.8 56.84 0.034 6.63 3.29 9.89
6/10/2022 3:30:00 AM 13.75 56.75 0.034 6.68 3.32 9.89
6/10/2022 3:45:00 AM 13.71 56.678 0.034 6.68 3.39 9.9
6/10/2022 4:00:00 AM 13.66 56.588 0.034 6.59 3.22 9.92
6/10/2022 4:15:00 AM 13.62 56.516 0.034 6.66 3.25 9.92
6/10/2022 4:30:00 AM 13.57 56.426 0.034 6.61 3.24 9.93
6/10/2022 4:45:00 AM 13.53 56.354 0.034 6.63 3.21 9.94
6/10/2022 5:00:00 AM 13.49 56.282 0.034 6.63 3.35 9.95
6/10/2022 5:15:00 AM 13.44 56.192 0.034 6.62 3.25 9.96
6/10/2022 5:30:00 AM 13.4 56.12 0.034 6.63 3.63 9.98
6/10/2022 5:45:00 AM 13.36 56.048 0.034 6.61 3.17 10
6/10/2022 6:00:00 AM 13.32 55.976 0.034 6.64 3.19 10.01
6/10/2022 6:15:00 AM 13.28 55.904 0.034 6.61 3.18 10.03
6/10/2022 6:30:00 AM 13.24 55.832 0.034 6.63 3 10.05
6/10/2022 6:45:00 AM 13.21 55.778 0.034 6.64 3.07 10.08
6/10/2022 7:00:00 AM 13.18 55.724 0.034 6.66 2.92 10.09
6/10/2022 7:15:00 AM 13.17 55.706 0.034 6.63 2.85 10.11
6/10/2022 7:30:00 AM 13.17 55.706 0.034 6.66 2.91 10.13
6/10/2022 7:45:00 AM 13.19 55.742 0.034 6.69 2.86 10.14
6/10/2022 8:00:00 AM 13.22 55.796 0.034 6.67 2.92 10.15
6/10/2022 8:15:00 AM 13.27 55.886 0.034 6.71 2.83 10.16
6/10/2022 8:30:00 AM 13.32 55.976 0.034 6.67 2.6 10.17
6/10/2022 8:45:00 AM 13.38 56.084 0.034 6.69 2.57 10.17
6/10/2022 9:00:00 AM 13.46 56.228 0.034 6.69 2.61 10.17
6/10/2022 9:15:00 AM 13.54 56.372 0.034 6.69 2.67 10.17
6/10/2022 9:30:00 AM 13.65 56.57 0.034 6.73 2.58 10.17
6/10/2022 9:45:00 AM 13.76 56.768 0.034 6.72 2.52 10.17
6/10/2022 10:00:00 AM 13.89 57.002 0.034 6.71 2.75 10.16
6/10/2022 10:15:00 AM 14.06 57.308 0.034 6.73 2.65 10.15
6/10/2022 10:30:00 AM 14.17 57.506 0.034 6.72 2.46 10.11